<?xml version="1.0" encoding="UTF-8" standalone="no" ?>
<gpx xmlns="http://www.topografix.com/GPX/1/1" xmlns:xsi="http://www.w3.org/2001/XMLSchema-instance" xsi:schemaLocation="http://www.topografix.com/GPX/1/1 http://www.topografix.com/GPX/1/1/gpx.xsd" version="1.1" creator="VisuGPX - https://www.visugpx.com">
  <metadata>
    <name>LE MUY : L'Endre par Pins Pignons 2021-09-13 (RQB)</name>
  </metadata>
  <trk>
    <name><![CDATA[SityTrail - LE MUY : L'Endre par Pins Pignons 2021-09-13 (RQB)]]></name>
    <trkseg>
      <trkpt lat="43.50397" lon="6.59073">
        <ele>36</ele>
        <time>2021-09-13T07:02:52.904Z</time>
      </trkpt>
      <trkpt lat="43.50396" lon="6.59073">
        <ele>36</ele>
        <time>2021-09-13T07:02:53.944Z</time>
      </trkpt>
      <trkpt lat="43.5039" lon="6.59077">
        <ele>36</ele>
        <time>2021-09-13T07:03:01.970Z</time>
      </trkpt>
      <trkpt lat="43.50384" lon="6.5908">
        <ele>36</ele>
        <time>2021-09-13T07:03:06.918Z</time>
      </trkpt>
      <trkpt lat="43.5038" lon="6.59081">
        <ele>36</ele>
        <time>2021-09-13T07:03:10.933Z</time>
      </trkpt>
      <trkpt lat="43.50375" lon="6.59082">
        <ele>37</ele>
        <time>2021-09-13T07:03:15.923Z</time>
      </trkpt>
      <trkpt lat="43.50372" lon="6.59083">
        <ele>37</ele>
        <time>2021-09-13T07:03:20.933Z</time>
      </trkpt>
      <trkpt lat="43.50367" lon="6.59086">
        <ele>37</ele>
        <time>2021-09-13T07:03:24.944Z</time>
      </trkpt>
      <trkpt lat="43.50363" lon="6.59092">
        <ele>37</ele>
        <time>2021-09-13T07:03:29.935Z</time>
      </trkpt>
      <trkpt lat="43.50361" lon="6.59095">
        <ele>37</ele>
        <time>2021-09-13T07:03:34.934Z</time>
      </trkpt>
      <trkpt lat="43.50361" lon="6.591">
        <ele>39</ele>
        <time>2021-09-13T07:03:39.929Z</time>
      </trkpt>
      <trkpt lat="43.50361" lon="6.59105">
        <ele>39</ele>
        <time>2021-09-13T07:03:43.928Z</time>
      </trkpt>
      <trkpt lat="43.5036" lon="6.5911">
        <ele>39</ele>
        <time>2021-09-13T07:03:47.940Z</time>
      </trkpt>
      <trkpt lat="43.50359" lon="6.59114">
        <ele>39</ele>
        <time>2021-09-13T07:03:52.937Z</time>
      </trkpt>
      <trkpt lat="43.50355" lon="6.59115">
        <ele>39</ele>
        <time>2021-09-13T07:03:57.927Z</time>
      </trkpt>
      <trkpt lat="43.50351" lon="6.59115">
        <ele>39</ele>
        <time>2021-09-13T07:04:02.941Z</time>
      </trkpt>
      <trkpt lat="43.50347" lon="6.59115">
        <ele>39</ele>
        <time>2021-09-13T07:04:07.937Z</time>
      </trkpt>
      <trkpt lat="43.50343" lon="6.59116">
        <ele>40</ele>
        <time>2021-09-13T07:04:12.924Z</time>
      </trkpt>
      <trkpt lat="43.50341" lon="6.59116">
        <ele>40</ele>
        <time>2021-09-13T07:04:17.930Z</time>
      </trkpt>
      <trkpt lat="43.50338" lon="6.59118">
        <ele>40</ele>
        <time>2021-09-13T07:04:22.940Z</time>
      </trkpt>
      <trkpt lat="43.50332" lon="6.59118">
        <ele>40</ele>
        <time>2021-09-13T07:04:27.906Z</time>
      </trkpt>
      <trkpt lat="43.50329" lon="6.59118">
        <ele>40</ele>
        <time>2021-09-13T07:04:31.973Z</time>
      </trkpt>
      <trkpt lat="43.50325" lon="6.59117">
        <ele>40</ele>
        <time>2021-09-13T07:04:36.920Z</time>
      </trkpt>
      <trkpt lat="43.50321" lon="6.59119">
        <ele>40</ele>
        <time>2021-09-13T07:04:41.940Z</time>
      </trkpt>
      <trkpt lat="43.50318" lon="6.5912">
        <ele>38</ele>
        <time>2021-09-13T07:04:46.900Z</time>
      </trkpt>
      <trkpt lat="43.50316" lon="6.59121">
        <ele>38</ele>
        <time>2021-09-13T07:04:50.991Z</time>
      </trkpt>
      <trkpt lat="43.50312" lon="6.59122">
        <ele>38</ele>
        <time>2021-09-13T07:04:55.937Z</time>
      </trkpt>
      <trkpt lat="43.50309" lon="6.59123">
        <ele>38</ele>
        <time>2021-09-13T07:05:00.906Z</time>
      </trkpt>
      <trkpt lat="43.50305" lon="6.59123">
        <ele>38</ele>
        <time>2021-09-13T07:05:04.921Z</time>
      </trkpt>
      <trkpt lat="43.50301" lon="6.59124">
        <ele>38</ele>
        <time>2021-09-13T07:05:09.924Z</time>
      </trkpt>
      <trkpt lat="43.50295" lon="6.59125">
        <ele>40</ele>
        <time>2021-09-13T07:05:13.933Z</time>
      </trkpt>
      <trkpt lat="43.50288" lon="6.59125">
        <ele>39</ele>
        <time>2021-09-13T07:05:18.909Z</time>
      </trkpt>
      <trkpt lat="43.50279" lon="6.5912">
        <ele>35</ele>
        <time>2021-09-13T07:05:23.928Z</time>
      </trkpt>
      <trkpt lat="43.50275" lon="6.59119">
        <ele>35</ele>
        <time>2021-09-13T07:05:28.913Z</time>
      </trkpt>
      <trkpt lat="43.5027" lon="6.59116">
        <ele>35</ele>
        <time>2021-09-13T07:05:32.940Z</time>
      </trkpt>
      <trkpt lat="43.50262" lon="6.59112">
        <ele>34</ele>
        <time>2021-09-13T07:05:37.897Z</time>
      </trkpt>
      <trkpt lat="43.50257" lon="6.5911">
        <ele>34</ele>
        <time>2021-09-13T07:05:41.911Z</time>
      </trkpt>
      <trkpt lat="43.50253" lon="6.5911">
        <ele>34</ele>
        <time>2021-09-13T07:05:45.919Z</time>
      </trkpt>
      <trkpt lat="43.50248" lon="6.59109">
        <ele>34</ele>
        <time>2021-09-13T07:05:49.931Z</time>
      </trkpt>
      <trkpt lat="43.50241" lon="6.59109">
        <ele>34</ele>
        <time>2021-09-13T07:05:54.912Z</time>
      </trkpt>
      <trkpt lat="43.50237" lon="6.5911">
        <ele>34</ele>
        <time>2021-09-13T07:05:58.932Z</time>
      </trkpt>
      <trkpt lat="43.5023" lon="6.5911">
        <ele>35</ele>
        <time>2021-09-13T07:06:03.917Z</time>
      </trkpt>
      <trkpt lat="43.50224" lon="6.59109">
        <ele>35</ele>
        <time>2021-09-13T07:06:07.922Z</time>
      </trkpt>
      <trkpt lat="43.50219" lon="6.59108">
        <ele>35</ele>
        <time>2021-09-13T07:06:12.920Z</time>
      </trkpt>
      <trkpt lat="43.50212" lon="6.59107">
        <ele>35</ele>
        <time>2021-09-13T07:06:17.925Z</time>
      </trkpt>
      <trkpt lat="43.50206" lon="6.59107">
        <ele>34</ele>
        <time>2021-09-13T07:06:22.921Z</time>
      </trkpt>
      <trkpt lat="43.50203" lon="6.59106">
        <ele>34</ele>
        <time>2021-09-13T07:06:27.932Z</time>
      </trkpt>
      <trkpt lat="43.50199" lon="6.59107">
        <ele>34</ele>
        <time>2021-09-13T07:06:31.951Z</time>
      </trkpt>
      <trkpt lat="43.50194" lon="6.59106">
        <ele>34</ele>
        <time>2021-09-13T07:06:36.935Z</time>
      </trkpt>
      <trkpt lat="43.50188" lon="6.59104">
        <ele>34</ele>
        <time>2021-09-13T07:06:41.959Z</time>
      </trkpt>
      <trkpt lat="43.50183" lon="6.59104">
        <ele>34</ele>
        <time>2021-09-13T07:06:45.930Z</time>
      </trkpt>
      <trkpt lat="43.50177" lon="6.59102">
        <ele>32</ele>
        <time>2021-09-13T07:06:50.921Z</time>
      </trkpt>
      <trkpt lat="43.50169" lon="6.59101">
        <ele>32</ele>
        <time>2021-09-13T07:06:54.925Z</time>
      </trkpt>
      <trkpt lat="43.50167" lon="6.59099">
        <ele>32</ele>
        <time>2021-09-13T07:06:59.965Z</time>
      </trkpt>
      <trkpt lat="43.50162" lon="6.59098">
        <ele>32</ele>
        <time>2021-09-13T07:07:04.925Z</time>
      </trkpt>
      <trkpt lat="43.50158" lon="6.59099">
        <ele>32</ele>
        <time>2021-09-13T07:07:08.909Z</time>
      </trkpt>
      <trkpt lat="43.50152" lon="6.59099">
        <ele>30</ele>
        <time>2021-09-13T07:07:12.936Z</time>
      </trkpt>
      <trkpt lat="43.50142" lon="6.591">
        <ele>30</ele>
        <time>2021-09-13T07:07:16.922Z</time>
      </trkpt>
      <trkpt lat="43.50136" lon="6.591">
        <ele>30</ele>
        <time>2021-09-13T07:07:20.932Z</time>
      </trkpt>
      <trkpt lat="43.5013" lon="6.59103">
        <ele>30</ele>
        <time>2021-09-13T07:07:25.914Z</time>
      </trkpt>
      <trkpt lat="43.50124" lon="6.59103">
        <ele>30</ele>
        <time>2021-09-13T07:07:29.932Z</time>
      </trkpt>
      <trkpt lat="43.50118" lon="6.59103">
        <ele>30</ele>
        <time>2021-09-13T07:07:34.939Z</time>
      </trkpt>
      <trkpt lat="43.50112" lon="6.59103">
        <ele>30</ele>
        <time>2021-09-13T07:07:39.921Z</time>
      </trkpt>
      <trkpt lat="43.50107" lon="6.59102">
        <ele>30</ele>
        <time>2021-09-13T07:07:44.931Z</time>
      </trkpt>
      <trkpt lat="43.50101" lon="6.59102">
        <ele>30</ele>
        <time>2021-09-13T07:07:49.929Z</time>
      </trkpt>
      <trkpt lat="43.50098" lon="6.59108">
        <ele>30</ele>
        <time>2021-09-13T07:07:53.926Z</time>
      </trkpt>
      <trkpt lat="43.50095" lon="6.59117">
        <ele>30</ele>
        <time>2021-09-13T07:07:58.894Z</time>
      </trkpt>
      <trkpt lat="43.50091" lon="6.5912">
        <ele>30</ele>
        <time>2021-09-13T07:08:02.914Z</time>
      </trkpt>
      <trkpt lat="43.50086" lon="6.59122">
        <ele>30</ele>
        <time>2021-09-13T07:08:06.912Z</time>
      </trkpt>
      <trkpt lat="43.50082" lon="6.59126">
        <ele>32</ele>
        <time>2021-09-13T07:08:10.933Z</time>
      </trkpt>
      <trkpt lat="43.50078" lon="6.59127">
        <ele>32</ele>
        <time>2021-09-13T07:08:14.926Z</time>
      </trkpt>
      <trkpt lat="43.50072" lon="6.59131">
        <ele>32</ele>
        <time>2021-09-13T07:08:19.914Z</time>
      </trkpt>
      <trkpt lat="43.50069" lon="6.59134">
        <ele>31</ele>
        <time>2021-09-13T07:08:23.933Z</time>
      </trkpt>
      <trkpt lat="43.50065" lon="6.59137">
        <ele>31</ele>
        <time>2021-09-13T07:08:27.946Z</time>
      </trkpt>
      <trkpt lat="43.5006" lon="6.5914">
        <ele>31</ele>
        <time>2021-09-13T07:08:32.922Z</time>
      </trkpt>
      <trkpt lat="43.50055" lon="6.59143">
        <ele>31</ele>
        <time>2021-09-13T07:08:36.929Z</time>
      </trkpt>
      <trkpt lat="43.50049" lon="6.59146">
        <ele>31</ele>
        <time>2021-09-13T07:08:41.925Z</time>
      </trkpt>
      <trkpt lat="43.50044" lon="6.5915">
        <ele>31</ele>
        <time>2021-09-13T07:08:46.921Z</time>
      </trkpt>
      <trkpt lat="43.5004" lon="6.59153">
        <ele>33</ele>
        <time>2021-09-13T07:08:51.907Z</time>
      </trkpt>
      <trkpt lat="43.50036" lon="6.59156">
        <ele>33</ele>
        <time>2021-09-13T07:08:56.892Z</time>
      </trkpt>
      <trkpt lat="43.50031" lon="6.59157">
        <ele>33</ele>
        <time>2021-09-13T07:09:00.935Z</time>
      </trkpt>
      <trkpt lat="43.50028" lon="6.59158">
        <ele>33</ele>
        <time>2021-09-13T07:09:05.906Z</time>
      </trkpt>
      <trkpt lat="43.50024" lon="6.59158">
        <ele>33</ele>
        <time>2021-09-13T07:09:09.921Z</time>
      </trkpt>
      <trkpt lat="43.50018" lon="6.59157">
        <ele>33</ele>
        <time>2021-09-13T07:09:14.950Z</time>
      </trkpt>
      <trkpt lat="43.50012" lon="6.59157">
        <ele>35</ele>
        <time>2021-09-13T07:09:19.928Z</time>
      </trkpt>
      <trkpt lat="43.50003" lon="6.59157">
        <ele>35</ele>
        <time>2021-09-13T07:09:24.932Z</time>
      </trkpt>
      <trkpt lat="43.49994" lon="6.59155">
        <ele>35</ele>
        <time>2021-09-13T07:09:29.918Z</time>
      </trkpt>
      <trkpt lat="43.4999" lon="6.59152">
        <ele>31</ele>
        <time>2021-09-13T07:09:33.980Z</time>
      </trkpt>
      <trkpt lat="43.49983" lon="6.59148">
        <ele>32</ele>
        <time>2021-09-13T07:09:38.944Z</time>
      </trkpt>
      <trkpt lat="43.4998" lon="6.59144">
        <ele>32</ele>
        <time>2021-09-13T07:09:42.926Z</time>
      </trkpt>
      <trkpt lat="43.49975" lon="6.5914">
        <ele>32</ele>
        <time>2021-09-13T07:09:47.912Z</time>
      </trkpt>
      <trkpt lat="43.4997" lon="6.59138">
        <ele>32</ele>
        <time>2021-09-13T07:09:52.921Z</time>
      </trkpt>
      <trkpt lat="43.49968" lon="6.59136">
        <ele>32</ele>
        <time>2021-09-13T07:09:56.922Z</time>
      </trkpt>
      <trkpt lat="43.49966" lon="6.59134">
        <ele>32</ele>
        <time>2021-09-13T07:10:00.942Z</time>
      </trkpt>
      <trkpt lat="43.49962" lon="6.59131">
        <ele>32</ele>
        <time>2021-09-13T07:10:05.910Z</time>
      </trkpt>
      <trkpt lat="43.49957" lon="6.59129">
        <ele>33</ele>
        <time>2021-09-13T07:10:09.923Z</time>
      </trkpt>
      <trkpt lat="43.49952" lon="6.59126">
        <ele>33</ele>
        <time>2021-09-13T07:10:14.910Z</time>
      </trkpt>
      <trkpt lat="43.49946" lon="6.59122">
        <ele>29</ele>
        <time>2021-09-13T07:10:19.934Z</time>
      </trkpt>
      <trkpt lat="43.4994" lon="6.59119">
        <ele>29</ele>
        <time>2021-09-13T07:10:24.967Z</time>
      </trkpt>
      <trkpt lat="43.49936" lon="6.59117">
        <ele>29</ele>
        <time>2021-09-13T07:10:29.915Z</time>
      </trkpt>
      <trkpt lat="43.49931" lon="6.59116">
        <ele>29</ele>
        <time>2021-09-13T07:10:34.931Z</time>
      </trkpt>
      <trkpt lat="43.49924" lon="6.59115">
        <ele>29</ele>
        <time>2021-09-13T07:10:39.918Z</time>
      </trkpt>
      <trkpt lat="43.49919" lon="6.59115">
        <ele>29</ele>
        <time>2021-09-13T07:10:43.926Z</time>
      </trkpt>
      <trkpt lat="43.49908" lon="6.59119">
        <ele>29</ele>
        <time>2021-09-13T07:10:48.934Z</time>
      </trkpt>
      <trkpt lat="43.499" lon="6.59123">
        <ele>27</ele>
        <time>2021-09-13T07:10:53.917Z</time>
      </trkpt>
      <trkpt lat="43.49893" lon="6.59126">
        <ele>31</ele>
        <time>2021-09-13T07:10:58.912Z</time>
      </trkpt>
      <trkpt lat="43.49886" lon="6.59128">
        <ele>31</ele>
        <time>2021-09-13T07:11:03.910Z</time>
      </trkpt>
      <trkpt lat="43.49882" lon="6.59129">
        <ele>31</ele>
        <time>2021-09-13T07:11:07.926Z</time>
      </trkpt>
      <trkpt lat="43.49876" lon="6.59131">
        <ele>31</ele>
        <time>2021-09-13T07:11:12.911Z</time>
      </trkpt>
      <trkpt lat="43.4987" lon="6.59134">
        <ele>29</ele>
        <time>2021-09-13T07:11:17.919Z</time>
      </trkpt>
      <trkpt lat="43.49865" lon="6.59137">
        <ele>29</ele>
        <time>2021-09-13T07:11:21.961Z</time>
      </trkpt>
      <trkpt lat="43.49861" lon="6.59143">
        <ele>29</ele>
        <time>2021-09-13T07:11:26.924Z</time>
      </trkpt>
      <trkpt lat="43.49857" lon="6.5915">
        <ele>29</ele>
        <time>2021-09-13T07:11:31.922Z</time>
      </trkpt>
      <trkpt lat="43.49853" lon="6.59156">
        <ele>32</ele>
        <time>2021-09-13T07:11:36.919Z</time>
      </trkpt>
      <trkpt lat="43.4985" lon="6.59162">
        <ele>32</ele>
        <time>2021-09-13T07:11:41.930Z</time>
      </trkpt>
      <trkpt lat="43.49846" lon="6.59167">
        <ele>30</ele>
        <time>2021-09-13T07:11:45.933Z</time>
      </trkpt>
      <trkpt lat="43.49843" lon="6.59172">
        <ele>30</ele>
        <time>2021-09-13T07:11:50.928Z</time>
      </trkpt>
      <trkpt lat="43.4984" lon="6.59175">
        <ele>30</ele>
        <time>2021-09-13T07:11:55.920Z</time>
      </trkpt>
      <trkpt lat="43.49836" lon="6.59179">
        <ele>30</ele>
        <time>2021-09-13T07:12:00.907Z</time>
      </trkpt>
      <trkpt lat="43.49833" lon="6.59182">
        <ele>33</ele>
        <time>2021-09-13T07:12:05.931Z</time>
      </trkpt>
      <trkpt lat="43.49828" lon="6.59187">
        <ele>33</ele>
        <time>2021-09-13T07:12:10.900Z</time>
      </trkpt>
      <trkpt lat="43.49823" lon="6.59193">
        <ele>33</ele>
        <time>2021-09-13T07:12:14.929Z</time>
      </trkpt>
      <trkpt lat="43.49818" lon="6.59201">
        <ele>29</ele>
        <time>2021-09-13T07:12:19.910Z</time>
      </trkpt>
      <trkpt lat="43.49814" lon="6.59205">
        <ele>29</ele>
        <time>2021-09-13T07:12:23.913Z</time>
      </trkpt>
      <trkpt lat="43.4981" lon="6.59208">
        <ele>29</ele>
        <time>2021-09-13T07:12:27.959Z</time>
      </trkpt>
      <trkpt lat="43.49805" lon="6.59213">
        <ele>31</ele>
        <time>2021-09-13T07:12:32.898Z</time>
      </trkpt>
      <trkpt lat="43.49803" lon="6.59215">
        <ele>31</ele>
        <time>2021-09-13T07:12:37.906Z</time>
      </trkpt>
      <trkpt lat="43.49802" lon="6.59217">
        <ele>31</ele>
        <time>2021-09-13T07:12:42.908Z</time>
      </trkpt>
      <trkpt lat="43.49801" lon="6.59218">
        <ele>31</ele>
        <time>2021-09-13T07:12:46.914Z</time>
      </trkpt>
      <trkpt lat="43.49796" lon="6.59224">
        <ele>31</ele>
        <time>2021-09-13T07:12:51.922Z</time>
      </trkpt>
      <trkpt lat="43.49791" lon="6.59231">
        <ele>25</ele>
        <time>2021-09-13T07:12:56.921Z</time>
      </trkpt>
      <trkpt lat="43.49787" lon="6.59237">
        <ele>26</ele>
        <time>2021-09-13T07:13:00.931Z</time>
      </trkpt>
      <trkpt lat="43.49785" lon="6.59244">
        <ele>26</ele>
        <time>2021-09-13T07:13:05.931Z</time>
      </trkpt>
      <trkpt lat="43.49783" lon="6.59249">
        <ele>26</ele>
        <time>2021-09-13T07:13:10.918Z</time>
      </trkpt>
      <trkpt lat="43.49781" lon="6.59255">
        <ele>26</ele>
        <time>2021-09-13T07:13:14.925Z</time>
      </trkpt>
      <trkpt lat="43.4978" lon="6.59259">
        <ele>26</ele>
        <time>2021-09-13T07:13:18.933Z</time>
      </trkpt>
      <trkpt lat="43.49779" lon="6.59264">
        <ele>26</ele>
        <time>2021-09-13T07:13:23.931Z</time>
      </trkpt>
      <trkpt lat="43.49774" lon="6.59275">
        <ele>26</ele>
        <time>2021-09-13T07:13:28.928Z</time>
      </trkpt>
      <trkpt lat="43.4977" lon="6.59287">
        <ele>26</ele>
        <time>2021-09-13T07:13:33.909Z</time>
      </trkpt>
      <trkpt lat="43.49769" lon="6.59293">
        <ele>28</ele>
        <time>2021-09-13T07:13:37.932Z</time>
      </trkpt>
      <trkpt lat="43.49769" lon="6.59294">
        <ele>28</ele>
        <time>2021-09-13T07:13:41.960Z</time>
      </trkpt>
      <trkpt lat="43.49766" lon="6.59301">
        <ele>28</ele>
        <time>2021-09-13T07:13:46.925Z</time>
      </trkpt>
      <trkpt lat="43.49764" lon="6.59307">
        <ele>28</ele>
        <time>2021-09-13T07:13:51.921Z</time>
      </trkpt>
      <trkpt lat="43.49763" lon="6.59311">
        <ele>24</ele>
        <time>2021-09-13T07:13:55.933Z</time>
      </trkpt>
      <trkpt lat="43.49759" lon="6.59319">
        <ele>24</ele>
        <time>2021-09-13T07:14:00.949Z</time>
      </trkpt>
      <trkpt lat="43.49756" lon="6.59323">
        <ele>26</ele>
        <time>2021-09-13T07:14:04.925Z</time>
      </trkpt>
      <trkpt lat="43.49752" lon="6.5933">
        <ele>26</ele>
        <time>2021-09-13T07:14:08.935Z</time>
      </trkpt>
      <trkpt lat="43.4975" lon="6.59334">
        <ele>26</ele>
        <time>2021-09-13T07:14:13.963Z</time>
      </trkpt>
      <trkpt lat="43.49745" lon="6.5934">
        <ele>26</ele>
        <time>2021-09-13T07:14:18.909Z</time>
      </trkpt>
      <trkpt lat="43.49743" lon="6.59344">
        <ele>26</ele>
        <time>2021-09-13T07:14:22.930Z</time>
      </trkpt>
      <trkpt lat="43.49739" lon="6.59349">
        <ele>29</ele>
        <time>2021-09-13T07:14:26.950Z</time>
      </trkpt>
      <trkpt lat="43.49734" lon="6.59357">
        <ele>24</ele>
        <time>2021-09-13T07:14:31.909Z</time>
      </trkpt>
      <trkpt lat="43.4973" lon="6.59359">
        <ele>24</ele>
        <time>2021-09-13T07:14:35.934Z</time>
      </trkpt>
      <trkpt lat="43.49722" lon="6.59361">
        <ele>24</ele>
        <time>2021-09-13T07:14:40.945Z</time>
      </trkpt>
      <trkpt lat="43.49717" lon="6.59362">
        <ele>24</ele>
        <time>2021-09-13T07:14:44.928Z</time>
      </trkpt>
      <trkpt lat="43.49717" lon="6.59367">
        <ele>24</ele>
        <time>2021-09-13T07:14:49.928Z</time>
      </trkpt>
      <trkpt lat="43.49718" lon="6.59374">
        <ele>24</ele>
        <time>2021-09-13T07:14:54.909Z</time>
      </trkpt>
      <trkpt lat="43.49717" lon="6.59378">
        <ele>27</ele>
        <time>2021-09-13T07:14:58.919Z</time>
      </trkpt>
      <trkpt lat="43.49715" lon="6.59383">
        <ele>27</ele>
        <time>2021-09-13T07:15:02.925Z</time>
      </trkpt>
      <trkpt lat="43.49712" lon="6.5939">
        <ele>27</ele>
        <time>2021-09-13T07:15:07.930Z</time>
      </trkpt>
      <trkpt lat="43.49709" lon="6.59392">
        <ele>27</ele>
        <time>2021-09-13T07:15:11.932Z</time>
      </trkpt>
      <trkpt lat="43.49704" lon="6.59398">
        <ele>24</ele>
        <time>2021-09-13T07:15:16.924Z</time>
      </trkpt>
      <trkpt lat="43.497" lon="6.594">
        <ele>24</ele>
        <time>2021-09-13T07:15:21.947Z</time>
      </trkpt>
      <trkpt lat="43.49694" lon="6.594">
        <ele>24</ele>
        <time>2021-09-13T07:15:26.929Z</time>
      </trkpt>
      <trkpt lat="43.49687" lon="6.59404">
        <ele>27</ele>
        <time>2021-09-13T07:15:31.937Z</time>
      </trkpt>
      <trkpt lat="43.49686" lon="6.59407">
        <ele>27</ele>
        <time>2021-09-13T07:15:36.927Z</time>
      </trkpt>
      <trkpt lat="43.49681" lon="6.59411">
        <ele>27</ele>
        <time>2021-09-13T07:15:41.911Z</time>
      </trkpt>
      <trkpt lat="43.49678" lon="6.59414">
        <ele>26</ele>
        <time>2021-09-13T07:15:45.938Z</time>
      </trkpt>
      <trkpt lat="43.49672" lon="6.59419">
        <ele>26</ele>
        <time>2021-09-13T07:15:50.915Z</time>
      </trkpt>
      <trkpt lat="43.49668" lon="6.59423">
        <ele>26</ele>
        <time>2021-09-13T07:15:54.930Z</time>
      </trkpt>
      <trkpt lat="43.49663" lon="6.59424">
        <ele>26</ele>
        <time>2021-09-13T07:15:59.918Z</time>
      </trkpt>
      <trkpt lat="43.49661" lon="6.59424">
        <ele>26</ele>
        <time>2021-09-13T07:16:03.938Z</time>
      </trkpt>
      <trkpt lat="43.49657" lon="6.59425">
        <ele>26</ele>
        <time>2021-09-13T07:16:08.934Z</time>
      </trkpt>
      <trkpt lat="43.49649" lon="6.5943">
        <ele>25</ele>
        <time>2021-09-13T07:16:13.921Z</time>
      </trkpt>
      <trkpt lat="43.49645" lon="6.59433">
        <ele>28</ele>
        <time>2021-09-13T07:16:17.934Z</time>
      </trkpt>
      <trkpt lat="43.49643" lon="6.59436">
        <ele>28</ele>
        <time>2021-09-13T07:16:22.939Z</time>
      </trkpt>
      <trkpt lat="43.4964" lon="6.5944">
        <ele>28</ele>
        <time>2021-09-13T07:16:27.944Z</time>
      </trkpt>
      <trkpt lat="43.49635" lon="6.59443">
        <ele>28</ele>
        <time>2021-09-13T07:16:31.925Z</time>
      </trkpt>
      <trkpt lat="43.49629" lon="6.59448">
        <ele>28</ele>
        <time>2021-09-13T07:16:36.918Z</time>
      </trkpt>
      <trkpt lat="43.49623" lon="6.59451">
        <ele>27</ele>
        <time>2021-09-13T07:16:40.926Z</time>
      </trkpt>
      <trkpt lat="43.4962" lon="6.59457">
        <ele>27</ele>
        <time>2021-09-13T07:16:45.929Z</time>
      </trkpt>
      <trkpt lat="43.49616" lon="6.5946">
        <ele>33</ele>
        <time>2021-09-13T07:16:50.907Z</time>
      </trkpt>
      <trkpt lat="43.49606" lon="6.59463">
        <ele>33</ele>
        <time>2021-09-13T07:17:21.940Z</time>
      </trkpt>
      <trkpt lat="43.49605" lon="6.59466">
        <ele>33</ele>
        <time>2021-09-13T07:17:36.905Z</time>
      </trkpt>
      <trkpt lat="43.49601" lon="6.59464">
        <ele>33</ele>
        <time>2021-09-13T07:17:40.918Z</time>
      </trkpt>
      <trkpt lat="43.49599" lon="6.59465">
        <ele>33</ele>
        <time>2021-09-13T07:17:44.924Z</time>
      </trkpt>
      <trkpt lat="43.49598" lon="6.59463">
        <ele>33</ele>
        <time>2021-09-13T07:17:49.900Z</time>
      </trkpt>
      <trkpt lat="43.49597" lon="6.59461">
        <ele>33</ele>
        <time>2021-09-13T07:17:53.899Z</time>
      </trkpt>
      <trkpt lat="43.49597" lon="6.59459">
        <ele>31</ele>
        <time>2021-09-13T07:17:58.877Z</time>
      </trkpt>
      <trkpt lat="43.49592" lon="6.59458">
        <ele>27</ele>
        <time>2021-09-13T07:18:07.922Z</time>
      </trkpt>
      <trkpt lat="43.49587" lon="6.59458">
        <ele>27</ele>
        <time>2021-09-13T07:18:11.922Z</time>
      </trkpt>
      <trkpt lat="43.49586" lon="6.59458">
        <ele>27</ele>
        <time>2021-09-13T07:18:15.914Z</time>
      </trkpt>
      <trkpt lat="43.49585" lon="6.59461">
        <ele>31</ele>
        <time>2021-09-13T07:18:19.929Z</time>
      </trkpt>
      <trkpt lat="43.49583" lon="6.59463">
        <ele>31</ele>
        <time>2021-09-13T07:18:23.952Z</time>
      </trkpt>
      <trkpt lat="43.49579" lon="6.59466">
        <ele>31</ele>
        <time>2021-09-13T07:18:28.933Z</time>
      </trkpt>
      <trkpt lat="43.49572" lon="6.59467">
        <ele>31</ele>
        <time>2021-09-13T07:18:32.959Z</time>
      </trkpt>
      <trkpt lat="43.49568" lon="6.59471">
        <ele>29</ele>
        <time>2021-09-13T07:18:37.922Z</time>
      </trkpt>
      <trkpt lat="43.49565" lon="6.59474">
        <ele>29</ele>
        <time>2021-09-13T07:18:42.914Z</time>
      </trkpt>
      <trkpt lat="43.49563" lon="6.59475">
        <ele>29</ele>
        <time>2021-09-13T07:18:47.910Z</time>
      </trkpt>
      <trkpt lat="43.49559" lon="6.59476">
        <ele>29</ele>
        <time>2021-09-13T07:18:51.925Z</time>
      </trkpt>
      <trkpt lat="43.49554" lon="6.59477">
        <ele>29</ele>
        <time>2021-09-13T07:18:56.911Z</time>
      </trkpt>
      <trkpt lat="43.49547" lon="6.59476">
        <ele>29</ele>
        <time>2021-09-13T07:19:00.943Z</time>
      </trkpt>
      <trkpt lat="43.49542" lon="6.59476">
        <ele>29</ele>
        <time>2021-09-13T07:19:04.939Z</time>
      </trkpt>
      <trkpt lat="43.49538" lon="6.59479">
        <ele>28</ele>
        <time>2021-09-13T07:19:09.933Z</time>
      </trkpt>
      <trkpt lat="43.49533" lon="6.59478">
        <ele>28</ele>
        <time>2021-09-13T07:19:14.921Z</time>
      </trkpt>
      <trkpt lat="43.49527" lon="6.59477">
        <ele>28</ele>
        <time>2021-09-13T07:19:19.921Z</time>
      </trkpt>
      <trkpt lat="43.49523" lon="6.59477">
        <ele>28</ele>
        <time>2021-09-13T07:19:24.911Z</time>
      </trkpt>
      <trkpt lat="43.49519" lon="6.5948">
        <ele>28</ele>
        <time>2021-09-13T07:19:28.914Z</time>
      </trkpt>
      <trkpt lat="43.49511" lon="6.59482">
        <ele>28</ele>
        <time>2021-09-13T07:19:33.935Z</time>
      </trkpt>
      <trkpt lat="43.49506" lon="6.59483">
        <ele>28</ele>
        <time>2021-09-13T07:19:38.909Z</time>
      </trkpt>
      <trkpt lat="43.49502" lon="6.59483">
        <ele>28</ele>
        <time>2021-09-13T07:19:42.919Z</time>
      </trkpt>
      <trkpt lat="43.495" lon="6.59483">
        <ele>28</ele>
        <time>2021-09-13T07:19:46.922Z</time>
      </trkpt>
      <trkpt lat="43.49494" lon="6.59482">
        <ele>28</ele>
        <time>2021-09-13T07:19:51.902Z</time>
      </trkpt>
      <trkpt lat="43.49492" lon="6.59483">
        <ele>28</ele>
        <time>2021-09-13T07:19:55.921Z</time>
      </trkpt>
      <trkpt lat="43.49485" lon="6.59483">
        <ele>29</ele>
        <time>2021-09-13T07:20:00.913Z</time>
      </trkpt>
      <trkpt lat="43.4948" lon="6.59483">
        <ele>29</ele>
        <time>2021-09-13T07:20:04.920Z</time>
      </trkpt>
      <trkpt lat="43.49475" lon="6.59483">
        <ele>29</ele>
        <time>2021-09-13T07:20:08.938Z</time>
      </trkpt>
      <trkpt lat="43.49468" lon="6.59484">
        <ele>29</ele>
        <time>2021-09-13T07:20:13.915Z</time>
      </trkpt>
      <trkpt lat="43.49465" lon="6.59486">
        <ele>29</ele>
        <time>2021-09-13T07:20:17.930Z</time>
      </trkpt>
      <trkpt lat="43.49461" lon="6.59488">
        <ele>33</ele>
        <time>2021-09-13T07:20:22.916Z</time>
      </trkpt>
      <trkpt lat="43.49456" lon="6.59486">
        <ele>28</ele>
        <time>2021-09-13T07:20:27.922Z</time>
      </trkpt>
      <trkpt lat="43.49453" lon="6.59485">
        <ele>28</ele>
        <time>2021-09-13T07:20:31.926Z</time>
      </trkpt>
      <trkpt lat="43.49448" lon="6.59484">
        <ele>28</ele>
        <time>2021-09-13T07:20:36.911Z</time>
      </trkpt>
      <trkpt lat="43.49444" lon="6.59485">
        <ele>28</ele>
        <time>2021-09-13T07:20:40.917Z</time>
      </trkpt>
      <trkpt lat="43.49438" lon="6.59487">
        <ele>32</ele>
        <time>2021-09-13T07:20:45.909Z</time>
      </trkpt>
      <trkpt lat="43.49434" lon="6.59488">
        <ele>32</ele>
        <time>2021-09-13T07:20:49.929Z</time>
      </trkpt>
      <trkpt lat="43.49428" lon="6.5949">
        <ele>32</ele>
        <time>2021-09-13T07:20:54.902Z</time>
      </trkpt>
      <trkpt lat="43.49424" lon="6.5949">
        <ele>32</ele>
        <time>2021-09-13T07:20:58.930Z</time>
      </trkpt>
      <trkpt lat="43.49417" lon="6.59487">
        <ele>32</ele>
        <time>2021-09-13T07:21:03.940Z</time>
      </trkpt>
      <trkpt lat="43.49411" lon="6.59484">
        <ele>28</ele>
        <time>2021-09-13T07:21:08.904Z</time>
      </trkpt>
      <trkpt lat="43.49403" lon="6.59483">
        <ele>28</ele>
        <time>2021-09-13T07:21:13.914Z</time>
      </trkpt>
      <trkpt lat="43.49398" lon="6.59481">
        <ele>30</ele>
        <time>2021-09-13T07:21:18.914Z</time>
      </trkpt>
      <trkpt lat="43.49394" lon="6.59481">
        <ele>30</ele>
        <time>2021-09-13T07:21:22.915Z</time>
      </trkpt>
      <trkpt lat="43.49389" lon="6.59479">
        <ele>30</ele>
        <time>2021-09-13T07:21:26.920Z</time>
      </trkpt>
      <trkpt lat="43.49384" lon="6.59478">
        <ele>30</ele>
        <time>2021-09-13T07:21:31.937Z</time>
      </trkpt>
      <trkpt lat="43.49381" lon="6.59476">
        <ele>30</ele>
        <time>2021-09-13T07:21:36.909Z</time>
      </trkpt>
      <trkpt lat="43.49378" lon="6.59474">
        <ele>30</ele>
        <time>2021-09-13T07:21:40.918Z</time>
      </trkpt>
      <trkpt lat="43.49374" lon="6.59472">
        <ele>32</ele>
        <time>2021-09-13T07:21:45.907Z</time>
      </trkpt>
      <trkpt lat="43.49371" lon="6.59466">
        <ele>32</ele>
        <time>2021-09-13T07:21:49.922Z</time>
      </trkpt>
      <trkpt lat="43.49368" lon="6.59462">
        <ele>32</ele>
        <time>2021-09-13T07:21:54.900Z</time>
      </trkpt>
      <trkpt lat="43.49364" lon="6.59457">
        <ele>28</ele>
        <time>2021-09-13T07:21:58.930Z</time>
      </trkpt>
      <trkpt lat="43.49361" lon="6.59455">
        <ele>28</ele>
        <time>2021-09-13T07:22:03.926Z</time>
      </trkpt>
      <trkpt lat="43.49359" lon="6.5945">
        <ele>28</ele>
        <time>2021-09-13T07:22:08.924Z</time>
      </trkpt>
      <trkpt lat="43.49355" lon="6.59443">
        <ele>28</ele>
        <time>2021-09-13T07:22:13.941Z</time>
      </trkpt>
      <trkpt lat="43.49349" lon="6.59437">
        <ele>28</ele>
        <time>2021-09-13T07:22:18.914Z</time>
      </trkpt>
      <trkpt lat="43.49346" lon="6.59434">
        <ele>33</ele>
        <time>2021-09-13T07:22:22.935Z</time>
      </trkpt>
      <trkpt lat="43.49341" lon="6.59423">
        <ele>31</ele>
        <time>2021-09-13T07:22:27.907Z</time>
      </trkpt>
      <trkpt lat="43.49338" lon="6.59417">
        <ele>31</ele>
        <time>2021-09-13T07:22:31.929Z</time>
      </trkpt>
      <trkpt lat="43.49335" lon="6.59412">
        <ele>31</ele>
        <time>2021-09-13T07:22:36.918Z</time>
      </trkpt>
      <trkpt lat="43.49333" lon="6.59411">
        <ele>31</ele>
        <time>2021-09-13T07:22:40.917Z</time>
      </trkpt>
      <trkpt lat="43.49332" lon="6.59405">
        <ele>31</ele>
        <time>2021-09-13T07:22:44.929Z</time>
      </trkpt>
      <trkpt lat="43.49331" lon="6.59402">
        <ele>30</ele>
        <time>2021-09-13T07:22:49.962Z</time>
      </trkpt>
      <trkpt lat="43.49329" lon="6.59396">
        <ele>30</ele>
        <time>2021-09-13T07:22:54.915Z</time>
      </trkpt>
      <trkpt lat="43.49327" lon="6.59391">
        <ele>30</ele>
        <time>2021-09-13T07:22:58.947Z</time>
      </trkpt>
      <trkpt lat="43.49326" lon="6.59381">
        <ele>30</ele>
        <time>2021-09-13T07:23:03.894Z</time>
      </trkpt>
      <trkpt lat="43.49325" lon="6.59374">
        <ele>29</ele>
        <time>2021-09-13T07:23:07.904Z</time>
      </trkpt>
      <trkpt lat="43.49325" lon="6.59369">
        <ele>29</ele>
        <time>2021-09-13T07:23:11.956Z</time>
      </trkpt>
      <trkpt lat="43.49325" lon="6.59363">
        <ele>29</ele>
        <time>2021-09-13T07:23:16.914Z</time>
      </trkpt>
      <trkpt lat="43.49324" lon="6.59357">
        <ele>29</ele>
        <time>2021-09-13T07:23:21.929Z</time>
      </trkpt>
      <trkpt lat="43.49324" lon="6.59349">
        <ele>29</ele>
        <time>2021-09-13T07:23:26.919Z</time>
      </trkpt>
      <trkpt lat="43.49325" lon="6.59346">
        <ele>28</ele>
        <time>2021-09-13T07:23:30.927Z</time>
      </trkpt>
      <trkpt lat="43.49327" lon="6.59339">
        <ele>28</ele>
        <time>2021-09-13T07:23:35.904Z</time>
      </trkpt>
      <trkpt lat="43.49326" lon="6.59332">
        <ele>28</ele>
        <time>2021-09-13T07:23:39.930Z</time>
      </trkpt>
      <trkpt lat="43.49326" lon="6.59325">
        <ele>28</ele>
        <time>2021-09-13T07:23:43.973Z</time>
      </trkpt>
      <trkpt lat="43.49324" lon="6.59317">
        <ele>26</ele>
        <time>2021-09-13T07:23:48.929Z</time>
      </trkpt>
      <trkpt lat="43.49323" lon="6.59311">
        <ele>26</ele>
        <time>2021-09-13T07:23:52.929Z</time>
      </trkpt>
      <trkpt lat="43.49323" lon="6.59306">
        <ele>26</ele>
        <time>2021-09-13T07:23:57.919Z</time>
      </trkpt>
      <trkpt lat="43.49322" lon="6.59297">
        <ele>26</ele>
        <time>2021-09-13T07:24:01.965Z</time>
      </trkpt>
      <trkpt lat="43.49322" lon="6.59289">
        <ele>25</ele>
        <time>2021-09-13T07:24:06.905Z</time>
      </trkpt>
      <trkpt lat="43.49324" lon="6.59283">
        <ele>25</ele>
        <time>2021-09-13T07:24:10.931Z</time>
      </trkpt>
      <trkpt lat="43.49325" lon="6.59278">
        <ele>25</ele>
        <time>2021-09-13T07:24:14.936Z</time>
      </trkpt>
      <trkpt lat="43.49325" lon="6.59274">
        <ele>25</ele>
        <time>2021-09-13T07:24:18.930Z</time>
      </trkpt>
      <trkpt lat="43.49327" lon="6.59268">
        <ele>25</ele>
        <time>2021-09-13T07:24:22.940Z</time>
      </trkpt>
      <trkpt lat="43.49327" lon="6.59257">
        <ele>25</ele>
        <time>2021-09-13T07:24:27.908Z</time>
      </trkpt>
      <trkpt lat="43.49327" lon="6.5925">
        <ele>25</ele>
        <time>2021-09-13T07:24:31.928Z</time>
      </trkpt>
      <trkpt lat="43.49324" lon="6.5924">
        <ele>25</ele>
        <time>2021-09-13T07:24:36.916Z</time>
      </trkpt>
      <trkpt lat="43.49324" lon="6.59231">
        <ele>25</ele>
        <time>2021-09-13T07:24:40.920Z</time>
      </trkpt>
      <trkpt lat="43.49324" lon="6.59222">
        <ele>25</ele>
        <time>2021-09-13T07:24:45.909Z</time>
      </trkpt>
      <trkpt lat="43.49324" lon="6.59217">
        <ele>25</ele>
        <time>2021-09-13T07:24:49.924Z</time>
      </trkpt>
      <trkpt lat="43.49323" lon="6.59213">
        <ele>25</ele>
        <time>2021-09-13T07:24:53.923Z</time>
      </trkpt>
      <trkpt lat="43.49322" lon="6.59205">
        <ele>25</ele>
        <time>2021-09-13T07:24:58.926Z</time>
      </trkpt>
      <trkpt lat="43.49325" lon="6.59199">
        <ele>25</ele>
        <time>2021-09-13T07:25:03.909Z</time>
      </trkpt>
      <trkpt lat="43.49324" lon="6.59197">
        <ele>25</ele>
        <time>2021-09-13T07:25:07.924Z</time>
      </trkpt>
      <trkpt lat="43.49322" lon="6.59192">
        <ele>25</ele>
        <time>2021-09-13T07:25:12.928Z</time>
      </trkpt>
      <trkpt lat="43.49321" lon="6.59186">
        <ele>25</ele>
        <time>2021-09-13T07:25:17.925Z</time>
      </trkpt>
      <trkpt lat="43.49319" lon="6.59182">
        <ele>25</ele>
        <time>2021-09-13T07:25:22.915Z</time>
      </trkpt>
      <trkpt lat="43.49318" lon="6.59174">
        <ele>26</ele>
        <time>2021-09-13T07:25:26.921Z</time>
      </trkpt>
      <trkpt lat="43.49319" lon="6.5917">
        <ele>26</ele>
        <time>2021-09-13T07:25:30.943Z</time>
      </trkpt>
      <trkpt lat="43.49319" lon="6.59163">
        <ele>26</ele>
        <time>2021-09-13T07:25:35.924Z</time>
      </trkpt>
      <trkpt lat="43.49319" lon="6.59154">
        <ele>26</ele>
        <time>2021-09-13T07:25:40.927Z</time>
      </trkpt>
      <trkpt lat="43.4932" lon="6.59143">
        <ele>21</ele>
        <time>2021-09-13T07:25:45.929Z</time>
      </trkpt>
      <trkpt lat="43.4932" lon="6.59134">
        <ele>21</ele>
        <time>2021-09-13T07:25:49.923Z</time>
      </trkpt>
      <trkpt lat="43.49322" lon="6.59126">
        <ele>21</ele>
        <time>2021-09-13T07:25:54.951Z</time>
      </trkpt>
      <trkpt lat="43.4932" lon="6.59119">
        <ele>20</ele>
        <time>2021-09-13T07:25:59.909Z</time>
      </trkpt>
      <trkpt lat="43.49318" lon="6.59113">
        <ele>22</ele>
        <time>2021-09-13T07:26:03.921Z</time>
      </trkpt>
      <trkpt lat="43.49317" lon="6.59108">
        <ele>22</ele>
        <time>2021-09-13T07:26:07.937Z</time>
      </trkpt>
      <trkpt lat="43.49317" lon="6.591">
        <ele>22</ele>
        <time>2021-09-13T07:26:11.936Z</time>
      </trkpt>
      <trkpt lat="43.49315" lon="6.59091">
        <ele>21</ele>
        <time>2021-09-13T07:26:16.903Z</time>
      </trkpt>
      <trkpt lat="43.49313" lon="6.59087">
        <ele>21</ele>
        <time>2021-09-13T07:26:20.930Z</time>
      </trkpt>
      <trkpt lat="43.49312" lon="6.59081">
        <ele>21</ele>
        <time>2021-09-13T07:26:24.937Z</time>
      </trkpt>
      <trkpt lat="43.49309" lon="6.59073">
        <ele>21</ele>
        <time>2021-09-13T07:26:29.910Z</time>
      </trkpt>
      <trkpt lat="43.49306" lon="6.59068">
        <ele>22</ele>
        <time>2021-09-13T07:26:33.934Z</time>
      </trkpt>
      <trkpt lat="43.49304" lon="6.59065">
        <ele>22</ele>
        <time>2021-09-13T07:26:38.912Z</time>
      </trkpt>
      <trkpt lat="43.49302" lon="6.59063">
        <ele>22</ele>
        <time>2021-09-13T07:26:42.946Z</time>
      </trkpt>
      <trkpt lat="43.493" lon="6.59056">
        <ele>22</ele>
        <time>2021-09-13T07:26:47.918Z</time>
      </trkpt>
      <trkpt lat="43.49297" lon="6.59049">
        <ele>22</ele>
        <time>2021-09-13T07:26:52.919Z</time>
      </trkpt>
      <trkpt lat="43.49294" lon="6.59044">
        <ele>22</ele>
        <time>2021-09-13T07:26:56.926Z</time>
      </trkpt>
      <trkpt lat="43.49293" lon="6.59041">
        <ele>23</ele>
        <time>2021-09-13T07:27:00.935Z</time>
      </trkpt>
      <trkpt lat="43.49288" lon="6.59034">
        <ele>23</ele>
        <time>2021-09-13T07:27:05.932Z</time>
      </trkpt>
      <trkpt lat="43.49283" lon="6.59029">
        <ele>23</ele>
        <time>2021-09-13T07:27:10.912Z</time>
      </trkpt>
      <trkpt lat="43.49279" lon="6.59028">
        <ele>23</ele>
        <time>2021-09-13T07:27:14.934Z</time>
      </trkpt>
      <trkpt lat="43.49277" lon="6.59029">
        <ele>23</ele>
        <time>2021-09-13T07:27:18.963Z</time>
      </trkpt>
      <trkpt lat="43.49274" lon="6.5903">
        <ele>23</ele>
        <time>2021-09-13T07:27:23.942Z</time>
      </trkpt>
      <trkpt lat="43.49268" lon="6.59028">
        <ele>23</ele>
        <time>2021-09-13T07:27:28.934Z</time>
      </trkpt>
      <trkpt lat="43.49261" lon="6.59029">
        <ele>23</ele>
        <time>2021-09-13T07:27:33.938Z</time>
      </trkpt>
      <trkpt lat="43.49248" lon="6.59039">
        <ele>23</ele>
        <time>2021-09-13T07:27:53.883Z</time>
      </trkpt>
      <trkpt lat="43.49248" lon="6.59039">
        <ele>23</ele>
        <time>2021-09-13T07:28:11.906Z</time>
      </trkpt>
      <trkpt lat="43.49246" lon="6.59038">
        <ele>23</ele>
        <time>2021-09-13T07:28:16.900Z</time>
      </trkpt>
      <trkpt lat="43.49246" lon="6.59037">
        <ele>23</ele>
        <time>2021-09-13T07:28:20.938Z</time>
      </trkpt>
      <trkpt lat="43.49246" lon="6.59041">
        <ele>23</ele>
        <time>2021-09-13T07:28:24.941Z</time>
      </trkpt>
      <trkpt lat="43.49247" lon="6.59044">
        <ele>23</ele>
        <time>2021-09-13T07:31:55.915Z</time>
      </trkpt>
      <trkpt lat="43.49249" lon="6.59048">
        <ele>23</ele>
        <time>2021-09-13T07:32:00.932Z</time>
      </trkpt>
      <trkpt lat="43.49251" lon="6.5905">
        <ele>23</ele>
        <time>2021-09-13T07:32:04.926Z</time>
      </trkpt>
      <trkpt lat="43.49255" lon="6.59056">
        <ele>23</ele>
        <time>2021-09-13T07:32:09.920Z</time>
      </trkpt>
      <trkpt lat="43.49253" lon="6.59062">
        <ele>23</ele>
        <time>2021-09-13T07:32:14.925Z</time>
      </trkpt>
      <trkpt lat="43.49253" lon="6.59064">
        <ele>23</ele>
        <time>2021-09-13T07:32:18.930Z</time>
      </trkpt>
      <trkpt lat="43.49253" lon="6.59067">
        <ele>23</ele>
        <time>2021-09-13T07:32:23.911Z</time>
      </trkpt>
      <trkpt lat="43.49249" lon="6.5907">
        <ele>24</ele>
        <time>2021-09-13T07:32:27.933Z</time>
      </trkpt>
      <trkpt lat="43.49243" lon="6.59076">
        <ele>24</ele>
        <time>2021-09-13T07:32:31.941Z</time>
      </trkpt>
      <trkpt lat="43.49235" lon="6.59081">
        <ele>24</ele>
        <time>2021-09-13T07:32:36.959Z</time>
      </trkpt>
      <trkpt lat="43.49232" lon="6.59081">
        <ele>24</ele>
        <time>2021-09-13T07:32:41.921Z</time>
      </trkpt>
      <trkpt lat="43.49227" lon="6.59086">
        <ele>24</ele>
        <time>2021-09-13T07:32:46.935Z</time>
      </trkpt>
      <trkpt lat="43.49218" lon="6.59088">
        <ele>24</ele>
        <time>2021-09-13T07:32:51.926Z</time>
      </trkpt>
      <trkpt lat="43.49215" lon="6.5909">
        <ele>24</ele>
        <time>2021-09-13T07:32:55.932Z</time>
      </trkpt>
      <trkpt lat="43.49211" lon="6.5909">
        <ele>24</ele>
        <time>2021-09-13T07:33:00.934Z</time>
      </trkpt>
      <trkpt lat="43.49206" lon="6.59093">
        <ele>23</ele>
        <time>2021-09-13T07:33:05.908Z</time>
      </trkpt>
      <trkpt lat="43.49205" lon="6.59094">
        <ele>23</ele>
        <time>2021-09-13T07:33:09.925Z</time>
      </trkpt>
      <trkpt lat="43.49202" lon="6.59094">
        <ele>23</ele>
        <time>2021-09-13T07:33:14.939Z</time>
      </trkpt>
      <trkpt lat="43.49197" lon="6.59095">
        <ele>23</ele>
        <time>2021-09-13T07:33:19.922Z</time>
      </trkpt>
      <trkpt lat="43.49194" lon="6.59096">
        <ele>23</ele>
        <time>2021-09-13T07:33:23.929Z</time>
      </trkpt>
      <trkpt lat="43.49187" lon="6.59101">
        <ele>24</ele>
        <time>2021-09-13T07:33:28.914Z</time>
      </trkpt>
      <trkpt lat="43.4918" lon="6.59106">
        <ele>21</ele>
        <time>2021-09-13T07:33:33.938Z</time>
      </trkpt>
      <trkpt lat="43.49175" lon="6.59109">
        <ele>21</ele>
        <time>2021-09-13T07:33:38.930Z</time>
      </trkpt>
      <trkpt lat="43.49168" lon="6.59117">
        <ele>21</ele>
        <time>2021-09-13T07:33:43.934Z</time>
      </trkpt>
      <trkpt lat="43.49164" lon="6.59122">
        <ele>21</ele>
        <time>2021-09-13T07:33:47.936Z</time>
      </trkpt>
      <trkpt lat="43.49158" lon="6.59125">
        <ele>22</ele>
        <time>2021-09-13T07:33:52.941Z</time>
      </trkpt>
      <trkpt lat="43.49154" lon="6.59128">
        <ele>22</ele>
        <time>2021-09-13T07:33:57.936Z</time>
      </trkpt>
      <trkpt lat="43.4915" lon="6.59132">
        <ele>21</ele>
        <time>2021-09-13T07:34:02.943Z</time>
      </trkpt>
      <trkpt lat="43.49144" lon="6.59136">
        <ele>21</ele>
        <time>2021-09-13T07:34:07.933Z</time>
      </trkpt>
      <trkpt lat="43.4914" lon="6.59139">
        <ele>21</ele>
        <time>2021-09-13T07:34:11.943Z</time>
      </trkpt>
      <trkpt lat="43.49136" lon="6.5914">
        <ele>21</ele>
        <time>2021-09-13T07:34:16.911Z</time>
      </trkpt>
      <trkpt lat="43.49133" lon="6.59141">
        <ele>21</ele>
        <time>2021-09-13T07:34:20.961Z</time>
      </trkpt>
      <trkpt lat="43.49128" lon="6.59147">
        <ele>21</ele>
        <time>2021-09-13T07:34:25.939Z</time>
      </trkpt>
      <trkpt lat="43.49124" lon="6.59151">
        <ele>20</ele>
        <time>2021-09-13T07:34:29.945Z</time>
      </trkpt>
      <trkpt lat="43.49118" lon="6.59155">
        <ele>19</ele>
        <time>2021-09-13T07:34:34.953Z</time>
      </trkpt>
      <trkpt lat="43.49113" lon="6.5916">
        <ele>19</ele>
        <time>2021-09-13T07:34:39.959Z</time>
      </trkpt>
      <trkpt lat="43.49105" lon="6.59167">
        <ele>19</ele>
        <time>2021-09-13T07:34:44.942Z</time>
      </trkpt>
      <trkpt lat="43.49098" lon="6.59171">
        <ele>19</ele>
        <time>2021-09-13T07:34:49.960Z</time>
      </trkpt>
      <trkpt lat="43.49092" lon="6.59176">
        <ele>19</ele>
        <time>2021-09-13T07:34:54.948Z</time>
      </trkpt>
      <trkpt lat="43.49087" lon="6.59179">
        <ele>19</ele>
        <time>2021-09-13T07:34:59.949Z</time>
      </trkpt>
      <trkpt lat="43.49084" lon="6.59182">
        <ele>21</ele>
        <time>2021-09-13T07:35:04.918Z</time>
      </trkpt>
      <trkpt lat="43.4908" lon="6.59186">
        <ele>21</ele>
        <time>2021-09-13T07:35:09.934Z</time>
      </trkpt>
      <trkpt lat="43.49076" lon="6.59188">
        <ele>21</ele>
        <time>2021-09-13T07:35:14.942Z</time>
      </trkpt>
      <trkpt lat="43.49072" lon="6.59192">
        <ele>21</ele>
        <time>2021-09-13T07:35:19.971Z</time>
      </trkpt>
      <trkpt lat="43.49067" lon="6.59195">
        <ele>22</ele>
        <time>2021-09-13T07:35:24.939Z</time>
      </trkpt>
      <trkpt lat="43.49061" lon="6.592">
        <ele>22</ele>
        <time>2021-09-13T07:35:29.953Z</time>
      </trkpt>
      <trkpt lat="43.49059" lon="6.592">
        <ele>22</ele>
        <time>2021-09-13T07:35:34.907Z</time>
      </trkpt>
      <trkpt lat="43.49057" lon="6.59204">
        <ele>22</ele>
        <time>2021-09-13T07:35:38.953Z</time>
      </trkpt>
      <trkpt lat="43.49051" lon="6.59212">
        <ele>24</ele>
        <time>2021-09-13T07:35:43.923Z</time>
      </trkpt>
      <trkpt lat="43.49044" lon="6.59219">
        <ele>24</ele>
        <time>2021-09-13T07:35:48.935Z</time>
      </trkpt>
      <trkpt lat="43.49041" lon="6.59222">
        <ele>24</ele>
        <time>2021-09-13T07:35:53.935Z</time>
      </trkpt>
      <trkpt lat="43.49036" lon="6.5923">
        <ele>24</ele>
        <time>2021-09-13T07:35:58.928Z</time>
      </trkpt>
      <trkpt lat="43.49031" lon="6.59236">
        <ele>24</ele>
        <time>2021-09-13T07:36:02.936Z</time>
      </trkpt>
      <trkpt lat="43.49028" lon="6.59241">
        <ele>25</ele>
        <time>2021-09-13T07:36:06.943Z</time>
      </trkpt>
      <trkpt lat="43.49025" lon="6.59247">
        <ele>25</ele>
        <time>2021-09-13T07:36:11.945Z</time>
      </trkpt>
      <trkpt lat="43.49021" lon="6.59252">
        <ele>25</ele>
        <time>2021-09-13T07:36:15.986Z</time>
      </trkpt>
      <trkpt lat="43.4902" lon="6.59255">
        <ele>25</ele>
        <time>2021-09-13T07:36:20.940Z</time>
      </trkpt>
      <trkpt lat="43.49017" lon="6.59257">
        <ele>25</ele>
        <time>2021-09-13T07:36:24.950Z</time>
      </trkpt>
      <trkpt lat="43.49009" lon="6.59263">
        <ele>23</ele>
        <time>2021-09-13T07:36:29.918Z</time>
      </trkpt>
      <trkpt lat="43.49004" lon="6.59269">
        <ele>25</ele>
        <time>2021-09-13T07:36:33.935Z</time>
      </trkpt>
      <trkpt lat="43.49001" lon="6.59268">
        <ele>25</ele>
        <time>2021-09-13T07:36:38.946Z</time>
      </trkpt>
      <trkpt lat="43.48999" lon="6.59271">
        <ele>25</ele>
        <time>2021-09-13T07:36:43.944Z</time>
      </trkpt>
      <trkpt lat="43.48997" lon="6.59275">
        <ele>25</ele>
        <time>2021-09-13T07:36:47.965Z</time>
      </trkpt>
      <trkpt lat="43.48995" lon="6.59277">
        <ele>25</ele>
        <time>2021-09-13T07:36:51.923Z</time>
      </trkpt>
      <trkpt lat="43.48992" lon="6.59281">
        <ele>25</ele>
        <time>2021-09-13T07:36:56.978Z</time>
      </trkpt>
      <trkpt lat="43.48987" lon="6.59286">
        <ele>25</ele>
        <time>2021-09-13T07:37:01.952Z</time>
      </trkpt>
      <trkpt lat="43.48984" lon="6.59292">
        <ele>26</ele>
        <time>2021-09-13T07:37:06.925Z</time>
      </trkpt>
      <trkpt lat="43.48982" lon="6.59297">
        <ele>26</ele>
        <time>2021-09-13T07:37:11.932Z</time>
      </trkpt>
      <trkpt lat="43.48977" lon="6.59306">
        <ele>26</ele>
        <time>2021-09-13T07:37:16.966Z</time>
      </trkpt>
      <trkpt lat="43.48975" lon="6.59314">
        <ele>26</ele>
        <time>2021-09-13T07:37:21.933Z</time>
      </trkpt>
      <trkpt lat="43.48973" lon="6.5932">
        <ele>27</ele>
        <time>2021-09-13T07:37:26.920Z</time>
      </trkpt>
      <trkpt lat="43.48968" lon="6.59334">
        <ele>27</ele>
        <time>2021-09-13T07:37:31.943Z</time>
      </trkpt>
      <trkpt lat="43.48965" lon="6.59345">
        <ele>27</ele>
        <time>2021-09-13T07:37:36.925Z</time>
      </trkpt>
      <trkpt lat="43.48963" lon="6.59348">
        <ele>29</ele>
        <time>2021-09-13T07:37:41.930Z</time>
      </trkpt>
      <trkpt lat="43.48962" lon="6.59349">
        <ele>29</ele>
        <time>2021-09-13T07:37:45.937Z</time>
      </trkpt>
      <trkpt lat="43.48959" lon="6.59355">
        <ele>29</ele>
        <time>2021-09-13T07:37:50.950Z</time>
      </trkpt>
      <trkpt lat="43.48959" lon="6.59362">
        <ele>29</ele>
        <time>2021-09-13T07:37:55.925Z</time>
      </trkpt>
      <trkpt lat="43.48959" lon="6.59367">
        <ele>29</ele>
        <time>2021-09-13T07:38:00.925Z</time>
      </trkpt>
      <trkpt lat="43.48959" lon="6.59374">
        <ele>29</ele>
        <time>2021-09-13T07:38:05.898Z</time>
      </trkpt>
      <trkpt lat="43.48959" lon="6.59379">
        <ele>30</ele>
        <time>2021-09-13T07:38:09.950Z</time>
      </trkpt>
      <trkpt lat="43.4896" lon="6.59388">
        <ele>30</ele>
        <time>2021-09-13T07:38:14.940Z</time>
      </trkpt>
      <trkpt lat="43.48959" lon="6.59391">
        <ele>30</ele>
        <time>2021-09-13T07:38:19.929Z</time>
      </trkpt>
      <trkpt lat="43.48958" lon="6.59396">
        <ele>27</ele>
        <time>2021-09-13T07:38:24.930Z</time>
      </trkpt>
      <trkpt lat="43.48957" lon="6.594">
        <ele>27</ele>
        <time>2021-09-13T07:38:29.922Z</time>
      </trkpt>
      <trkpt lat="43.48957" lon="6.59401">
        <ele>27</ele>
        <time>2021-09-13T07:38:34.931Z</time>
      </trkpt>
      <trkpt lat="43.4896" lon="6.59404">
        <ele>30</ele>
        <time>2021-09-13T07:39:32.922Z</time>
      </trkpt>
      <trkpt lat="43.48961" lon="6.59403">
        <ele>30</ele>
        <time>2021-09-13T07:39:36.925Z</time>
      </trkpt>
      <trkpt lat="43.48962" lon="6.59403">
        <ele>30</ele>
        <time>2021-09-13T07:39:41.913Z</time>
      </trkpt>
      <trkpt lat="43.48958" lon="6.59409">
        <ele>28</ele>
        <time>2021-09-13T07:40:46.899Z</time>
      </trkpt>
      <trkpt lat="43.48959" lon="6.59416">
        <ele>30</ele>
        <time>2021-09-13T07:40:50.915Z</time>
      </trkpt>
      <trkpt lat="43.48962" lon="6.5942">
        <ele>30</ele>
        <time>2021-09-13T07:40:55.908Z</time>
      </trkpt>
      <trkpt lat="43.48965" lon="6.59422">
        <ele>30</ele>
        <time>2021-09-13T07:40:59.916Z</time>
      </trkpt>
      <trkpt lat="43.48969" lon="6.59423">
        <ele>30</ele>
        <time>2021-09-13T07:41:04.862Z</time>
      </trkpt>
      <trkpt lat="43.48972" lon="6.59425">
        <ele>30</ele>
        <time>2021-09-13T07:41:09.901Z</time>
      </trkpt>
      <trkpt lat="43.48977" lon="6.59429">
        <ele>30</ele>
        <time>2021-09-13T07:41:14.907Z</time>
      </trkpt>
      <trkpt lat="43.4898" lon="6.59434">
        <ele>30</ele>
        <time>2021-09-13T07:41:19.879Z</time>
      </trkpt>
      <trkpt lat="43.48983" lon="6.59437">
        <ele>30</ele>
        <time>2021-09-13T07:41:23.903Z</time>
      </trkpt>
      <trkpt lat="43.48986" lon="6.59442">
        <ele>30</ele>
        <time>2021-09-13T07:41:28.907Z</time>
      </trkpt>
      <trkpt lat="43.48987" lon="6.59448">
        <ele>32</ele>
        <time>2021-09-13T07:41:33.898Z</time>
      </trkpt>
      <trkpt lat="43.48992" lon="6.59455">
        <ele>32</ele>
        <time>2021-09-13T07:41:38.908Z</time>
      </trkpt>
      <trkpt lat="43.48995" lon="6.59459">
        <ele>30</ele>
        <time>2021-09-13T07:41:43.859Z</time>
      </trkpt>
      <trkpt lat="43.48996" lon="6.59466">
        <ele>30</ele>
        <time>2021-09-13T07:41:47.877Z</time>
      </trkpt>
      <trkpt lat="43.48999" lon="6.59474">
        <ele>30</ele>
        <time>2021-09-13T07:41:51.910Z</time>
      </trkpt>
      <trkpt lat="43.49002" lon="6.5948">
        <ele>30</ele>
        <time>2021-09-13T07:41:56.899Z</time>
      </trkpt>
      <trkpt lat="43.49006" lon="6.59485">
        <ele>30</ele>
        <time>2021-09-13T07:42:01.898Z</time>
      </trkpt>
      <trkpt lat="43.49008" lon="6.5949">
        <ele>30</ele>
        <time>2021-09-13T07:42:06.895Z</time>
      </trkpt>
      <trkpt lat="43.49011" lon="6.59495">
        <ele>30</ele>
        <time>2021-09-13T07:42:10.900Z</time>
      </trkpt>
      <trkpt lat="43.49014" lon="6.595">
        <ele>33</ele>
        <time>2021-09-13T07:42:15.934Z</time>
      </trkpt>
      <trkpt lat="43.49019" lon="6.59511">
        <ele>33</ele>
        <time>2021-09-13T07:42:20.908Z</time>
      </trkpt>
      <trkpt lat="43.49023" lon="6.59521">
        <ele>31</ele>
        <time>2021-09-13T07:42:25.889Z</time>
      </trkpt>
      <trkpt lat="43.49025" lon="6.59526">
        <ele>31</ele>
        <time>2021-09-13T07:42:29.906Z</time>
      </trkpt>
      <trkpt lat="43.49029" lon="6.5953">
        <ele>31</ele>
        <time>2021-09-13T07:42:34.883Z</time>
      </trkpt>
      <trkpt lat="43.4903" lon="6.59533">
        <ele>31</ele>
        <time>2021-09-13T07:42:38.905Z</time>
      </trkpt>
      <trkpt lat="43.49033" lon="6.59539">
        <ele>31</ele>
        <time>2021-09-13T07:42:43.891Z</time>
      </trkpt>
      <trkpt lat="43.49036" lon="6.59543">
        <ele>30</ele>
        <time>2021-09-13T07:42:48.895Z</time>
      </trkpt>
      <trkpt lat="43.49039" lon="6.59546">
        <ele>30</ele>
        <time>2021-09-13T07:42:53.882Z</time>
      </trkpt>
      <trkpt lat="43.49041" lon="6.5955">
        <ele>30</ele>
        <time>2021-09-13T07:42:57.922Z</time>
      </trkpt>
      <trkpt lat="43.49046" lon="6.59558">
        <ele>33</ele>
        <time>2021-09-13T07:43:02.902Z</time>
      </trkpt>
      <trkpt lat="43.49051" lon="6.59565">
        <ele>33</ele>
        <time>2021-09-13T07:43:06.922Z</time>
      </trkpt>
      <trkpt lat="43.49055" lon="6.59571">
        <ele>30</ele>
        <time>2021-09-13T07:43:11.907Z</time>
      </trkpt>
      <trkpt lat="43.4906" lon="6.59574">
        <ele>30</ele>
        <time>2021-09-13T07:43:15.924Z</time>
      </trkpt>
      <trkpt lat="43.49064" lon="6.59576">
        <ele>30</ele>
        <time>2021-09-13T07:43:20.925Z</time>
      </trkpt>
      <trkpt lat="43.49071" lon="6.59579">
        <ele>30</ele>
        <time>2021-09-13T07:43:25.905Z</time>
      </trkpt>
      <trkpt lat="43.49078" lon="6.59586">
        <ele>30</ele>
        <time>2021-09-13T07:43:29.905Z</time>
      </trkpt>
      <trkpt lat="43.49082" lon="6.5959">
        <ele>30</ele>
        <time>2021-09-13T07:43:34.921Z</time>
      </trkpt>
      <trkpt lat="43.49084" lon="6.59595">
        <ele>30</ele>
        <time>2021-09-13T07:43:39.913Z</time>
      </trkpt>
      <trkpt lat="43.49088" lon="6.59602">
        <ele>29</ele>
        <time>2021-09-13T07:43:44.926Z</time>
      </trkpt>
      <trkpt lat="43.4909" lon="6.59609">
        <ele>29</ele>
        <time>2021-09-13T07:43:49.959Z</time>
      </trkpt>
      <trkpt lat="43.49095" lon="6.59616">
        <ele>29</ele>
        <time>2021-09-13T07:43:54.914Z</time>
      </trkpt>
      <trkpt lat="43.49097" lon="6.59621">
        <ele>29</ele>
        <time>2021-09-13T07:43:59.929Z</time>
      </trkpt>
      <trkpt lat="43.49102" lon="6.59629">
        <ele>30</ele>
        <time>2021-09-13T07:44:04.909Z</time>
      </trkpt>
      <trkpt lat="43.49106" lon="6.59634">
        <ele>30</ele>
        <time>2021-09-13T07:44:08.926Z</time>
      </trkpt>
      <trkpt lat="43.49111" lon="6.5964">
        <ele>30</ele>
        <time>2021-09-13T07:44:13.923Z</time>
      </trkpt>
      <trkpt lat="43.49114" lon="6.59645">
        <ele>30</ele>
        <time>2021-09-13T07:44:18.924Z</time>
      </trkpt>
      <trkpt lat="43.49115" lon="6.59649">
        <ele>30</ele>
        <time>2021-09-13T07:44:23.919Z</time>
      </trkpt>
      <trkpt lat="43.49116" lon="6.59651">
        <ele>30</ele>
        <time>2021-09-13T07:44:27.931Z</time>
      </trkpt>
      <trkpt lat="43.49116" lon="6.59653">
        <ele>29</ele>
        <time>2021-09-13T07:44:32.922Z</time>
      </trkpt>
      <trkpt lat="43.49117" lon="6.59656">
        <ele>29</ele>
        <time>2021-09-13T07:44:37.905Z</time>
      </trkpt>
      <trkpt lat="43.49119" lon="6.59661">
        <ele>29</ele>
        <time>2021-09-13T07:44:42.913Z</time>
      </trkpt>
      <trkpt lat="43.49121" lon="6.59668">
        <ele>29</ele>
        <time>2021-09-13T07:44:47.932Z</time>
      </trkpt>
      <trkpt lat="43.49121" lon="6.59673">
        <ele>29</ele>
        <time>2021-09-13T07:44:52.925Z</time>
      </trkpt>
      <trkpt lat="43.49123" lon="6.59681">
        <ele>30</ele>
        <time>2021-09-13T07:44:57.919Z</time>
      </trkpt>
      <trkpt lat="43.49127" lon="6.59689">
        <ele>32</ele>
        <time>2021-09-13T07:45:02.926Z</time>
      </trkpt>
      <trkpt lat="43.49129" lon="6.59694">
        <ele>32</ele>
        <time>2021-09-13T07:45:07.954Z</time>
      </trkpt>
      <trkpt lat="43.49132" lon="6.59702">
        <ele>32</ele>
        <time>2021-09-13T07:45:12.917Z</time>
      </trkpt>
      <trkpt lat="43.49134" lon="6.59709">
        <ele>34</ele>
        <time>2021-09-13T07:45:17.931Z</time>
      </trkpt>
      <trkpt lat="43.4914" lon="6.59719">
        <ele>34</ele>
        <time>2021-09-13T07:45:22.930Z</time>
      </trkpt>
      <trkpt lat="43.49144" lon="6.59728">
        <ele>34</ele>
        <time>2021-09-13T07:45:27.921Z</time>
      </trkpt>
      <trkpt lat="43.49146" lon="6.59732">
        <ele>34</ele>
        <time>2021-09-13T07:45:31.963Z</time>
      </trkpt>
      <trkpt lat="43.49148" lon="6.59736">
        <ele>35</ele>
        <time>2021-09-13T07:45:36.913Z</time>
      </trkpt>
      <trkpt lat="43.4915" lon="6.59743">
        <ele>35</ele>
        <time>2021-09-13T07:45:40.936Z</time>
      </trkpt>
      <trkpt lat="43.49151" lon="6.59752">
        <ele>35</ele>
        <time>2021-09-13T07:45:45.919Z</time>
      </trkpt>
      <trkpt lat="43.49153" lon="6.59759">
        <ele>35</ele>
        <time>2021-09-13T07:45:49.934Z</time>
      </trkpt>
      <trkpt lat="43.49156" lon="6.59768">
        <ele>35</ele>
        <time>2021-09-13T07:45:54.912Z</time>
      </trkpt>
      <trkpt lat="43.49157" lon="6.59774">
        <ele>35</ele>
        <time>2021-09-13T07:45:58.938Z</time>
      </trkpt>
      <trkpt lat="43.49161" lon="6.59782">
        <ele>35</ele>
        <time>2021-09-13T07:46:03.918Z</time>
      </trkpt>
      <trkpt lat="43.49165" lon="6.59788">
        <ele>35</ele>
        <time>2021-09-13T07:46:08.909Z</time>
      </trkpt>
      <trkpt lat="43.49168" lon="6.59793">
        <ele>35</ele>
        <time>2021-09-13T07:46:12.916Z</time>
      </trkpt>
      <trkpt lat="43.49171" lon="6.59799">
        <ele>35</ele>
        <time>2021-09-13T07:46:17.924Z</time>
      </trkpt>
      <trkpt lat="43.49175" lon="6.59804">
        <ele>35</ele>
        <time>2021-09-13T07:46:21.943Z</time>
      </trkpt>
      <trkpt lat="43.49179" lon="6.5981">
        <ele>35</ele>
        <time>2021-09-13T07:46:26.960Z</time>
      </trkpt>
      <trkpt lat="43.49185" lon="6.59816">
        <ele>36</ele>
        <time>2021-09-13T07:46:31.914Z</time>
      </trkpt>
      <trkpt lat="43.49188" lon="6.59821">
        <ele>36</ele>
        <time>2021-09-13T07:46:35.932Z</time>
      </trkpt>
      <trkpt lat="43.49191" lon="6.59826">
        <ele>36</ele>
        <time>2021-09-13T07:46:40.929Z</time>
      </trkpt>
      <trkpt lat="43.49194" lon="6.59829">
        <ele>36</ele>
        <time>2021-09-13T07:46:45.918Z</time>
      </trkpt>
      <trkpt lat="43.49194" lon="6.59832">
        <ele>36</ele>
        <time>2021-09-13T07:46:49.927Z</time>
      </trkpt>
      <trkpt lat="43.49195" lon="6.59836">
        <ele>36</ele>
        <time>2021-09-13T07:46:53.979Z</time>
      </trkpt>
      <trkpt lat="43.49197" lon="6.59843">
        <ele>36</ele>
        <time>2021-09-13T07:46:58.951Z</time>
      </trkpt>
      <trkpt lat="43.492" lon="6.59851">
        <ele>35</ele>
        <time>2021-09-13T07:47:03.925Z</time>
      </trkpt>
      <trkpt lat="43.49203" lon="6.59858">
        <ele>35</ele>
        <time>2021-09-13T07:47:08.909Z</time>
      </trkpt>
      <trkpt lat="43.49205" lon="6.59861">
        <ele>35</ele>
        <time>2021-09-13T07:47:12.943Z</time>
      </trkpt>
      <trkpt lat="43.49207" lon="6.59864">
        <ele>35</ele>
        <time>2021-09-13T07:47:17.917Z</time>
      </trkpt>
      <trkpt lat="43.49209" lon="6.59867">
        <ele>37</ele>
        <time>2021-09-13T07:47:21.930Z</time>
      </trkpt>
      <trkpt lat="43.49217" lon="6.59869">
        <ele>37</ele>
        <time>2021-09-13T07:47:26.930Z</time>
      </trkpt>
      <trkpt lat="43.49221" lon="6.59869">
        <ele>37</ele>
        <time>2021-09-13T07:47:30.927Z</time>
      </trkpt>
      <trkpt lat="43.49228" lon="6.59873">
        <ele>37</ele>
        <time>2021-09-13T07:47:35.934Z</time>
      </trkpt>
      <trkpt lat="43.4923" lon="6.59875">
        <ele>37</ele>
        <time>2021-09-13T07:47:40.913Z</time>
      </trkpt>
      <trkpt lat="43.49231" lon="6.59876">
        <ele>37</ele>
        <time>2021-09-13T07:47:45.953Z</time>
      </trkpt>
      <trkpt lat="43.49233" lon="6.59878">
        <ele>37</ele>
        <time>2021-09-13T07:47:50.939Z</time>
      </trkpt>
      <trkpt lat="43.49236" lon="6.5988">
        <ele>37</ele>
        <time>2021-09-13T07:47:54.938Z</time>
      </trkpt>
      <trkpt lat="43.49241" lon="6.59883">
        <ele>38</ele>
        <time>2021-09-13T07:47:58.948Z</time>
      </trkpt>
      <trkpt lat="43.49245" lon="6.59887">
        <ele>38</ele>
        <time>2021-09-13T07:48:03.915Z</time>
      </trkpt>
      <trkpt lat="43.4925" lon="6.59893">
        <ele>38</ele>
        <time>2021-09-13T07:48:08.932Z</time>
      </trkpt>
      <trkpt lat="43.49254" lon="6.59899">
        <ele>38</ele>
        <time>2021-09-13T07:48:13.923Z</time>
      </trkpt>
      <trkpt lat="43.49257" lon="6.59905">
        <ele>39</ele>
        <time>2021-09-13T07:48:18.929Z</time>
      </trkpt>
      <trkpt lat="43.49258" lon="6.5991">
        <ele>39</ele>
        <time>2021-09-13T07:48:23.943Z</time>
      </trkpt>
      <trkpt lat="43.4926" lon="6.59914">
        <ele>39</ele>
        <time>2021-09-13T07:48:28.954Z</time>
      </trkpt>
      <trkpt lat="43.49264" lon="6.59918">
        <ele>39</ele>
        <time>2021-09-13T07:48:33.962Z</time>
      </trkpt>
      <trkpt lat="43.49269" lon="6.59921">
        <ele>40</ele>
        <time>2021-09-13T07:48:38.939Z</time>
      </trkpt>
      <trkpt lat="43.49274" lon="6.59927">
        <ele>40</ele>
        <time>2021-09-13T07:48:43.911Z</time>
      </trkpt>
      <trkpt lat="43.49278" lon="6.59929">
        <ele>40</ele>
        <time>2021-09-13T07:48:47.927Z</time>
      </trkpt>
      <trkpt lat="43.49284" lon="6.5993">
        <ele>40</ele>
        <time>2021-09-13T07:48:52.920Z</time>
      </trkpt>
      <trkpt lat="43.49289" lon="6.59932">
        <ele>41</ele>
        <time>2021-09-13T07:48:57.934Z</time>
      </trkpt>
      <trkpt lat="43.49292" lon="6.59932">
        <ele>43</ele>
        <time>2021-09-13T07:49:01.952Z</time>
      </trkpt>
      <trkpt lat="43.49299" lon="6.59936">
        <ele>43</ele>
        <time>2021-09-13T07:49:06.925Z</time>
      </trkpt>
      <trkpt lat="43.49303" lon="6.59941">
        <ele>43</ele>
        <time>2021-09-13T07:49:11.932Z</time>
      </trkpt>
      <trkpt lat="43.49304" lon="6.59946">
        <ele>43</ele>
        <time>2021-09-13T07:49:16.919Z</time>
      </trkpt>
      <trkpt lat="43.49306" lon="6.59951">
        <ele>43</ele>
        <time>2021-09-13T07:49:26.911Z</time>
      </trkpt>
      <trkpt lat="43.49308" lon="6.59952">
        <ele>43</ele>
        <time>2021-09-13T07:49:30.918Z</time>
      </trkpt>
      <trkpt lat="43.4931" lon="6.59954">
        <ele>43</ele>
        <time>2021-09-13T07:49:34.920Z</time>
      </trkpt>
      <trkpt lat="43.49312" lon="6.59956">
        <ele>43</ele>
        <time>2021-09-13T07:49:39.902Z</time>
      </trkpt>
      <trkpt lat="43.49315" lon="6.5996">
        <ele>46</ele>
        <time>2021-09-13T07:49:44.930Z</time>
      </trkpt>
      <trkpt lat="43.49319" lon="6.59964">
        <ele>46</ele>
        <time>2021-09-13T07:49:49.905Z</time>
      </trkpt>
      <trkpt lat="43.49323" lon="6.59967">
        <ele>49</ele>
        <time>2021-09-13T07:49:54.904Z</time>
      </trkpt>
      <trkpt lat="43.49328" lon="6.59966">
        <ele>49</ele>
        <time>2021-09-13T07:49:59.952Z</time>
      </trkpt>
      <trkpt lat="43.49336" lon="6.59973">
        <ele>49</ele>
        <time>2021-09-13T07:50:04.918Z</time>
      </trkpt>
      <trkpt lat="43.49339" lon="6.59974">
        <ele>49</ele>
        <time>2021-09-13T07:50:09.908Z</time>
      </trkpt>
      <trkpt lat="43.4934" lon="6.59976">
        <ele>49</ele>
        <time>2021-09-13T07:50:13.925Z</time>
      </trkpt>
      <trkpt lat="43.49343" lon="6.59978">
        <ele>49</ele>
        <time>2021-09-13T07:50:18.910Z</time>
      </trkpt>
      <trkpt lat="43.49344" lon="6.5998">
        <ele>49</ele>
        <time>2021-09-13T07:50:22.921Z</time>
      </trkpt>
      <trkpt lat="43.49346" lon="6.59983">
        <ele>49</ele>
        <time>2021-09-13T07:50:27.923Z</time>
      </trkpt>
      <trkpt lat="43.49348" lon="6.59986">
        <ele>51</ele>
        <time>2021-09-13T07:50:32.902Z</time>
      </trkpt>
      <trkpt lat="43.4935" lon="6.59988">
        <ele>54</ele>
        <time>2021-09-13T07:50:36.916Z</time>
      </trkpt>
      <trkpt lat="43.49357" lon="6.59993">
        <ele>54</ele>
        <time>2021-09-13T07:50:41.934Z</time>
      </trkpt>
      <trkpt lat="43.49364" lon="6.59996">
        <ele>54</ele>
        <time>2021-09-13T07:50:46.893Z</time>
      </trkpt>
      <trkpt lat="43.49367" lon="6.59999">
        <ele>54</ele>
        <time>2021-09-13T07:50:50.933Z</time>
      </trkpt>
      <trkpt lat="43.49371" lon="6.60004">
        <ele>54</ele>
        <time>2021-09-13T07:50:55.903Z</time>
      </trkpt>
      <trkpt lat="43.4937" lon="6.60006">
        <ele>54</ele>
        <time>2021-09-13T07:50:59.915Z</time>
      </trkpt>
      <trkpt lat="43.49372" lon="6.60009">
        <ele>54</ele>
        <time>2021-09-13T07:51:04.911Z</time>
      </trkpt>
      <trkpt lat="43.49376" lon="6.60011">
        <ele>53</ele>
        <time>2021-09-13T07:51:08.928Z</time>
      </trkpt>
      <trkpt lat="43.4938" lon="6.60014">
        <ele>54</ele>
        <time>2021-09-13T07:51:13.922Z</time>
      </trkpt>
      <trkpt lat="43.49382" lon="6.60017">
        <ele>54</ele>
        <time>2021-09-13T07:51:17.910Z</time>
      </trkpt>
      <trkpt lat="43.49385" lon="6.60021">
        <ele>54</ele>
        <time>2021-09-13T07:51:22.935Z</time>
      </trkpt>
      <trkpt lat="43.49389" lon="6.60025">
        <ele>54</ele>
        <time>2021-09-13T07:51:27.913Z</time>
      </trkpt>
      <trkpt lat="43.49391" lon="6.60031">
        <ele>54</ele>
        <time>2021-09-13T07:51:32.945Z</time>
      </trkpt>
      <trkpt lat="43.49397" lon="6.60038">
        <ele>54</ele>
        <time>2021-09-13T07:51:37.910Z</time>
      </trkpt>
      <trkpt lat="43.49402" lon="6.60043">
        <ele>56</ele>
        <time>2021-09-13T07:51:41.922Z</time>
      </trkpt>
      <trkpt lat="43.49406" lon="6.60048">
        <ele>55</ele>
        <time>2021-09-13T07:51:45.930Z</time>
      </trkpt>
      <trkpt lat="43.49411" lon="6.60054">
        <ele>55</ele>
        <time>2021-09-13T07:51:49.923Z</time>
      </trkpt>
      <trkpt lat="43.49416" lon="6.60059">
        <ele>55</ele>
        <time>2021-09-13T07:51:54.922Z</time>
      </trkpt>
      <trkpt lat="43.49419" lon="6.60063">
        <ele>55</ele>
        <time>2021-09-13T07:51:58.922Z</time>
      </trkpt>
      <trkpt lat="43.49423" lon="6.60068">
        <ele>55</ele>
        <time>2021-09-13T07:52:03.918Z</time>
      </trkpt>
      <trkpt lat="43.49426" lon="6.6007">
        <ele>55</ele>
        <time>2021-09-13T07:52:07.923Z</time>
      </trkpt>
      <trkpt lat="43.4943" lon="6.60073">
        <ele>55</ele>
        <time>2021-09-13T07:52:11.925Z</time>
      </trkpt>
      <trkpt lat="43.49435" lon="6.60078">
        <ele>56</ele>
        <time>2021-09-13T07:52:16.928Z</time>
      </trkpt>
      <trkpt lat="43.49442" lon="6.60079">
        <ele>56</ele>
        <time>2021-09-13T07:52:21.965Z</time>
      </trkpt>
      <trkpt lat="43.49447" lon="6.60082">
        <ele>56</ele>
        <time>2021-09-13T07:52:26.916Z</time>
      </trkpt>
      <trkpt lat="43.49453" lon="6.60086">
        <ele>56</ele>
        <time>2021-09-13T07:52:31.929Z</time>
      </trkpt>
      <trkpt lat="43.49456" lon="6.60091">
        <ele>56</ele>
        <time>2021-09-13T07:52:35.927Z</time>
      </trkpt>
      <trkpt lat="43.49458" lon="6.60094">
        <ele>56</ele>
        <time>2021-09-13T07:52:40.913Z</time>
      </trkpt>
      <trkpt lat="43.4946" lon="6.60095">
        <ele>57</ele>
        <time>2021-09-13T07:52:44.932Z</time>
      </trkpt>
      <trkpt lat="43.49464" lon="6.60097">
        <ele>57</ele>
        <time>2021-09-13T07:52:49.909Z</time>
      </trkpt>
      <trkpt lat="43.49468" lon="6.60102">
        <ele>57</ele>
        <time>2021-09-13T07:52:53.926Z</time>
      </trkpt>
      <trkpt lat="43.49472" lon="6.60105">
        <ele>57</ele>
        <time>2021-09-13T07:52:58.931Z</time>
      </trkpt>
      <trkpt lat="43.49476" lon="6.6011">
        <ele>57</ele>
        <time>2021-09-13T07:53:03.920Z</time>
      </trkpt>
      <trkpt lat="43.49479" lon="6.60115">
        <ele>57</ele>
        <time>2021-09-13T07:53:08.922Z</time>
      </trkpt>
      <trkpt lat="43.49481" lon="6.60117">
        <ele>57</ele>
        <time>2021-09-13T07:53:12.950Z</time>
      </trkpt>
      <trkpt lat="43.49484" lon="6.60121">
        <ele>57</ele>
        <time>2021-09-13T07:53:17.926Z</time>
      </trkpt>
      <trkpt lat="43.49488" lon="6.60127">
        <ele>59</ele>
        <time>2021-09-13T07:53:22.937Z</time>
      </trkpt>
      <trkpt lat="43.49491" lon="6.6013">
        <ele>59</ele>
        <time>2021-09-13T07:53:27.929Z</time>
      </trkpt>
      <trkpt lat="43.49493" lon="6.60134">
        <ele>59</ele>
        <time>2021-09-13T07:53:32.923Z</time>
      </trkpt>
      <trkpt lat="43.49499" lon="6.60138">
        <ele>59</ele>
        <time>2021-09-13T07:53:37.938Z</time>
      </trkpt>
      <trkpt lat="43.49505" lon="6.60145">
        <ele>59</ele>
        <time>2021-09-13T07:53:42.921Z</time>
      </trkpt>
      <trkpt lat="43.4951" lon="6.60152">
        <ele>59</ele>
        <time>2021-09-13T07:53:46.934Z</time>
      </trkpt>
      <trkpt lat="43.49513" lon="6.60156">
        <ele>60</ele>
        <time>2021-09-13T07:53:50.944Z</time>
      </trkpt>
      <trkpt lat="43.49515" lon="6.60159">
        <ele>63</ele>
        <time>2021-09-13T07:53:55.922Z</time>
      </trkpt>
      <trkpt lat="43.49519" lon="6.60164">
        <ele>63</ele>
        <time>2021-09-13T07:54:00.900Z</time>
      </trkpt>
      <trkpt lat="43.4952" lon="6.60166">
        <ele>63</ele>
        <time>2021-09-13T07:54:04.922Z</time>
      </trkpt>
      <trkpt lat="43.49522" lon="6.60169">
        <ele>63</ele>
        <time>2021-09-13T07:54:08.926Z</time>
      </trkpt>
      <trkpt lat="43.49528" lon="6.60174">
        <ele>63</ele>
        <time>2021-09-13T07:54:13.934Z</time>
      </trkpt>
      <trkpt lat="43.49535" lon="6.6018">
        <ele>63</ele>
        <time>2021-09-13T07:54:18.919Z</time>
      </trkpt>
      <trkpt lat="43.4954" lon="6.60184">
        <ele>63</ele>
        <time>2021-09-13T07:54:23.935Z</time>
      </trkpt>
      <trkpt lat="43.49547" lon="6.60188">
        <ele>65</ele>
        <time>2021-09-13T07:54:28.910Z</time>
      </trkpt>
      <trkpt lat="43.49554" lon="6.60192">
        <ele>65</ele>
        <time>2021-09-13T07:54:33.909Z</time>
      </trkpt>
      <trkpt lat="43.4956" lon="6.60193">
        <ele>65</ele>
        <time>2021-09-13T07:54:37.953Z</time>
      </trkpt>
      <trkpt lat="43.49565" lon="6.60194">
        <ele>65</ele>
        <time>2021-09-13T07:54:42.919Z</time>
      </trkpt>
      <trkpt lat="43.49569" lon="6.60194">
        <ele>65</ele>
        <time>2021-09-13T07:54:47.913Z</time>
      </trkpt>
      <trkpt lat="43.49573" lon="6.60194">
        <ele>65</ele>
        <time>2021-09-13T07:54:51.920Z</time>
      </trkpt>
      <trkpt lat="43.49579" lon="6.60196">
        <ele>65</ele>
        <time>2021-09-13T07:54:56.912Z</time>
      </trkpt>
      <trkpt lat="43.49585" lon="6.60198">
        <ele>65</ele>
        <time>2021-09-13T07:55:01.901Z</time>
      </trkpt>
      <trkpt lat="43.49589" lon="6.60199">
        <ele>65</ele>
        <time>2021-09-13T07:55:05.919Z</time>
      </trkpt>
      <trkpt lat="43.49594" lon="6.60201">
        <ele>65</ele>
        <time>2021-09-13T07:55:10.909Z</time>
      </trkpt>
      <trkpt lat="43.49599" lon="6.60202">
        <ele>65</ele>
        <time>2021-09-13T07:55:14.919Z</time>
      </trkpt>
      <trkpt lat="43.49605" lon="6.60202">
        <ele>65</ele>
        <time>2021-09-13T07:55:19.917Z</time>
      </trkpt>
      <trkpt lat="43.49609" lon="6.60203">
        <ele>65</ele>
        <time>2021-09-13T07:55:24.922Z</time>
      </trkpt>
      <trkpt lat="43.49615" lon="6.60203">
        <ele>65</ele>
        <time>2021-09-13T07:55:29.900Z</time>
      </trkpt>
      <trkpt lat="43.4962" lon="6.60203">
        <ele>65</ele>
        <time>2021-09-13T07:55:33.924Z</time>
      </trkpt>
      <trkpt lat="43.49625" lon="6.60204">
        <ele>65</ele>
        <time>2021-09-13T07:55:38.917Z</time>
      </trkpt>
      <trkpt lat="43.49629" lon="6.60205">
        <ele>65</ele>
        <time>2021-09-13T07:55:42.926Z</time>
      </trkpt>
      <trkpt lat="43.49633" lon="6.60206">
        <ele>65</ele>
        <time>2021-09-13T07:55:47.903Z</time>
      </trkpt>
      <trkpt lat="43.49635" lon="6.60207">
        <ele>65</ele>
        <time>2021-09-13T07:55:51.911Z</time>
      </trkpt>
      <trkpt lat="43.49639" lon="6.6021">
        <ele>65</ele>
        <time>2021-09-13T07:55:56.911Z</time>
      </trkpt>
      <trkpt lat="43.49644" lon="6.60213">
        <ele>65</ele>
        <time>2021-09-13T07:56:00.919Z</time>
      </trkpt>
      <trkpt lat="43.49649" lon="6.60216">
        <ele>65</ele>
        <time>2021-09-13T07:56:05.904Z</time>
      </trkpt>
      <trkpt lat="43.49653" lon="6.60218">
        <ele>65</ele>
        <time>2021-09-13T07:56:09.933Z</time>
      </trkpt>
      <trkpt lat="43.49656" lon="6.60221">
        <ele>65</ele>
        <time>2021-09-13T07:56:13.930Z</time>
      </trkpt>
      <trkpt lat="43.49656" lon="6.60223">
        <ele>65</ele>
        <time>2021-09-13T07:56:18.918Z</time>
      </trkpt>
      <trkpt lat="43.49658" lon="6.60224">
        <ele>65</ele>
        <time>2021-09-13T07:56:23.919Z</time>
      </trkpt>
      <trkpt lat="43.4966" lon="6.60226">
        <ele>65</ele>
        <time>2021-09-13T07:56:27.927Z</time>
      </trkpt>
      <trkpt lat="43.49664" lon="6.6023">
        <ele>65</ele>
        <time>2021-09-13T07:56:31.925Z</time>
      </trkpt>
      <trkpt lat="43.49669" lon="6.60235">
        <ele>65</ele>
        <time>2021-09-13T07:56:36.919Z</time>
      </trkpt>
      <trkpt lat="43.49674" lon="6.6024">
        <ele>66</ele>
        <time>2021-09-13T07:56:41.916Z</time>
      </trkpt>
      <trkpt lat="43.49679" lon="6.60245">
        <ele>66</ele>
        <time>2021-09-13T07:56:45.934Z</time>
      </trkpt>
      <trkpt lat="43.49687" lon="6.60258">
        <ele>66</ele>
        <time>2021-09-13T08:00:03.907Z</time>
      </trkpt>
      <trkpt lat="43.49686" lon="6.60259">
        <ele>66</ele>
        <time>2021-09-13T08:00:08.897Z</time>
      </trkpt>
      <trkpt lat="43.49686" lon="6.60264">
        <ele>66</ele>
        <time>2021-09-13T08:00:13.900Z</time>
      </trkpt>
      <trkpt lat="43.49686" lon="6.60269">
        <ele>67</ele>
        <time>2021-09-13T08:00:17.913Z</time>
      </trkpt>
      <trkpt lat="43.49688" lon="6.60272">
        <ele>67</ele>
        <time>2021-09-13T08:00:21.934Z</time>
      </trkpt>
      <trkpt lat="43.49691" lon="6.60276">
        <ele>67</ele>
        <time>2021-09-13T08:00:26.911Z</time>
      </trkpt>
      <trkpt lat="43.49695" lon="6.60282">
        <ele>67</ele>
        <time>2021-09-13T08:00:30.921Z</time>
      </trkpt>
      <trkpt lat="43.49697" lon="6.60285">
        <ele>67</ele>
        <time>2021-09-13T08:00:35.890Z</time>
      </trkpt>
      <trkpt lat="43.49701" lon="6.6029">
        <ele>67</ele>
        <time>2021-09-13T08:00:39.920Z</time>
      </trkpt>
      <trkpt lat="43.49702" lon="6.60292">
        <ele>68</ele>
        <time>2021-09-13T08:00:43.933Z</time>
      </trkpt>
      <trkpt lat="43.49708" lon="6.60299">
        <ele>68</ele>
        <time>2021-09-13T08:00:48.913Z</time>
      </trkpt>
      <trkpt lat="43.49711" lon="6.60303">
        <ele>69</ele>
        <time>2021-09-13T08:00:53.911Z</time>
      </trkpt>
      <trkpt lat="43.49712" lon="6.60304">
        <ele>69</ele>
        <time>2021-09-13T08:00:58.910Z</time>
      </trkpt>
      <trkpt lat="43.49714" lon="6.60308">
        <ele>69</ele>
        <time>2021-09-13T08:01:02.916Z</time>
      </trkpt>
      <trkpt lat="43.49717" lon="6.6031">
        <ele>69</ele>
        <time>2021-09-13T08:01:07.923Z</time>
      </trkpt>
      <trkpt lat="43.49722" lon="6.60314">
        <ele>69</ele>
        <time>2021-09-13T08:01:12.925Z</time>
      </trkpt>
      <trkpt lat="43.49728" lon="6.60318">
        <ele>69</ele>
        <time>2021-09-13T08:01:17.912Z</time>
      </trkpt>
      <trkpt lat="43.49733" lon="6.60323">
        <ele>70</ele>
        <time>2021-09-13T08:01:21.936Z</time>
      </trkpt>
      <trkpt lat="43.49737" lon="6.60328">
        <ele>72</ele>
        <time>2021-09-13T08:01:26.910Z</time>
      </trkpt>
      <trkpt lat="43.49744" lon="6.60335">
        <ele>72</ele>
        <time>2021-09-13T08:01:31.909Z</time>
      </trkpt>
      <trkpt lat="43.49749" lon="6.60342">
        <ele>72</ele>
        <time>2021-09-13T08:01:36.918Z</time>
      </trkpt>
      <trkpt lat="43.49752" lon="6.60346">
        <ele>72</ele>
        <time>2021-09-13T08:01:40.927Z</time>
      </trkpt>
      <trkpt lat="43.49754" lon="6.60352">
        <ele>73</ele>
        <time>2021-09-13T08:01:45.913Z</time>
      </trkpt>
      <trkpt lat="43.49756" lon="6.60359">
        <ele>73</ele>
        <time>2021-09-13T08:01:50.920Z</time>
      </trkpt>
      <trkpt lat="43.49756" lon="6.60366">
        <ele>73</ele>
        <time>2021-09-13T08:01:55.931Z</time>
      </trkpt>
      <trkpt lat="43.49758" lon="6.60372">
        <ele>73</ele>
        <time>2021-09-13T08:02:00.899Z</time>
      </trkpt>
      <trkpt lat="43.4976" lon="6.60376">
        <ele>73</ele>
        <time>2021-09-13T08:02:04.910Z</time>
      </trkpt>
      <trkpt lat="43.49764" lon="6.6038">
        <ele>74</ele>
        <time>2021-09-13T08:02:08.939Z</time>
      </trkpt>
      <trkpt lat="43.49769" lon="6.60384">
        <ele>74</ele>
        <time>2021-09-13T08:02:13.924Z</time>
      </trkpt>
      <trkpt lat="43.49775" lon="6.6039">
        <ele>74</ele>
        <time>2021-09-13T08:02:18.928Z</time>
      </trkpt>
      <trkpt lat="43.4978" lon="6.60395">
        <ele>74</ele>
        <time>2021-09-13T08:02:23.925Z</time>
      </trkpt>
      <trkpt lat="43.49785" lon="6.60401">
        <ele>74</ele>
        <time>2021-09-13T08:02:28.927Z</time>
      </trkpt>
      <trkpt lat="43.4979" lon="6.60408">
        <ele>74</ele>
        <time>2021-09-13T08:02:33.924Z</time>
      </trkpt>
      <trkpt lat="43.49792" lon="6.60412">
        <ele>71</ele>
        <time>2021-09-13T08:02:37.924Z</time>
      </trkpt>
      <trkpt lat="43.49794" lon="6.60413">
        <ele>71</ele>
        <time>2021-09-13T08:02:42.904Z</time>
      </trkpt>
      <trkpt lat="43.49796" lon="6.60417">
        <ele>71</ele>
        <time>2021-09-13T08:02:46.911Z</time>
      </trkpt>
      <trkpt lat="43.49799" lon="6.60421">
        <ele>71</ele>
        <time>2021-09-13T08:02:50.921Z</time>
      </trkpt>
      <trkpt lat="43.49803" lon="6.60428">
        <ele>71</ele>
        <time>2021-09-13T08:02:55.905Z</time>
      </trkpt>
      <trkpt lat="43.49807" lon="6.60435">
        <ele>72</ele>
        <time>2021-09-13T08:02:59.913Z</time>
      </trkpt>
      <trkpt lat="43.4981" lon="6.60441">
        <ele>72</ele>
        <time>2021-09-13T08:03:03.921Z</time>
      </trkpt>
      <trkpt lat="43.49812" lon="6.60447">
        <ele>72</ele>
        <time>2021-09-13T08:03:08.915Z</time>
      </trkpt>
      <trkpt lat="43.49817" lon="6.60454">
        <ele>72</ele>
        <time>2021-09-13T08:03:12.923Z</time>
      </trkpt>
      <trkpt lat="43.49822" lon="6.60463">
        <ele>71</ele>
        <time>2021-09-13T08:03:17.919Z</time>
      </trkpt>
      <trkpt lat="43.49826" lon="6.60469">
        <ele>71</ele>
        <time>2021-09-13T08:03:22.918Z</time>
      </trkpt>
      <trkpt lat="43.49829" lon="6.60475">
        <ele>71</ele>
        <time>2021-09-13T08:03:27.913Z</time>
      </trkpt>
      <trkpt lat="43.49831" lon="6.60481">
        <ele>71</ele>
        <time>2021-09-13T08:03:31.933Z</time>
      </trkpt>
      <trkpt lat="43.49835" lon="6.60488">
        <ele>73</ele>
        <time>2021-09-13T08:03:36.901Z</time>
      </trkpt>
      <trkpt lat="43.49838" lon="6.60492">
        <ele>73</ele>
        <time>2021-09-13T08:03:40.907Z</time>
      </trkpt>
      <trkpt lat="43.49841" lon="6.60496">
        <ele>73</ele>
        <time>2021-09-13T08:03:44.932Z</time>
      </trkpt>
      <trkpt lat="43.49845" lon="6.60501">
        <ele>73</ele>
        <time>2021-09-13T08:03:48.942Z</time>
      </trkpt>
      <trkpt lat="43.49848" lon="6.60508">
        <ele>71</ele>
        <time>2021-09-13T08:03:53.935Z</time>
      </trkpt>
      <trkpt lat="43.49852" lon="6.60515">
        <ele>71</ele>
        <time>2021-09-13T08:03:58.911Z</time>
      </trkpt>
      <trkpt lat="43.49855" lon="6.60521">
        <ele>71</ele>
        <time>2021-09-13T08:04:03.899Z</time>
      </trkpt>
      <trkpt lat="43.49857" lon="6.60527">
        <ele>71</ele>
        <time>2021-09-13T08:04:07.932Z</time>
      </trkpt>
      <trkpt lat="43.49859" lon="6.60533">
        <ele>71</ele>
        <time>2021-09-13T08:04:12.919Z</time>
      </trkpt>
      <trkpt lat="43.4986" lon="6.60537">
        <ele>71</ele>
        <time>2021-09-13T08:04:16.935Z</time>
      </trkpt>
      <trkpt lat="43.49861" lon="6.60544">
        <ele>72</ele>
        <time>2021-09-13T08:04:21.930Z</time>
      </trkpt>
      <trkpt lat="43.49862" lon="6.60551">
        <ele>72</ele>
        <time>2021-09-13T08:04:26.908Z</time>
      </trkpt>
      <trkpt lat="43.49861" lon="6.60555">
        <ele>72</ele>
        <time>2021-09-13T08:04:30.910Z</time>
      </trkpt>
      <trkpt lat="43.49861" lon="6.60562">
        <ele>72</ele>
        <time>2021-09-13T08:04:35.924Z</time>
      </trkpt>
      <trkpt lat="43.49862" lon="6.60571">
        <ele>72</ele>
        <time>2021-09-13T08:04:40.926Z</time>
      </trkpt>
      <trkpt lat="43.49864" lon="6.60583">
        <ele>72</ele>
        <time>2021-09-13T08:04:45.894Z</time>
      </trkpt>
      <trkpt lat="43.49866" lon="6.60591">
        <ele>72</ele>
        <time>2021-09-13T08:04:49.925Z</time>
      </trkpt>
      <trkpt lat="43.49868" lon="6.60598">
        <ele>71</ele>
        <time>2021-09-13T08:04:53.931Z</time>
      </trkpt>
      <trkpt lat="43.4987" lon="6.60605">
        <ele>71</ele>
        <time>2021-09-13T08:04:58.924Z</time>
      </trkpt>
      <trkpt lat="43.49866" lon="6.60615">
        <ele>71</ele>
        <time>2021-09-13T08:05:59.914Z</time>
      </trkpt>
      <trkpt lat="43.49866" lon="6.60616">
        <ele>71</ele>
        <time>2021-09-13T08:06:03.948Z</time>
      </trkpt>
      <trkpt lat="43.49865" lon="6.60617">
        <ele>71</ele>
        <time>2021-09-13T08:06:13.900Z</time>
      </trkpt>
      <trkpt lat="43.49865" lon="6.60617">
        <ele>71</ele>
        <time>2021-09-13T08:06:18.901Z</time>
      </trkpt>
      <trkpt lat="43.49866" lon="6.60618">
        <ele>71</ele>
        <time>2021-09-13T08:06:26.900Z</time>
      </trkpt>
      <trkpt lat="43.49866" lon="6.60622">
        <ele>71</ele>
        <time>2021-09-13T08:07:29.893Z</time>
      </trkpt>
      <trkpt lat="43.49864" lon="6.60623">
        <ele>71</ele>
        <time>2021-09-13T08:07:33.902Z</time>
      </trkpt>
      <trkpt lat="43.49864" lon="6.60623">
        <ele>71</ele>
        <time>2021-09-13T08:07:37.927Z</time>
      </trkpt>
      <trkpt lat="43.49862" lon="6.60626">
        <ele>71</ele>
        <time>2021-09-13T08:07:42.926Z</time>
      </trkpt>
      <trkpt lat="43.4986" lon="6.60627">
        <ele>71</ele>
        <time>2021-09-13T08:07:47.937Z</time>
      </trkpt>
      <trkpt lat="43.49865" lon="6.60625">
        <ele>71</ele>
        <time>2021-09-13T08:10:20.906Z</time>
      </trkpt>
      <trkpt lat="43.49865" lon="6.60621">
        <ele>71</ele>
        <time>2021-09-13T08:11:36.895Z</time>
      </trkpt>
      <trkpt lat="43.49869" lon="6.60621">
        <ele>71</ele>
        <time>2021-09-13T08:12:29.904Z</time>
      </trkpt>
      <trkpt lat="43.4987" lon="6.6062">
        <ele>71</ele>
        <time>2021-09-13T08:12:34.899Z</time>
      </trkpt>
      <trkpt lat="43.4987" lon="6.60619">
        <ele>71</ele>
        <time>2021-09-13T08:12:39.898Z</time>
      </trkpt>
      <trkpt lat="43.49868" lon="6.60621">
        <ele>71</ele>
        <time>2021-09-13T08:17:22.905Z</time>
      </trkpt>
      <trkpt lat="43.49873" lon="6.60618">
        <ele>71</ele>
        <time>2021-09-13T08:17:26.938Z</time>
      </trkpt>
      <trkpt lat="43.49876" lon="6.60619">
        <ele>70</ele>
        <time>2021-09-13T08:17:31.939Z</time>
      </trkpt>
      <trkpt lat="43.49877" lon="6.60619">
        <ele>70</ele>
        <time>2021-09-13T08:17:35.925Z</time>
      </trkpt>
      <trkpt lat="43.4988" lon="6.60619">
        <ele>70</ele>
        <time>2021-09-13T08:17:40.906Z</time>
      </trkpt>
      <trkpt lat="43.49884" lon="6.6062">
        <ele>70</ele>
        <time>2021-09-13T08:17:45.913Z</time>
      </trkpt>
      <trkpt lat="43.49888" lon="6.60622">
        <ele>70</ele>
        <time>2021-09-13T08:17:50.916Z</time>
      </trkpt>
      <trkpt lat="43.49892" lon="6.60622">
        <ele>70</ele>
        <time>2021-09-13T08:17:54.923Z</time>
      </trkpt>
      <trkpt lat="43.49898" lon="6.60619">
        <ele>70</ele>
        <time>2021-09-13T08:17:59.919Z</time>
      </trkpt>
      <trkpt lat="43.49903" lon="6.60617">
        <ele>69</ele>
        <time>2021-09-13T08:18:03.932Z</time>
      </trkpt>
      <trkpt lat="43.49908" lon="6.60615">
        <ele>69</ele>
        <time>2021-09-13T08:18:08.921Z</time>
      </trkpt>
      <trkpt lat="43.49912" lon="6.60612">
        <ele>69</ele>
        <time>2021-09-13T08:18:13.942Z</time>
      </trkpt>
      <trkpt lat="43.49914" lon="6.60608">
        <ele>69</ele>
        <time>2021-09-13T08:18:18.905Z</time>
      </trkpt>
      <trkpt lat="43.49915" lon="6.60603">
        <ele>69</ele>
        <time>2021-09-13T08:18:23.909Z</time>
      </trkpt>
      <trkpt lat="43.4992" lon="6.606">
        <ele>69</ele>
        <time>2021-09-13T08:18:28.899Z</time>
      </trkpt>
      <trkpt lat="43.49923" lon="6.60596">
        <ele>70</ele>
        <time>2021-09-13T08:18:32.906Z</time>
      </trkpt>
      <trkpt lat="43.49927" lon="6.60592">
        <ele>70</ele>
        <time>2021-09-13T08:18:37.911Z</time>
      </trkpt>
      <trkpt lat="43.49931" lon="6.60591">
        <ele>69</ele>
        <time>2021-09-13T08:18:41.918Z</time>
      </trkpt>
      <trkpt lat="43.49934" lon="6.60588">
        <ele>69</ele>
        <time>2021-09-13T08:18:46.919Z</time>
      </trkpt>
      <trkpt lat="43.49936" lon="6.60589">
        <ele>69</ele>
        <time>2021-09-13T08:18:50.926Z</time>
      </trkpt>
      <trkpt lat="43.49938" lon="6.60586">
        <ele>69</ele>
        <time>2021-09-13T08:18:55.927Z</time>
      </trkpt>
      <trkpt lat="43.49941" lon="6.60585">
        <ele>69</ele>
        <time>2021-09-13T08:18:59.969Z</time>
      </trkpt>
      <trkpt lat="43.49945" lon="6.60583">
        <ele>69</ele>
        <time>2021-09-13T08:19:04.911Z</time>
      </trkpt>
      <trkpt lat="43.49948" lon="6.60582">
        <ele>69</ele>
        <time>2021-09-13T08:19:08.925Z</time>
      </trkpt>
      <trkpt lat="43.49952" lon="6.60579">
        <ele>69</ele>
        <time>2021-09-13T08:19:13.925Z</time>
      </trkpt>
      <trkpt lat="43.49955" lon="6.60576">
        <ele>69</ele>
        <time>2021-09-13T08:19:18.923Z</time>
      </trkpt>
      <trkpt lat="43.49962" lon="6.60572">
        <ele>68</ele>
        <time>2021-09-13T08:19:23.917Z</time>
      </trkpt>
      <trkpt lat="43.49967" lon="6.60569">
        <ele>69</ele>
        <time>2021-09-13T08:19:27.927Z</time>
      </trkpt>
      <trkpt lat="43.49975" lon="6.60565">
        <ele>69</ele>
        <time>2021-09-13T08:19:32.914Z</time>
      </trkpt>
      <trkpt lat="43.49981" lon="6.60563">
        <ele>69</ele>
        <time>2021-09-13T08:19:37.914Z</time>
      </trkpt>
      <trkpt lat="43.49986" lon="6.60561">
        <ele>69</ele>
        <time>2021-09-13T08:19:41.956Z</time>
      </trkpt>
      <trkpt lat="43.4999" lon="6.60559">
        <ele>70</ele>
        <time>2021-09-13T08:19:46.910Z</time>
      </trkpt>
      <trkpt lat="43.49995" lon="6.60557">
        <ele>70</ele>
        <time>2021-09-13T08:19:50.933Z</time>
      </trkpt>
      <trkpt lat="43.49999" lon="6.60553">
        <ele>70</ele>
        <time>2021-09-13T08:19:55.940Z</time>
      </trkpt>
      <trkpt lat="43.50002" lon="6.60551">
        <ele>70</ele>
        <time>2021-09-13T08:20:00.923Z</time>
      </trkpt>
      <trkpt lat="43.50005" lon="6.6055">
        <ele>70</ele>
        <time>2021-09-13T08:20:05.924Z</time>
      </trkpt>
      <trkpt lat="43.50011" lon="6.60547">
        <ele>70</ele>
        <time>2021-09-13T08:20:09.940Z</time>
      </trkpt>
      <trkpt lat="43.50014" lon="6.60545">
        <ele>70</ele>
        <time>2021-09-13T08:20:14.928Z</time>
      </trkpt>
      <trkpt lat="43.50019" lon="6.60542">
        <ele>72</ele>
        <time>2021-09-13T08:20:19.942Z</time>
      </trkpt>
      <trkpt lat="43.50024" lon="6.60541">
        <ele>72</ele>
        <time>2021-09-13T08:20:23.923Z</time>
      </trkpt>
      <trkpt lat="43.5003" lon="6.60539">
        <ele>72</ele>
        <time>2021-09-13T08:20:28.928Z</time>
      </trkpt>
      <trkpt lat="43.50035" lon="6.60535">
        <ele>72</ele>
        <time>2021-09-13T08:20:33.919Z</time>
      </trkpt>
      <trkpt lat="43.50039" lon="6.60532">
        <ele>72</ele>
        <time>2021-09-13T08:20:38.929Z</time>
      </trkpt>
      <trkpt lat="43.50042" lon="6.60531">
        <ele>71</ele>
        <time>2021-09-13T08:20:43.926Z</time>
      </trkpt>
      <trkpt lat="43.50045" lon="6.60527">
        <ele>71</ele>
        <time>2021-09-13T08:20:48.907Z</time>
      </trkpt>
      <trkpt lat="43.50049" lon="6.60524">
        <ele>71</ele>
        <time>2021-09-13T08:20:52.922Z</time>
      </trkpt>
      <trkpt lat="43.50053" lon="6.6052">
        <ele>71</ele>
        <time>2021-09-13T08:20:57.912Z</time>
      </trkpt>
      <trkpt lat="43.50057" lon="6.60517">
        <ele>71</ele>
        <time>2021-09-13T08:21:01.925Z</time>
      </trkpt>
      <trkpt lat="43.50064" lon="6.60512">
        <ele>72</ele>
        <time>2021-09-13T08:21:06.913Z</time>
      </trkpt>
      <trkpt lat="43.50069" lon="6.60509">
        <ele>70</ele>
        <time>2021-09-13T08:21:11.921Z</time>
      </trkpt>
      <trkpt lat="43.50075" lon="6.60508">
        <ele>70</ele>
        <time>2021-09-13T08:21:16.912Z</time>
      </trkpt>
      <trkpt lat="43.50079" lon="6.60506">
        <ele>70</ele>
        <time>2021-09-13T08:21:20.916Z</time>
      </trkpt>
      <trkpt lat="43.50084" lon="6.60504">
        <ele>70</ele>
        <time>2021-09-13T08:21:24.929Z</time>
      </trkpt>
      <trkpt lat="43.5009" lon="6.605">
        <ele>70</ele>
        <time>2021-09-13T08:21:29.909Z</time>
      </trkpt>
      <trkpt lat="43.50095" lon="6.60498">
        <ele>70</ele>
        <time>2021-09-13T08:21:33.924Z</time>
      </trkpt>
      <trkpt lat="43.501" lon="6.60494">
        <ele>69</ele>
        <time>2021-09-13T08:21:38.918Z</time>
      </trkpt>
      <trkpt lat="43.50105" lon="6.60493">
        <ele>69</ele>
        <time>2021-09-13T08:21:43.917Z</time>
      </trkpt>
      <trkpt lat="43.50106" lon="6.60491">
        <ele>69</ele>
        <time>2021-09-13T08:21:47.933Z</time>
      </trkpt>
      <trkpt lat="43.5011" lon="6.6049">
        <ele>69</ele>
        <time>2021-09-13T08:21:52.909Z</time>
      </trkpt>
      <trkpt lat="43.50114" lon="6.60486">
        <ele>69</ele>
        <time>2021-09-13T08:21:57.906Z</time>
      </trkpt>
      <trkpt lat="43.5012" lon="6.60484">
        <ele>69</ele>
        <time>2021-09-13T08:22:02.915Z</time>
      </trkpt>
      <trkpt lat="43.50126" lon="6.6048">
        <ele>68</ele>
        <time>2021-09-13T08:22:07.913Z</time>
      </trkpt>
      <trkpt lat="43.50133" lon="6.60477">
        <ele>68</ele>
        <time>2021-09-13T08:22:12.914Z</time>
      </trkpt>
      <trkpt lat="43.50139" lon="6.60474">
        <ele>68</ele>
        <time>2021-09-13T08:22:17.933Z</time>
      </trkpt>
      <trkpt lat="43.50143" lon="6.60472">
        <ele>68</ele>
        <time>2021-09-13T08:22:21.977Z</time>
      </trkpt>
      <trkpt lat="43.50147" lon="6.6047">
        <ele>68</ele>
        <time>2021-09-13T08:22:26.919Z</time>
      </trkpt>
      <trkpt lat="43.5015" lon="6.60468">
        <ele>68</ele>
        <time>2021-09-13T08:22:31.937Z</time>
      </trkpt>
      <trkpt lat="43.50152" lon="6.60468">
        <ele>68</ele>
        <time>2021-09-13T08:22:36.917Z</time>
      </trkpt>
      <trkpt lat="43.50155" lon="6.60466">
        <ele>68</ele>
        <time>2021-09-13T08:22:40.926Z</time>
      </trkpt>
      <trkpt lat="43.5016" lon="6.60463">
        <ele>68</ele>
        <time>2021-09-13T08:22:45.960Z</time>
      </trkpt>
      <trkpt lat="43.50164" lon="6.60461">
        <ele>68</ele>
        <time>2021-09-13T08:22:50.916Z</time>
      </trkpt>
      <trkpt lat="43.5017" lon="6.60457">
        <ele>68</ele>
        <time>2021-09-13T08:22:55.919Z</time>
      </trkpt>
      <trkpt lat="43.50174" lon="6.60452">
        <ele>68</ele>
        <time>2021-09-13T08:23:00.923Z</time>
      </trkpt>
      <trkpt lat="43.5018" lon="6.60447">
        <ele>68</ele>
        <time>2021-09-13T08:23:05.921Z</time>
      </trkpt>
      <trkpt lat="43.50187" lon="6.60443">
        <ele>69</ele>
        <time>2021-09-13T08:23:10.915Z</time>
      </trkpt>
      <trkpt lat="43.50191" lon="6.6044">
        <ele>69</ele>
        <time>2021-09-13T08:23:14.941Z</time>
      </trkpt>
      <trkpt lat="43.50196" lon="6.60437">
        <ele>69</ele>
        <time>2021-09-13T08:23:19.925Z</time>
      </trkpt>
      <trkpt lat="43.50201" lon="6.60434">
        <ele>69</ele>
        <time>2021-09-13T08:23:24.919Z</time>
      </trkpt>
      <trkpt lat="43.50205" lon="6.60433">
        <ele>69</ele>
        <time>2021-09-13T08:23:29.914Z</time>
      </trkpt>
      <trkpt lat="43.50209" lon="6.6043">
        <ele>70</ele>
        <time>2021-09-13T08:23:34.922Z</time>
      </trkpt>
      <trkpt lat="43.50214" lon="6.60427">
        <ele>70</ele>
        <time>2021-09-13T08:23:39.921Z</time>
      </trkpt>
      <trkpt lat="43.50219" lon="6.60425">
        <ele>70</ele>
        <time>2021-09-13T08:23:44.913Z</time>
      </trkpt>
      <trkpt lat="43.50224" lon="6.60423">
        <ele>70</ele>
        <time>2021-09-13T08:23:49.906Z</time>
      </trkpt>
      <trkpt lat="43.50228" lon="6.6042">
        <ele>70</ele>
        <time>2021-09-13T08:23:53.923Z</time>
      </trkpt>
      <trkpt lat="43.50234" lon="6.60416">
        <ele>70</ele>
        <time>2021-09-13T08:23:58.917Z</time>
      </trkpt>
      <trkpt lat="43.50239" lon="6.60412">
        <ele>72</ele>
        <time>2021-09-13T08:24:03.927Z</time>
      </trkpt>
      <trkpt lat="43.50243" lon="6.6041">
        <ele>72</ele>
        <time>2021-09-13T08:24:08.919Z</time>
      </trkpt>
      <trkpt lat="43.50244" lon="6.60409">
        <ele>72</ele>
        <time>2021-09-13T08:24:12.927Z</time>
      </trkpt>
      <trkpt lat="43.50246" lon="6.60409">
        <ele>72</ele>
        <time>2021-09-13T08:24:17.915Z</time>
      </trkpt>
      <trkpt lat="43.5025" lon="6.60408">
        <ele>72</ele>
        <time>2021-09-13T08:24:21.927Z</time>
      </trkpt>
      <trkpt lat="43.50253" lon="6.60405">
        <ele>72</ele>
        <time>2021-09-13T08:24:26.915Z</time>
      </trkpt>
      <trkpt lat="43.50259" lon="6.60401">
        <ele>71</ele>
        <time>2021-09-13T08:24:31.896Z</time>
      </trkpt>
      <trkpt lat="43.50264" lon="6.60398">
        <ele>71</ele>
        <time>2021-09-13T08:24:36.911Z</time>
      </trkpt>
      <trkpt lat="43.50268" lon="6.60395">
        <ele>72</ele>
        <time>2021-09-13T08:24:40.922Z</time>
      </trkpt>
      <trkpt lat="43.50274" lon="6.60391">
        <ele>72</ele>
        <time>2021-09-13T08:24:45.919Z</time>
      </trkpt>
      <trkpt lat="43.50279" lon="6.60389">
        <ele>72</ele>
        <time>2021-09-13T08:24:49.927Z</time>
      </trkpt>
      <trkpt lat="43.50282" lon="6.60386">
        <ele>72</ele>
        <time>2021-09-13T08:24:54.921Z</time>
      </trkpt>
      <trkpt lat="43.50285" lon="6.60384">
        <ele>72</ele>
        <time>2021-09-13T08:24:59.930Z</time>
      </trkpt>
      <trkpt lat="43.50289" lon="6.60382">
        <ele>72</ele>
        <time>2021-09-13T08:25:04.918Z</time>
      </trkpt>
      <trkpt lat="43.50295" lon="6.6038">
        <ele>72</ele>
        <time>2021-09-13T08:25:09.917Z</time>
      </trkpt>
      <trkpt lat="43.50298" lon="6.60378">
        <ele>72</ele>
        <time>2021-09-13T08:25:13.934Z</time>
      </trkpt>
      <trkpt lat="43.50303" lon="6.60377">
        <ele>72</ele>
        <time>2021-09-13T08:25:18.931Z</time>
      </trkpt>
      <trkpt lat="43.5031" lon="6.60374">
        <ele>73</ele>
        <time>2021-09-13T08:25:23.914Z</time>
      </trkpt>
      <trkpt lat="43.50318" lon="6.60371">
        <ele>73</ele>
        <time>2021-09-13T08:25:28.931Z</time>
      </trkpt>
      <trkpt lat="43.50324" lon="6.60367">
        <ele>73</ele>
        <time>2021-09-13T08:25:33.918Z</time>
      </trkpt>
      <trkpt lat="43.50328" lon="6.60363">
        <ele>73</ele>
        <time>2021-09-13T08:25:38.924Z</time>
      </trkpt>
      <trkpt lat="43.50332" lon="6.60362">
        <ele>73</ele>
        <time>2021-09-13T08:25:43.916Z</time>
      </trkpt>
      <trkpt lat="43.50336" lon="6.6036">
        <ele>73</ele>
        <time>2021-09-13T08:25:47.927Z</time>
      </trkpt>
      <trkpt lat="43.50341" lon="6.60357">
        <ele>73</ele>
        <time>2021-09-13T08:25:52.927Z</time>
      </trkpt>
      <trkpt lat="43.50347" lon="6.60355">
        <ele>73</ele>
        <time>2021-09-13T08:25:57.920Z</time>
      </trkpt>
      <trkpt lat="43.50351" lon="6.60353">
        <ele>73</ele>
        <time>2021-09-13T08:26:01.930Z</time>
      </trkpt>
      <trkpt lat="43.50354" lon="6.60349">
        <ele>73</ele>
        <time>2021-09-13T08:26:06.909Z</time>
      </trkpt>
      <trkpt lat="43.50359" lon="6.60345">
        <ele>74</ele>
        <time>2021-09-13T08:26:11.912Z</time>
      </trkpt>
      <trkpt lat="43.50364" lon="6.60342">
        <ele>74</ele>
        <time>2021-09-13T08:26:16.920Z</time>
      </trkpt>
      <trkpt lat="43.50369" lon="6.6034">
        <ele>74</ele>
        <time>2021-09-13T08:26:21.938Z</time>
      </trkpt>
      <trkpt lat="43.50372" lon="6.60337">
        <ele>74</ele>
        <time>2021-09-13T08:26:25.937Z</time>
      </trkpt>
      <trkpt lat="43.50376" lon="6.60334">
        <ele>75</ele>
        <time>2021-09-13T08:26:30.906Z</time>
      </trkpt>
      <trkpt lat="43.50378" lon="6.60332">
        <ele>75</ele>
        <time>2021-09-13T08:26:34.909Z</time>
      </trkpt>
      <trkpt lat="43.50383" lon="6.6033">
        <ele>75</ele>
        <time>2021-09-13T08:26:39.960Z</time>
      </trkpt>
      <trkpt lat="43.50387" lon="6.60329">
        <ele>75</ele>
        <time>2021-09-13T08:26:43.923Z</time>
      </trkpt>
      <trkpt lat="43.50392" lon="6.60327">
        <ele>75</ele>
        <time>2021-09-13T08:26:48.923Z</time>
      </trkpt>
      <trkpt lat="43.50397" lon="6.60325">
        <ele>75</ele>
        <time>2021-09-13T08:26:53.915Z</time>
      </trkpt>
      <trkpt lat="43.504" lon="6.60325">
        <ele>75</ele>
        <time>2021-09-13T08:26:57.925Z</time>
      </trkpt>
      <trkpt lat="43.50406" lon="6.60324">
        <ele>76</ele>
        <time>2021-09-13T08:27:02.911Z</time>
      </trkpt>
      <trkpt lat="43.50412" lon="6.60323">
        <ele>76</ele>
        <time>2021-09-13T08:27:07.924Z</time>
      </trkpt>
      <trkpt lat="43.50415" lon="6.60321">
        <ele>76</ele>
        <time>2021-09-13T08:27:12.932Z</time>
      </trkpt>
      <trkpt lat="43.50417" lon="6.60318">
        <ele>76</ele>
        <time>2021-09-13T08:27:17.920Z</time>
      </trkpt>
      <trkpt lat="43.50421" lon="6.60318">
        <ele>76</ele>
        <time>2021-09-13T08:27:21.924Z</time>
      </trkpt>
      <trkpt lat="43.50425" lon="6.60316">
        <ele>76</ele>
        <time>2021-09-13T08:27:26.921Z</time>
      </trkpt>
      <trkpt lat="43.50428" lon="6.60314">
        <ele>76</ele>
        <time>2021-09-13T08:27:30.929Z</time>
      </trkpt>
      <trkpt lat="43.50432" lon="6.60312">
        <ele>75</ele>
        <time>2021-09-13T08:27:35.940Z</time>
      </trkpt>
      <trkpt lat="43.50437" lon="6.60308">
        <ele>75</ele>
        <time>2021-09-13T08:27:40.906Z</time>
      </trkpt>
      <trkpt lat="43.50438" lon="6.60306">
        <ele>75</ele>
        <time>2021-09-13T08:27:44.911Z</time>
      </trkpt>
      <trkpt lat="43.50442" lon="6.60302">
        <ele>75</ele>
        <time>2021-09-13T08:27:48.920Z</time>
      </trkpt>
      <trkpt lat="43.50447" lon="6.60299">
        <ele>75</ele>
        <time>2021-09-13T08:27:53.906Z</time>
      </trkpt>
      <trkpt lat="43.5045" lon="6.60295">
        <ele>75</ele>
        <time>2021-09-13T08:27:57.917Z</time>
      </trkpt>
      <trkpt lat="43.50456" lon="6.60292">
        <ele>75</ele>
        <time>2021-09-13T08:28:02.911Z</time>
      </trkpt>
      <trkpt lat="43.50458" lon="6.6029">
        <ele>76</ele>
        <time>2021-09-13T08:28:06.911Z</time>
      </trkpt>
      <trkpt lat="43.5046" lon="6.60289">
        <ele>76</ele>
        <time>2021-09-13T08:28:10.939Z</time>
      </trkpt>
      <trkpt lat="43.50463" lon="6.60288">
        <ele>76</ele>
        <time>2021-09-13T08:28:15.932Z</time>
      </trkpt>
      <trkpt lat="43.50468" lon="6.60284">
        <ele>76</ele>
        <time>2021-09-13T08:28:20.920Z</time>
      </trkpt>
      <trkpt lat="43.50471" lon="6.60283">
        <ele>76</ele>
        <time>2021-09-13T08:28:24.931Z</time>
      </trkpt>
      <trkpt lat="43.50473" lon="6.60279">
        <ele>76</ele>
        <time>2021-09-13T08:28:29.922Z</time>
      </trkpt>
      <trkpt lat="43.50478" lon="6.60274">
        <ele>76</ele>
        <time>2021-09-13T08:28:33.924Z</time>
      </trkpt>
      <trkpt lat="43.50482" lon="6.60272">
        <ele>76</ele>
        <time>2021-09-13T08:28:38.922Z</time>
      </trkpt>
      <trkpt lat="43.50486" lon="6.60271">
        <ele>76</ele>
        <time>2021-09-13T08:28:43.912Z</time>
      </trkpt>
      <trkpt lat="43.50488" lon="6.6027">
        <ele>77</ele>
        <time>2021-09-13T08:28:47.913Z</time>
      </trkpt>
      <trkpt lat="43.50492" lon="6.60269">
        <ele>77</ele>
        <time>2021-09-13T08:28:51.932Z</time>
      </trkpt>
      <trkpt lat="43.50495" lon="6.60267">
        <ele>77</ele>
        <time>2021-09-13T08:28:56.902Z</time>
      </trkpt>
      <trkpt lat="43.50498" lon="6.60265">
        <ele>77</ele>
        <time>2021-09-13T08:29:00.932Z</time>
      </trkpt>
      <trkpt lat="43.50504" lon="6.60261">
        <ele>78</ele>
        <time>2021-09-13T08:29:05.938Z</time>
      </trkpt>
      <trkpt lat="43.50514" lon="6.60255">
        <ele>79</ele>
        <time>2021-09-13T08:29:10.913Z</time>
      </trkpt>
      <trkpt lat="43.50521" lon="6.60252">
        <ele>79</ele>
        <time>2021-09-13T08:29:15.934Z</time>
      </trkpt>
      <trkpt lat="43.50523" lon="6.60254">
        <ele>79</ele>
        <time>2021-09-13T08:29:20.917Z</time>
      </trkpt>
      <trkpt lat="43.50524" lon="6.60253">
        <ele>79</ele>
        <time>2021-09-13T08:29:24.926Z</time>
      </trkpt>
      <trkpt lat="43.50526" lon="6.6025">
        <ele>79</ele>
        <time>2021-09-13T08:29:29.924Z</time>
      </trkpt>
      <trkpt lat="43.50529" lon="6.60246">
        <ele>79</ele>
        <time>2021-09-13T08:29:34.920Z</time>
      </trkpt>
      <trkpt lat="43.50536" lon="6.60243">
        <ele>79</ele>
        <time>2021-09-13T08:29:39.915Z</time>
      </trkpt>
      <trkpt lat="43.50542" lon="6.60243">
        <ele>79</ele>
        <time>2021-09-13T08:29:44.912Z</time>
      </trkpt>
      <trkpt lat="43.50547" lon="6.60241">
        <ele>79</ele>
        <time>2021-09-13T08:29:48.912Z</time>
      </trkpt>
      <trkpt lat="43.50552" lon="6.60238">
        <ele>79</ele>
        <time>2021-09-13T08:29:53.933Z</time>
      </trkpt>
      <trkpt lat="43.50556" lon="6.60236">
        <ele>80</ele>
        <time>2021-09-13T08:29:58.912Z</time>
      </trkpt>
      <trkpt lat="43.50557" lon="6.60236">
        <ele>80</ele>
        <time>2021-09-13T08:30:02.920Z</time>
      </trkpt>
      <trkpt lat="43.50556" lon="6.60234">
        <ele>80</ele>
        <time>2021-09-13T08:30:24.922Z</time>
      </trkpt>
      <trkpt lat="43.50559" lon="6.60234">
        <ele>80</ele>
        <time>2021-09-13T08:30:29.929Z</time>
      </trkpt>
      <trkpt lat="43.50563" lon="6.60233">
        <ele>80</ele>
        <time>2021-09-13T08:30:34.914Z</time>
      </trkpt>
      <trkpt lat="43.50565" lon="6.60232">
        <ele>80</ele>
        <time>2021-09-13T08:30:38.943Z</time>
      </trkpt>
      <trkpt lat="43.50567" lon="6.60232">
        <ele>80</ele>
        <time>2021-09-13T08:30:43.908Z</time>
      </trkpt>
      <trkpt lat="43.50568" lon="6.60231">
        <ele>80</ele>
        <time>2021-09-13T08:30:47.914Z</time>
      </trkpt>
      <trkpt lat="43.5057" lon="6.6023">
        <ele>78</ele>
        <time>2021-09-13T08:30:51.934Z</time>
      </trkpt>
      <trkpt lat="43.50574" lon="6.60228">
        <ele>78</ele>
        <time>2021-09-13T08:30:56.919Z</time>
      </trkpt>
      <trkpt lat="43.50577" lon="6.60226">
        <ele>78</ele>
        <time>2021-09-13T08:31:00.929Z</time>
      </trkpt>
      <trkpt lat="43.50582" lon="6.60223">
        <ele>78</ele>
        <time>2021-09-13T08:31:05.920Z</time>
      </trkpt>
      <trkpt lat="43.50585" lon="6.60223">
        <ele>78</ele>
        <time>2021-09-13T08:31:09.928Z</time>
      </trkpt>
      <trkpt lat="43.50589" lon="6.60221">
        <ele>78</ele>
        <time>2021-09-13T08:31:13.931Z</time>
      </trkpt>
      <trkpt lat="43.50593" lon="6.6022">
        <ele>78</ele>
        <time>2021-09-13T08:31:18.915Z</time>
      </trkpt>
      <trkpt lat="43.5059" lon="6.60223">
        <ele>78</ele>
        <time>2021-09-13T08:34:28.892Z</time>
      </trkpt>
      <trkpt lat="43.5059" lon="6.60224">
        <ele>78</ele>
        <time>2021-09-13T08:34:37.901Z</time>
      </trkpt>
      <trkpt lat="43.50588" lon="6.60222">
        <ele>78</ele>
        <time>2021-09-13T08:34:42.907Z</time>
      </trkpt>
      <trkpt lat="43.50585" lon="6.6022">
        <ele>78</ele>
        <time>2021-09-13T08:34:47.886Z</time>
      </trkpt>
      <trkpt lat="43.50582" lon="6.60217">
        <ele>78</ele>
        <time>2021-09-13T08:34:51.894Z</time>
      </trkpt>
      <trkpt lat="43.50589" lon="6.60218">
        <ele>78</ele>
        <time>2021-09-13T08:36:11.903Z</time>
      </trkpt>
      <trkpt lat="43.50589" lon="6.60218">
        <ele>78</ele>
        <time>2021-09-13T08:36:16.894Z</time>
      </trkpt>
      <trkpt lat="43.5059" lon="6.60217">
        <ele>78</ele>
        <time>2021-09-13T08:36:20.903Z</time>
      </trkpt>
      <trkpt lat="43.50591" lon="6.60218">
        <ele>78</ele>
        <time>2021-09-13T08:36:24.912Z</time>
      </trkpt>
      <trkpt lat="43.50591" lon="6.60217">
        <ele>78</ele>
        <time>2021-09-13T08:36:29.892Z</time>
      </trkpt>
      <trkpt lat="43.50595" lon="6.60214">
        <ele>78</ele>
        <time>2021-09-13T08:44:28.909Z</time>
      </trkpt>
      <trkpt lat="43.50597" lon="6.60212">
        <ele>78</ele>
        <time>2021-09-13T08:44:33.911Z</time>
      </trkpt>
      <trkpt lat="43.50597" lon="6.60212">
        <ele>78</ele>
        <time>2021-09-13T08:44:38.917Z</time>
      </trkpt>
      <trkpt lat="43.50599" lon="6.60213">
        <ele>77</ele>
        <time>2021-09-13T08:44:43.911Z</time>
      </trkpt>
      <trkpt lat="43.50605" lon="6.60215">
        <ele>77</ele>
        <time>2021-09-13T08:44:48.909Z</time>
      </trkpt>
      <trkpt lat="43.50612" lon="6.60215">
        <ele>77</ele>
        <time>2021-09-13T08:44:52.913Z</time>
      </trkpt>
      <trkpt lat="43.50617" lon="6.60214">
        <ele>77</ele>
        <time>2021-09-13T08:44:57.911Z</time>
      </trkpt>
      <trkpt lat="43.50623" lon="6.60212">
        <ele>77</ele>
        <time>2021-09-13T08:45:02.927Z</time>
      </trkpt>
      <trkpt lat="43.5063" lon="6.60208">
        <ele>77</ele>
        <time>2021-09-13T08:45:07.912Z</time>
      </trkpt>
      <trkpt lat="43.50636" lon="6.60203">
        <ele>77</ele>
        <time>2021-09-13T08:45:12.916Z</time>
      </trkpt>
      <trkpt lat="43.50642" lon="6.60197">
        <ele>77</ele>
        <time>2021-09-13T08:45:17.902Z</time>
      </trkpt>
      <trkpt lat="43.50645" lon="6.60194">
        <ele>77</ele>
        <time>2021-09-13T08:45:22.903Z</time>
      </trkpt>
      <trkpt lat="43.50649" lon="6.60191">
        <ele>77</ele>
        <time>2021-09-13T08:45:27.903Z</time>
      </trkpt>
      <trkpt lat="43.50652" lon="6.60188">
        <ele>77</ele>
        <time>2021-09-13T08:45:32.910Z</time>
      </trkpt>
      <trkpt lat="43.50657" lon="6.60186">
        <ele>74</ele>
        <time>2021-09-13T08:45:37.907Z</time>
      </trkpt>
      <trkpt lat="43.50663" lon="6.6018">
        <ele>76</ele>
        <time>2021-09-13T08:45:42.916Z</time>
      </trkpt>
      <trkpt lat="43.5067" lon="6.60172">
        <ele>76</ele>
        <time>2021-09-13T08:45:47.903Z</time>
      </trkpt>
      <trkpt lat="43.50675" lon="6.60169">
        <ele>76</ele>
        <time>2021-09-13T08:45:51.919Z</time>
      </trkpt>
      <trkpt lat="43.5068" lon="6.60164">
        <ele>76</ele>
        <time>2021-09-13T08:45:56.906Z</time>
      </trkpt>
      <trkpt lat="43.50686" lon="6.6016">
        <ele>73</ele>
        <time>2021-09-13T08:46:01.914Z</time>
      </trkpt>
      <trkpt lat="43.50691" lon="6.60157">
        <ele>73</ele>
        <time>2021-09-13T08:46:05.926Z</time>
      </trkpt>
      <trkpt lat="43.50696" lon="6.60152">
        <ele>75</ele>
        <time>2021-09-13T08:46:10.916Z</time>
      </trkpt>
      <trkpt lat="43.507" lon="6.60148">
        <ele>75</ele>
        <time>2021-09-13T08:46:15.901Z</time>
      </trkpt>
      <trkpt lat="43.50703" lon="6.60141">
        <ele>75</ele>
        <time>2021-09-13T08:46:20.906Z</time>
      </trkpt>
      <trkpt lat="43.50706" lon="6.60135">
        <ele>75</ele>
        <time>2021-09-13T08:46:24.949Z</time>
      </trkpt>
      <trkpt lat="43.50709" lon="6.60132">
        <ele>73</ele>
        <time>2021-09-13T08:46:29.935Z</time>
      </trkpt>
      <trkpt lat="43.50709" lon="6.60129">
        <ele>73</ele>
        <time>2021-09-13T08:46:34.914Z</time>
      </trkpt>
      <trkpt lat="43.50711" lon="6.60124">
        <ele>74</ele>
        <time>2021-09-13T08:46:39.911Z</time>
      </trkpt>
      <trkpt lat="43.50714" lon="6.6012">
        <ele>74</ele>
        <time>2021-09-13T08:46:43.927Z</time>
      </trkpt>
      <trkpt lat="43.50722" lon="6.60099">
        <ele>74</ele>
        <time>2021-09-13T08:47:02.949Z</time>
      </trkpt>
      <trkpt lat="43.50723" lon="6.60096">
        <ele>75</ele>
        <time>2021-09-13T08:47:07.908Z</time>
      </trkpt>
      <trkpt lat="43.50724" lon="6.60092">
        <ele>75</ele>
        <time>2021-09-13T08:47:11.969Z</time>
      </trkpt>
      <trkpt lat="43.50728" lon="6.60088">
        <ele>75</ele>
        <time>2021-09-13T08:47:16.927Z</time>
      </trkpt>
      <trkpt lat="43.50729" lon="6.60083">
        <ele>75</ele>
        <time>2021-09-13T08:47:21.913Z</time>
      </trkpt>
      <trkpt lat="43.50733" lon="6.60078">
        <ele>75</ele>
        <time>2021-09-13T08:47:25.927Z</time>
      </trkpt>
      <trkpt lat="43.50737" lon="6.60073">
        <ele>74</ele>
        <time>2021-09-13T08:47:30.906Z</time>
      </trkpt>
      <trkpt lat="43.50738" lon="6.60071">
        <ele>74</ele>
        <time>2021-09-13T08:47:35.927Z</time>
      </trkpt>
      <trkpt lat="43.50739" lon="6.60069">
        <ele>74</ele>
        <time>2021-09-13T08:47:40.918Z</time>
      </trkpt>
      <trkpt lat="43.50738" lon="6.60065">
        <ele>74</ele>
        <time>2021-09-13T08:47:44.933Z</time>
      </trkpt>
      <trkpt lat="43.5074" lon="6.60059">
        <ele>74</ele>
        <time>2021-09-13T08:47:49.917Z</time>
      </trkpt>
      <trkpt lat="43.5074" lon="6.60054">
        <ele>74</ele>
        <time>2021-09-13T08:47:53.928Z</time>
      </trkpt>
      <trkpt lat="43.5074" lon="6.60045">
        <ele>74</ele>
        <time>2021-09-13T08:47:58.914Z</time>
      </trkpt>
      <trkpt lat="43.50738" lon="6.60039">
        <ele>74</ele>
        <time>2021-09-13T08:48:03.913Z</time>
      </trkpt>
      <trkpt lat="43.50737" lon="6.60032">
        <ele>74</ele>
        <time>2021-09-13T08:48:08.904Z</time>
      </trkpt>
      <trkpt lat="43.50738" lon="6.60025">
        <ele>74</ele>
        <time>2021-09-13T08:48:12.917Z</time>
      </trkpt>
      <trkpt lat="43.50737" lon="6.60015">
        <ele>74</ele>
        <time>2021-09-13T08:48:17.921Z</time>
      </trkpt>
      <trkpt lat="43.50737" lon="6.6001">
        <ele>72</ele>
        <time>2021-09-13T08:48:21.931Z</time>
      </trkpt>
      <trkpt lat="43.50739" lon="6.60007">
        <ele>72</ele>
        <time>2021-09-13T08:48:26.905Z</time>
      </trkpt>
      <trkpt lat="43.5074" lon="6.60003">
        <ele>72</ele>
        <time>2021-09-13T08:48:30.931Z</time>
      </trkpt>
      <trkpt lat="43.50742" lon="6.59998">
        <ele>72</ele>
        <time>2021-09-13T08:48:35.907Z</time>
      </trkpt>
      <trkpt lat="43.50744" lon="6.59992">
        <ele>72</ele>
        <time>2021-09-13T08:48:40.905Z</time>
      </trkpt>
      <trkpt lat="43.50748" lon="6.5998">
        <ele>71</ele>
        <time>2021-09-13T08:48:59.918Z</time>
      </trkpt>
      <trkpt lat="43.50749" lon="6.59981">
        <ele>71</ele>
        <time>2021-09-13T08:49:04.910Z</time>
      </trkpt>
      <trkpt lat="43.50751" lon="6.59981">
        <ele>71</ele>
        <time>2021-09-13T08:49:09.914Z</time>
      </trkpt>
      <trkpt lat="43.50755" lon="6.59982">
        <ele>71</ele>
        <time>2021-09-13T08:49:14.909Z</time>
      </trkpt>
      <trkpt lat="43.5076" lon="6.59983">
        <ele>71</ele>
        <time>2021-09-13T08:49:19.900Z</time>
      </trkpt>
      <trkpt lat="43.50765" lon="6.59982">
        <ele>72</ele>
        <time>2021-09-13T08:49:24.903Z</time>
      </trkpt>
      <trkpt lat="43.50771" lon="6.59981">
        <ele>72</ele>
        <time>2021-09-13T08:49:29.915Z</time>
      </trkpt>
      <trkpt lat="43.50777" lon="6.59982">
        <ele>72</ele>
        <time>2021-09-13T08:49:34.899Z</time>
      </trkpt>
      <trkpt lat="43.50781" lon="6.59982">
        <ele>72</ele>
        <time>2021-09-13T08:49:38.907Z</time>
      </trkpt>
      <trkpt lat="43.50788" lon="6.59983">
        <ele>72</ele>
        <time>2021-09-13T08:49:43.896Z</time>
      </trkpt>
      <trkpt lat="43.50794" lon="6.59985">
        <ele>75</ele>
        <time>2021-09-13T08:49:47.901Z</time>
      </trkpt>
      <trkpt lat="43.50799" lon="6.59986">
        <ele>76</ele>
        <time>2021-09-13T08:49:51.905Z</time>
      </trkpt>
      <trkpt lat="43.50804" lon="6.59988">
        <ele>76</ele>
        <time>2021-09-13T08:49:56.919Z</time>
      </trkpt>
      <trkpt lat="43.50809" lon="6.5999">
        <ele>76</ele>
        <time>2021-09-13T08:50:01.905Z</time>
      </trkpt>
      <trkpt lat="43.50814" lon="6.59992">
        <ele>76</ele>
        <time>2021-09-13T08:50:06.911Z</time>
      </trkpt>
      <trkpt lat="43.5082" lon="6.59994">
        <ele>76</ele>
        <time>2021-09-13T08:50:11.923Z</time>
      </trkpt>
      <trkpt lat="43.50826" lon="6.59994">
        <ele>76</ele>
        <time>2021-09-13T08:50:16.897Z</time>
      </trkpt>
      <trkpt lat="43.5083" lon="6.59993">
        <ele>76</ele>
        <time>2021-09-13T08:50:20.957Z</time>
      </trkpt>
      <trkpt lat="43.50835" lon="6.59994">
        <ele>76</ele>
        <time>2021-09-13T08:50:25.914Z</time>
      </trkpt>
      <trkpt lat="43.5084" lon="6.59997">
        <ele>76</ele>
        <time>2021-09-13T08:50:30.921Z</time>
      </trkpt>
      <trkpt lat="43.50846" lon="6.59998">
        <ele>76</ele>
        <time>2021-09-13T08:50:35.890Z</time>
      </trkpt>
      <trkpt lat="43.5085" lon="6.59999">
        <ele>75</ele>
        <time>2021-09-13T08:50:39.915Z</time>
      </trkpt>
      <trkpt lat="43.50853" lon="6.60001">
        <ele>75</ele>
        <time>2021-09-13T08:50:43.927Z</time>
      </trkpt>
      <trkpt lat="43.50859" lon="6.60004">
        <ele>75</ele>
        <time>2021-09-13T08:50:48.901Z</time>
      </trkpt>
      <trkpt lat="43.50864" lon="6.60007">
        <ele>75</ele>
        <time>2021-09-13T08:50:53.902Z</time>
      </trkpt>
      <trkpt lat="43.50867" lon="6.6001">
        <ele>75</ele>
        <time>2021-09-13T08:50:57.908Z</time>
      </trkpt>
      <trkpt lat="43.50873" lon="6.60014">
        <ele>75</ele>
        <time>2021-09-13T08:51:02.904Z</time>
      </trkpt>
      <trkpt lat="43.50879" lon="6.60016">
        <ele>73</ele>
        <time>2021-09-13T08:51:07.895Z</time>
      </trkpt>
      <trkpt lat="43.50883" lon="6.60017">
        <ele>73</ele>
        <time>2021-09-13T08:51:11.900Z</time>
      </trkpt>
      <trkpt lat="43.50887" lon="6.60018">
        <ele>73</ele>
        <time>2021-09-13T08:51:15.943Z</time>
      </trkpt>
      <trkpt lat="43.50892" lon="6.60019">
        <ele>73</ele>
        <time>2021-09-13T08:51:20.899Z</time>
      </trkpt>
      <trkpt lat="43.50897" lon="6.6002">
        <ele>73</ele>
        <time>2021-09-13T08:51:25.918Z</time>
      </trkpt>
      <trkpt lat="43.50902" lon="6.60022">
        <ele>73</ele>
        <time>2021-09-13T08:51:30.909Z</time>
      </trkpt>
      <trkpt lat="43.50909" lon="6.60024">
        <ele>73</ele>
        <time>2021-09-13T08:51:35.907Z</time>
      </trkpt>
      <trkpt lat="43.50914" lon="6.60025">
        <ele>73</ele>
        <time>2021-09-13T08:51:39.915Z</time>
      </trkpt>
      <trkpt lat="43.5092" lon="6.60027">
        <ele>73</ele>
        <time>2021-09-13T08:51:44.921Z</time>
      </trkpt>
      <trkpt lat="43.50925" lon="6.60026">
        <ele>73</ele>
        <time>2021-09-13T08:51:49.924Z</time>
      </trkpt>
      <trkpt lat="43.5093" lon="6.60027">
        <ele>73</ele>
        <time>2021-09-13T08:51:54.915Z</time>
      </trkpt>
      <trkpt lat="43.50936" lon="6.60031">
        <ele>73</ele>
        <time>2021-09-13T08:51:59.908Z</time>
      </trkpt>
      <trkpt lat="43.50941" lon="6.60034">
        <ele>73</ele>
        <time>2021-09-13T08:52:04.897Z</time>
      </trkpt>
      <trkpt lat="43.50944" lon="6.60036">
        <ele>73</ele>
        <time>2021-09-13T08:52:09.911Z</time>
      </trkpt>
      <trkpt lat="43.50948" lon="6.60042">
        <ele>74</ele>
        <time>2021-09-13T08:52:14.915Z</time>
      </trkpt>
      <trkpt lat="43.50952" lon="6.60049">
        <ele>74</ele>
        <time>2021-09-13T08:52:19.913Z</time>
      </trkpt>
      <trkpt lat="43.50955" lon="6.60056">
        <ele>74</ele>
        <time>2021-09-13T08:52:24.913Z</time>
      </trkpt>
      <trkpt lat="43.50957" lon="6.60062">
        <ele>74</ele>
        <time>2021-09-13T08:52:29.904Z</time>
      </trkpt>
      <trkpt lat="43.50957" lon="6.60066">
        <ele>74</ele>
        <time>2021-09-13T08:52:33.909Z</time>
      </trkpt>
      <trkpt lat="43.50959" lon="6.60075">
        <ele>74</ele>
        <time>2021-09-13T08:52:38.894Z</time>
      </trkpt>
      <trkpt lat="43.5096" lon="6.60081">
        <ele>74</ele>
        <time>2021-09-13T08:52:42.904Z</time>
      </trkpt>
      <trkpt lat="43.5096" lon="6.60088">
        <ele>74</ele>
        <time>2021-09-13T08:52:47.915Z</time>
      </trkpt>
      <trkpt lat="43.50962" lon="6.60098">
        <ele>75</ele>
        <time>2021-09-13T08:52:52.908Z</time>
      </trkpt>
      <trkpt lat="43.50965" lon="6.60106">
        <ele>75</ele>
        <time>2021-09-13T08:52:56.908Z</time>
      </trkpt>
      <trkpt lat="43.50966" lon="6.60109">
        <ele>75</ele>
        <time>2021-09-13T08:53:01.952Z</time>
      </trkpt>
      <trkpt lat="43.5097" lon="6.60111">
        <ele>75</ele>
        <time>2021-09-13T08:53:06.908Z</time>
      </trkpt>
      <trkpt lat="43.50976" lon="6.60107">
        <ele>75</ele>
        <time>2021-09-13T08:53:11.911Z</time>
      </trkpt>
      <trkpt lat="43.50979" lon="6.60103">
        <ele>75</ele>
        <time>2021-09-13T08:53:16.918Z</time>
      </trkpt>
      <trkpt lat="43.50982" lon="6.60099">
        <ele>75</ele>
        <time>2021-09-13T08:53:21.903Z</time>
      </trkpt>
      <trkpt lat="43.50986" lon="6.60094">
        <ele>74</ele>
        <time>2021-09-13T08:53:25.910Z</time>
      </trkpt>
      <trkpt lat="43.50991" lon="6.60091">
        <ele>74</ele>
        <time>2021-09-13T08:53:30.941Z</time>
      </trkpt>
      <trkpt lat="43.50994" lon="6.60087">
        <ele>74</ele>
        <time>2021-09-13T08:53:35.893Z</time>
      </trkpt>
      <trkpt lat="43.51002" lon="6.6008">
        <ele>74</ele>
        <time>2021-09-13T08:53:39.905Z</time>
      </trkpt>
      <trkpt lat="43.51005" lon="6.60074">
        <ele>74</ele>
        <time>2021-09-13T08:53:44.903Z</time>
      </trkpt>
      <trkpt lat="43.51006" lon="6.60071">
        <ele>74</ele>
        <time>2021-09-13T08:53:49.904Z</time>
      </trkpt>
      <trkpt lat="43.51009" lon="6.60066">
        <ele>73</ele>
        <time>2021-09-13T08:53:54.900Z</time>
      </trkpt>
      <trkpt lat="43.51012" lon="6.60061">
        <ele>73</ele>
        <time>2021-09-13T08:53:58.905Z</time>
      </trkpt>
      <trkpt lat="43.51016" lon="6.60058">
        <ele>74</ele>
        <time>2021-09-13T08:54:03.904Z</time>
      </trkpt>
      <trkpt lat="43.51025" lon="6.60053">
        <ele>74</ele>
        <time>2021-09-13T08:54:08.911Z</time>
      </trkpt>
      <trkpt lat="43.51033" lon="6.60046">
        <ele>74</ele>
        <time>2021-09-13T08:54:13.907Z</time>
      </trkpt>
      <trkpt lat="43.51037" lon="6.60041">
        <ele>73</ele>
        <time>2021-09-13T08:54:18.899Z</time>
      </trkpt>
      <trkpt lat="43.51039" lon="6.60038">
        <ele>73</ele>
        <time>2021-09-13T08:54:23.906Z</time>
      </trkpt>
      <trkpt lat="43.51042" lon="6.60033">
        <ele>74</ele>
        <time>2021-09-13T08:54:28.923Z</time>
      </trkpt>
      <trkpt lat="43.51045" lon="6.60028">
        <ele>74</ele>
        <time>2021-09-13T08:54:32.915Z</time>
      </trkpt>
      <trkpt lat="43.51047" lon="6.6002">
        <ele>74</ele>
        <time>2021-09-13T08:54:37.910Z</time>
      </trkpt>
      <trkpt lat="43.51051" lon="6.60014">
        <ele>74</ele>
        <time>2021-09-13T08:54:42.915Z</time>
      </trkpt>
      <trkpt lat="43.51053" lon="6.60007">
        <ele>74</ele>
        <time>2021-09-13T08:54:47.904Z</time>
      </trkpt>
      <trkpt lat="43.51056" lon="6.60001">
        <ele>74</ele>
        <time>2021-09-13T08:54:52.909Z</time>
      </trkpt>
      <trkpt lat="43.51058" lon="6.59993">
        <ele>74</ele>
        <time>2021-09-13T08:54:57.909Z</time>
      </trkpt>
      <trkpt lat="43.51061" lon="6.59982">
        <ele>74</ele>
        <time>2021-09-13T08:55:02.905Z</time>
      </trkpt>
      <trkpt lat="43.51063" lon="6.59973">
        <ele>74</ele>
        <time>2021-09-13T08:55:06.908Z</time>
      </trkpt>
      <trkpt lat="43.51065" lon="6.59965">
        <ele>74</ele>
        <time>2021-09-13T08:55:10.951Z</time>
      </trkpt>
      <trkpt lat="43.51066" lon="6.59957">
        <ele>75</ele>
        <time>2021-09-13T08:55:15.893Z</time>
      </trkpt>
      <trkpt lat="43.51066" lon="6.59951">
        <ele>75</ele>
        <time>2021-09-13T08:55:19.892Z</time>
      </trkpt>
      <trkpt lat="43.51067" lon="6.59944">
        <ele>75</ele>
        <time>2021-09-13T08:55:23.907Z</time>
      </trkpt>
      <trkpt lat="43.51068" lon="6.59936">
        <ele>75</ele>
        <time>2021-09-13T08:55:28.905Z</time>
      </trkpt>
      <trkpt lat="43.51068" lon="6.59929">
        <ele>75</ele>
        <time>2021-09-13T08:55:33.908Z</time>
      </trkpt>
      <trkpt lat="43.51069" lon="6.59923">
        <ele>75</ele>
        <time>2021-09-13T08:55:37.910Z</time>
      </trkpt>
      <trkpt lat="43.51067" lon="6.59919">
        <ele>75</ele>
        <time>2021-09-13T08:55:42.925Z</time>
      </trkpt>
      <trkpt lat="43.51067" lon="6.59913">
        <ele>75</ele>
        <time>2021-09-13T08:55:46.938Z</time>
      </trkpt>
      <trkpt lat="43.51065" lon="6.59908">
        <ele>75</ele>
        <time>2021-09-13T08:55:51.923Z</time>
      </trkpt>
      <trkpt lat="43.51062" lon="6.59901">
        <ele>73</ele>
        <time>2021-09-13T08:55:55.926Z</time>
      </trkpt>
      <trkpt lat="43.51058" lon="6.59896">
        <ele>73</ele>
        <time>2021-09-13T08:56:00.890Z</time>
      </trkpt>
      <trkpt lat="43.51054" lon="6.59894">
        <ele>73</ele>
        <time>2021-09-13T08:56:04.903Z</time>
      </trkpt>
      <trkpt lat="43.51048" lon="6.5989">
        <ele>73</ele>
        <time>2021-09-13T08:56:08.915Z</time>
      </trkpt>
      <trkpt lat="43.51043" lon="6.59888">
        <ele>73</ele>
        <time>2021-09-13T08:56:12.922Z</time>
      </trkpt>
      <trkpt lat="43.51037" lon="6.59891">
        <ele>70</ele>
        <time>2021-09-13T08:56:17.915Z</time>
      </trkpt>
      <trkpt lat="43.51029" lon="6.59891">
        <ele>70</ele>
        <time>2021-09-13T08:56:22.899Z</time>
      </trkpt>
      <trkpt lat="43.51023" lon="6.59891">
        <ele>70</ele>
        <time>2021-09-13T08:56:27.905Z</time>
      </trkpt>
      <trkpt lat="43.51017" lon="6.5989">
        <ele>70</ele>
        <time>2021-09-13T08:56:31.931Z</time>
      </trkpt>
      <trkpt lat="43.51011" lon="6.5989">
        <ele>69</ele>
        <time>2021-09-13T08:56:36.912Z</time>
      </trkpt>
      <trkpt lat="43.51003" lon="6.5989">
        <ele>69</ele>
        <time>2021-09-13T08:56:41.920Z</time>
      </trkpt>
      <trkpt lat="43.50998" lon="6.59889">
        <ele>69</ele>
        <time>2021-09-13T08:56:46.904Z</time>
      </trkpt>
      <trkpt lat="43.50994" lon="6.59889">
        <ele>69</ele>
        <time>2021-09-13T08:56:50.918Z</time>
      </trkpt>
      <trkpt lat="43.50988" lon="6.59886">
        <ele>69</ele>
        <time>2021-09-13T08:56:55.914Z</time>
      </trkpt>
      <trkpt lat="43.50984" lon="6.59884">
        <ele>68</ele>
        <time>2021-09-13T08:56:59.915Z</time>
      </trkpt>
      <trkpt lat="43.50981" lon="6.59879">
        <ele>68</ele>
        <time>2021-09-13T08:57:04.910Z</time>
      </trkpt>
      <trkpt lat="43.50978" lon="6.59873">
        <ele>67</ele>
        <time>2021-09-13T08:57:09.912Z</time>
      </trkpt>
      <trkpt lat="43.50977" lon="6.59867">
        <ele>67</ele>
        <time>2021-09-13T08:57:14.919Z</time>
      </trkpt>
      <trkpt lat="43.50975" lon="6.59861">
        <ele>67</ele>
        <time>2021-09-13T08:57:18.919Z</time>
      </trkpt>
      <trkpt lat="43.50972" lon="6.59855">
        <ele>67</ele>
        <time>2021-09-13T08:57:23.917Z</time>
      </trkpt>
      <trkpt lat="43.5097" lon="6.59848">
        <ele>67</ele>
        <time>2021-09-13T08:57:27.920Z</time>
      </trkpt>
      <trkpt lat="43.50969" lon="6.59841">
        <ele>67</ele>
        <time>2021-09-13T08:57:32.909Z</time>
      </trkpt>
      <trkpt lat="43.50968" lon="6.59834">
        <ele>67</ele>
        <time>2021-09-13T08:57:37.921Z</time>
      </trkpt>
      <trkpt lat="43.50967" lon="6.59825">
        <ele>67</ele>
        <time>2021-09-13T08:57:42.923Z</time>
      </trkpt>
      <trkpt lat="43.50966" lon="6.59819">
        <ele>67</ele>
        <time>2021-09-13T08:57:46.930Z</time>
      </trkpt>
      <trkpt lat="43.50966" lon="6.59818">
        <ele>67</ele>
        <time>2021-09-13T08:57:51.925Z</time>
      </trkpt>
      <trkpt lat="43.50967" lon="6.59812">
        <ele>67</ele>
        <time>2021-09-13T08:57:55.925Z</time>
      </trkpt>
      <trkpt lat="43.50967" lon="6.59807">
        <ele>67</ele>
        <time>2021-09-13T08:58:00.917Z</time>
      </trkpt>
      <trkpt lat="43.50967" lon="6.59801">
        <ele>67</ele>
        <time>2021-09-13T08:58:04.933Z</time>
      </trkpt>
      <trkpt lat="43.50967" lon="6.59796">
        <ele>67</ele>
        <time>2021-09-13T08:58:09.925Z</time>
      </trkpt>
      <trkpt lat="43.50967" lon="6.59789">
        <ele>67</ele>
        <time>2021-09-13T08:58:14.920Z</time>
      </trkpt>
      <trkpt lat="43.50968" lon="6.59781">
        <ele>67</ele>
        <time>2021-09-13T08:58:19.932Z</time>
      </trkpt>
      <trkpt lat="43.50969" lon="6.59776">
        <ele>67</ele>
        <time>2021-09-13T08:58:23.929Z</time>
      </trkpt>
      <trkpt lat="43.50971" lon="6.59766">
        <ele>67</ele>
        <time>2021-09-13T08:58:28.911Z</time>
      </trkpt>
      <trkpt lat="43.50973" lon="6.59754">
        <ele>65</ele>
        <time>2021-09-13T08:58:33.919Z</time>
      </trkpt>
      <trkpt lat="43.50975" lon="6.5975">
        <ele>65</ele>
        <time>2021-09-13T08:58:38.912Z</time>
      </trkpt>
      <trkpt lat="43.50977" lon="6.59747">
        <ele>65</ele>
        <time>2021-09-13T08:58:43.918Z</time>
      </trkpt>
      <trkpt lat="43.50978" lon="6.59739">
        <ele>65</ele>
        <time>2021-09-13T08:58:48.916Z</time>
      </trkpt>
      <trkpt lat="43.50979" lon="6.59731">
        <ele>64</ele>
        <time>2021-09-13T08:58:53.915Z</time>
      </trkpt>
      <trkpt lat="43.50975" lon="6.59723">
        <ele>64</ele>
        <time>2021-09-13T08:58:58.909Z</time>
      </trkpt>
      <trkpt lat="43.50973" lon="6.59717">
        <ele>64</ele>
        <time>2021-09-13T08:59:03.904Z</time>
      </trkpt>
      <trkpt lat="43.50967" lon="6.59711">
        <ele>64</ele>
        <time>2021-09-13T08:59:08.907Z</time>
      </trkpt>
      <trkpt lat="43.50963" lon="6.59708">
        <ele>64</ele>
        <time>2021-09-13T08:59:13.895Z</time>
      </trkpt>
      <trkpt lat="43.5096" lon="6.59703">
        <ele>64</ele>
        <time>2021-09-13T08:59:18.925Z</time>
      </trkpt>
      <trkpt lat="43.50957" lon="6.59697">
        <ele>61</ele>
        <time>2021-09-13T08:59:23.917Z</time>
      </trkpt>
      <trkpt lat="43.50955" lon="6.59687">
        <ele>61</ele>
        <time>2021-09-13T08:59:28.902Z</time>
      </trkpt>
      <trkpt lat="43.50953" lon="6.59677">
        <ele>60</ele>
        <time>2021-09-13T08:59:32.920Z</time>
      </trkpt>
      <trkpt lat="43.50952" lon="6.59669">
        <ele>60</ele>
        <time>2021-09-13T08:59:37.917Z</time>
      </trkpt>
      <trkpt lat="43.50954" lon="6.59662">
        <ele>60</ele>
        <time>2021-09-13T08:59:42.894Z</time>
      </trkpt>
      <trkpt lat="43.50955" lon="6.59657">
        <ele>60</ele>
        <time>2021-09-13T08:59:46.916Z</time>
      </trkpt>
      <trkpt lat="43.50959" lon="6.5965">
        <ele>63</ele>
        <time>2021-09-13T08:59:51.910Z</time>
      </trkpt>
      <trkpt lat="43.50962" lon="6.59646">
        <ele>63</ele>
        <time>2021-09-13T08:59:56.908Z</time>
      </trkpt>
      <trkpt lat="43.50965" lon="6.5964">
        <ele>63</ele>
        <time>2021-09-13T09:00:01.912Z</time>
      </trkpt>
      <trkpt lat="43.50969" lon="6.59633">
        <ele>63</ele>
        <time>2021-09-13T09:00:06.919Z</time>
      </trkpt>
      <trkpt lat="43.50972" lon="6.59628">
        <ele>63</ele>
        <time>2021-09-13T09:00:11.903Z</time>
      </trkpt>
      <trkpt lat="43.50974" lon="6.59623">
        <ele>62</ele>
        <time>2021-09-13T09:00:16.916Z</time>
      </trkpt>
      <trkpt lat="43.50977" lon="6.59616">
        <ele>62</ele>
        <time>2021-09-13T09:00:21.906Z</time>
      </trkpt>
      <trkpt lat="43.50977" lon="6.5961">
        <ele>62</ele>
        <time>2021-09-13T09:00:25.916Z</time>
      </trkpt>
      <trkpt lat="43.50978" lon="6.59601">
        <ele>62</ele>
        <time>2021-09-13T09:00:30.911Z</time>
      </trkpt>
      <trkpt lat="43.50977" lon="6.59595">
        <ele>62</ele>
        <time>2021-09-13T09:00:35.893Z</time>
      </trkpt>
      <trkpt lat="43.50976" lon="6.59587">
        <ele>62</ele>
        <time>2021-09-13T09:00:40.913Z</time>
      </trkpt>
      <trkpt lat="43.50974" lon="6.59581">
        <ele>62</ele>
        <time>2021-09-13T09:00:44.931Z</time>
      </trkpt>
      <trkpt lat="43.50972" lon="6.59569">
        <ele>61</ele>
        <time>2021-09-13T09:00:49.925Z</time>
      </trkpt>
      <trkpt lat="43.50969" lon="6.59562">
        <ele>61</ele>
        <time>2021-09-13T09:00:53.926Z</time>
      </trkpt>
      <trkpt lat="43.50968" lon="6.59555">
        <ele>61</ele>
        <time>2021-09-13T09:00:58.937Z</time>
      </trkpt>
      <trkpt lat="43.50967" lon="6.59551">
        <ele>61</ele>
        <time>2021-09-13T09:01:03.925Z</time>
      </trkpt>
      <trkpt lat="43.50965" lon="6.59544">
        <ele>61</ele>
        <time>2021-09-13T09:01:08.906Z</time>
      </trkpt>
      <trkpt lat="43.50963" lon="6.59536">
        <ele>61</ele>
        <time>2021-09-13T09:01:12.920Z</time>
      </trkpt>
      <trkpt lat="43.50961" lon="6.59525">
        <ele>61</ele>
        <time>2021-09-13T09:01:17.920Z</time>
      </trkpt>
      <trkpt lat="43.5096" lon="6.59516">
        <ele>61</ele>
        <time>2021-09-13T09:01:22.914Z</time>
      </trkpt>
      <trkpt lat="43.50958" lon="6.59511">
        <ele>61</ele>
        <time>2021-09-13T09:01:26.915Z</time>
      </trkpt>
      <trkpt lat="43.5096" lon="6.59506">
        <ele>61</ele>
        <time>2021-09-13T09:01:30.930Z</time>
      </trkpt>
      <trkpt lat="43.50959" lon="6.59501">
        <ele>61</ele>
        <time>2021-09-13T09:01:35.913Z</time>
      </trkpt>
      <trkpt lat="43.50961" lon="6.59494">
        <ele>61</ele>
        <time>2021-09-13T09:01:40.923Z</time>
      </trkpt>
      <trkpt lat="43.50962" lon="6.59482">
        <ele>62</ele>
        <time>2021-09-13T09:01:45.905Z</time>
      </trkpt>
      <trkpt lat="43.50963" lon="6.59476">
        <ele>62</ele>
        <time>2021-09-13T09:01:50.914Z</time>
      </trkpt>
      <trkpt lat="43.50965" lon="6.59474">
        <ele>62</ele>
        <time>2021-09-13T09:01:54.923Z</time>
      </trkpt>
      <trkpt lat="43.50968" lon="6.5947">
        <ele>62</ele>
        <time>2021-09-13T09:01:59.909Z</time>
      </trkpt>
      <trkpt lat="43.50974" lon="6.59466">
        <ele>62</ele>
        <time>2021-09-13T09:02:04.912Z</time>
      </trkpt>
      <trkpt lat="43.50981" lon="6.59468">
        <ele>62</ele>
        <time>2021-09-13T09:02:09.928Z</time>
      </trkpt>
      <trkpt lat="43.50986" lon="6.59472">
        <ele>62</ele>
        <time>2021-09-13T09:02:13.936Z</time>
      </trkpt>
      <trkpt lat="43.50991" lon="6.59476">
        <ele>60</ele>
        <time>2021-09-13T09:02:18.893Z</time>
      </trkpt>
      <trkpt lat="43.50996" lon="6.59479">
        <ele>60</ele>
        <time>2021-09-13T09:02:22.911Z</time>
      </trkpt>
      <trkpt lat="43.50997" lon="6.59482">
        <ele>60</ele>
        <time>2021-09-13T09:02:26.920Z</time>
      </trkpt>
      <trkpt lat="43.51" lon="6.59485">
        <ele>60</ele>
        <time>2021-09-13T09:02:31.909Z</time>
      </trkpt>
      <trkpt lat="43.51002" lon="6.5949">
        <ele>61</ele>
        <time>2021-09-13T09:02:36.906Z</time>
      </trkpt>
      <trkpt lat="43.51007" lon="6.59494">
        <ele>61</ele>
        <time>2021-09-13T09:02:41.910Z</time>
      </trkpt>
      <trkpt lat="43.5101" lon="6.59499">
        <ele>61</ele>
        <time>2021-09-13T09:02:46.903Z</time>
      </trkpt>
      <trkpt lat="43.51015" lon="6.59504">
        <ele>60</ele>
        <time>2021-09-13T09:02:50.924Z</time>
      </trkpt>
      <trkpt lat="43.5102" lon="6.59507">
        <ele>60</ele>
        <time>2021-09-13T09:02:55.909Z</time>
      </trkpt>
      <trkpt lat="43.51023" lon="6.59509">
        <ele>60</ele>
        <time>2021-09-13T09:03:00.909Z</time>
      </trkpt>
      <trkpt lat="43.51027" lon="6.59511">
        <ele>60</ele>
        <time>2021-09-13T09:03:04.923Z</time>
      </trkpt>
      <trkpt lat="43.5103" lon="6.59512">
        <ele>60</ele>
        <time>2021-09-13T09:03:08.938Z</time>
      </trkpt>
      <trkpt lat="43.51037" lon="6.59515">
        <ele>63</ele>
        <time>2021-09-13T09:03:13.931Z</time>
      </trkpt>
      <trkpt lat="43.51043" lon="6.59516">
        <ele>62</ele>
        <time>2021-09-13T09:03:18.905Z</time>
      </trkpt>
      <trkpt lat="43.5105" lon="6.59517">
        <ele>62</ele>
        <time>2021-09-13T09:03:22.909Z</time>
      </trkpt>
      <trkpt lat="43.51057" lon="6.5952">
        <ele>62</ele>
        <time>2021-09-13T09:03:27.912Z</time>
      </trkpt>
      <trkpt lat="43.51062" lon="6.59522">
        <ele>62</ele>
        <time>2021-09-13T09:03:32.910Z</time>
      </trkpt>
      <trkpt lat="43.51066" lon="6.59526">
        <ele>62</ele>
        <time>2021-09-13T09:03:37.908Z</time>
      </trkpt>
      <trkpt lat="43.5107" lon="6.5953">
        <ele>60</ele>
        <time>2021-09-13T09:03:42.899Z</time>
      </trkpt>
      <trkpt lat="43.51071" lon="6.59533">
        <ele>60</ele>
        <time>2021-09-13T09:03:46.917Z</time>
      </trkpt>
      <trkpt lat="43.51073" lon="6.59537">
        <ele>60</ele>
        <time>2021-09-13T09:03:50.943Z</time>
      </trkpt>
      <trkpt lat="43.51075" lon="6.59544">
        <ele>61</ele>
        <time>2021-09-13T09:03:55.924Z</time>
      </trkpt>
      <trkpt lat="43.51079" lon="6.59551">
        <ele>61</ele>
        <time>2021-09-13T09:04:00.919Z</time>
      </trkpt>
      <trkpt lat="43.51083" lon="6.59556">
        <ele>61</ele>
        <time>2021-09-13T09:04:05.904Z</time>
      </trkpt>
      <trkpt lat="43.51087" lon="6.5956">
        <ele>61</ele>
        <time>2021-09-13T09:04:09.930Z</time>
      </trkpt>
      <trkpt lat="43.51091" lon="6.59565">
        <ele>61</ele>
        <time>2021-09-13T09:04:14.934Z</time>
      </trkpt>
      <trkpt lat="43.51096" lon="6.59568">
        <ele>61</ele>
        <time>2021-09-13T09:04:18.931Z</time>
      </trkpt>
      <trkpt lat="43.51102" lon="6.59572">
        <ele>63</ele>
        <time>2021-09-13T09:04:23.892Z</time>
      </trkpt>
      <trkpt lat="43.51105" lon="6.59571">
        <ele>63</ele>
        <time>2021-09-13T09:04:27.904Z</time>
      </trkpt>
      <trkpt lat="43.51108" lon="6.59568">
        <ele>62</ele>
        <time>2021-09-13T09:04:31.920Z</time>
      </trkpt>
      <trkpt lat="43.51111" lon="6.59563">
        <ele>62</ele>
        <time>2021-09-13T09:04:36.901Z</time>
      </trkpt>
      <trkpt lat="43.51112" lon="6.59555">
        <ele>62</ele>
        <time>2021-09-13T09:04:40.906Z</time>
      </trkpt>
      <trkpt lat="43.51113" lon="6.5955">
        <ele>62</ele>
        <time>2021-09-13T09:04:44.920Z</time>
      </trkpt>
      <trkpt lat="43.51113" lon="6.59543">
        <ele>62</ele>
        <time>2021-09-13T09:04:48.924Z</time>
      </trkpt>
      <trkpt lat="43.51113" lon="6.59536">
        <ele>59</ele>
        <time>2021-09-13T09:04:53.900Z</time>
      </trkpt>
      <trkpt lat="43.51111" lon="6.59528">
        <ele>59</ele>
        <time>2021-09-13T09:04:58.933Z</time>
      </trkpt>
      <trkpt lat="43.51112" lon="6.59517">
        <ele>59</ele>
        <time>2021-09-13T09:05:03.893Z</time>
      </trkpt>
      <trkpt lat="43.51114" lon="6.59514">
        <ele>59</ele>
        <time>2021-09-13T09:05:07.901Z</time>
      </trkpt>
      <trkpt lat="43.51117" lon="6.59511">
        <ele>56</ele>
        <time>2021-09-13T09:05:12.894Z</time>
      </trkpt>
      <trkpt lat="43.51122" lon="6.5951">
        <ele>56</ele>
        <time>2021-09-13T09:05:17.896Z</time>
      </trkpt>
      <trkpt lat="43.51125" lon="6.59509">
        <ele>56</ele>
        <time>2021-09-13T09:05:21.919Z</time>
      </trkpt>
      <trkpt lat="43.51131" lon="6.59507">
        <ele>57</ele>
        <time>2021-09-13T09:05:26.891Z</time>
      </trkpt>
      <trkpt lat="43.51136" lon="6.59507">
        <ele>57</ele>
        <time>2021-09-13T09:05:30.896Z</time>
      </trkpt>
      <trkpt lat="43.51142" lon="6.59507">
        <ele>57</ele>
        <time>2021-09-13T09:05:34.911Z</time>
      </trkpt>
      <trkpt lat="43.51146" lon="6.59505">
        <ele>57</ele>
        <time>2021-09-13T09:05:39.907Z</time>
      </trkpt>
      <trkpt lat="43.51151" lon="6.59504">
        <ele>57</ele>
        <time>2021-09-13T09:05:44.909Z</time>
      </trkpt>
      <trkpt lat="43.51155" lon="6.59504">
        <ele>60</ele>
        <time>2021-09-13T09:05:48.919Z</time>
      </trkpt>
      <trkpt lat="43.51162" lon="6.59502">
        <ele>60</ele>
        <time>2021-09-13T09:05:53.903Z</time>
      </trkpt>
      <trkpt lat="43.51171" lon="6.59499">
        <ele>60</ele>
        <time>2021-09-13T09:05:58.897Z</time>
      </trkpt>
      <trkpt lat="43.51175" lon="6.59496">
        <ele>60</ele>
        <time>2021-09-13T09:06:02.918Z</time>
      </trkpt>
      <trkpt lat="43.51179" lon="6.59491">
        <ele>60</ele>
        <time>2021-09-13T09:06:07.899Z</time>
      </trkpt>
      <trkpt lat="43.5118" lon="6.59486">
        <ele>57</ele>
        <time>2021-09-13T09:06:11.904Z</time>
      </trkpt>
      <trkpt lat="43.51181" lon="6.59482">
        <ele>57</ele>
        <time>2021-09-13T09:06:16.907Z</time>
      </trkpt>
      <trkpt lat="43.5118" lon="6.59473">
        <ele>57</ele>
        <time>2021-09-13T09:06:20.904Z</time>
      </trkpt>
      <trkpt lat="43.51179" lon="6.59466">
        <ele>57</ele>
        <time>2021-09-13T09:06:25.924Z</time>
      </trkpt>
      <trkpt lat="43.51178" lon="6.59459">
        <ele>57</ele>
        <time>2021-09-13T09:06:30.912Z</time>
      </trkpt>
      <trkpt lat="43.51174" lon="6.59446">
        <ele>57</ele>
        <time>2021-09-13T09:06:35.918Z</time>
      </trkpt>
      <trkpt lat="43.51171" lon="6.59443">
        <ele>57</ele>
        <time>2021-09-13T09:06:39.936Z</time>
      </trkpt>
      <trkpt lat="43.51168" lon="6.59441">
        <ele>57</ele>
        <time>2021-09-13T09:06:44.924Z</time>
      </trkpt>
      <trkpt lat="43.51163" lon="6.59434">
        <ele>57</ele>
        <time>2021-09-13T09:06:49.923Z</time>
      </trkpt>
      <trkpt lat="43.51158" lon="6.59429">
        <ele>57</ele>
        <time>2021-09-13T09:06:54.918Z</time>
      </trkpt>
      <trkpt lat="43.51152" lon="6.59423">
        <ele>56</ele>
        <time>2021-09-13T09:06:59.906Z</time>
      </trkpt>
      <trkpt lat="43.51146" lon="6.59417">
        <ele>56</ele>
        <time>2021-09-13T09:07:03.915Z</time>
      </trkpt>
      <trkpt lat="43.5114" lon="6.59412">
        <ele>56</ele>
        <time>2021-09-13T09:07:08.909Z</time>
      </trkpt>
      <trkpt lat="43.51135" lon="6.59408">
        <ele>56</ele>
        <time>2021-09-13T09:07:12.954Z</time>
      </trkpt>
      <trkpt lat="43.51132" lon="6.59404">
        <ele>56</ele>
        <time>2021-09-13T09:07:17.901Z</time>
      </trkpt>
      <trkpt lat="43.51129" lon="6.594">
        <ele>57</ele>
        <time>2021-09-13T09:07:21.911Z</time>
      </trkpt>
      <trkpt lat="43.51126" lon="6.59394">
        <ele>57</ele>
        <time>2021-09-13T09:07:26.906Z</time>
      </trkpt>
      <trkpt lat="43.51124" lon="6.59388">
        <ele>56</ele>
        <time>2021-09-13T09:07:30.919Z</time>
      </trkpt>
      <trkpt lat="43.51125" lon="6.5938">
        <ele>56</ele>
        <time>2021-09-13T09:07:35.905Z</time>
      </trkpt>
      <trkpt lat="43.51127" lon="6.59373">
        <ele>59</ele>
        <time>2021-09-13T09:07:40.929Z</time>
      </trkpt>
      <trkpt lat="43.51131" lon="6.59366">
        <ele>59</ele>
        <time>2021-09-13T09:07:45.919Z</time>
      </trkpt>
      <trkpt lat="43.51136" lon="6.59364">
        <ele>59</ele>
        <time>2021-09-13T09:07:50.917Z</time>
      </trkpt>
      <trkpt lat="43.5114" lon="6.5936">
        <ele>59</ele>
        <time>2021-09-13T09:07:55.924Z</time>
      </trkpt>
      <trkpt lat="43.51146" lon="6.59354">
        <ele>59</ele>
        <time>2021-09-13T09:08:00.912Z</time>
      </trkpt>
      <trkpt lat="43.51152" lon="6.59349">
        <ele>59</ele>
        <time>2021-09-13T09:08:05.903Z</time>
      </trkpt>
      <trkpt lat="43.51155" lon="6.59344">
        <ele>62</ele>
        <time>2021-09-13T09:08:10.931Z</time>
      </trkpt>
      <trkpt lat="43.51158" lon="6.59336">
        <ele>62</ele>
        <time>2021-09-13T09:08:15.920Z</time>
      </trkpt>
      <trkpt lat="43.51158" lon="6.5933">
        <ele>62</ele>
        <time>2021-09-13T09:08:19.924Z</time>
      </trkpt>
      <trkpt lat="43.51157" lon="6.59322">
        <ele>62</ele>
        <time>2021-09-13T09:08:24.913Z</time>
      </trkpt>
      <trkpt lat="43.51154" lon="6.59314">
        <ele>63</ele>
        <time>2021-09-13T09:08:29.899Z</time>
      </trkpt>
      <trkpt lat="43.51152" lon="6.59307">
        <ele>62</ele>
        <time>2021-09-13T09:08:34.931Z</time>
      </trkpt>
      <trkpt lat="43.51149" lon="6.59301">
        <ele>62</ele>
        <time>2021-09-13T09:08:38.923Z</time>
      </trkpt>
      <trkpt lat="43.51145" lon="6.59295">
        <ele>62</ele>
        <time>2021-09-13T09:08:43.925Z</time>
      </trkpt>
      <trkpt lat="43.51141" lon="6.59289">
        <ele>62</ele>
        <time>2021-09-13T09:08:48.912Z</time>
      </trkpt>
      <trkpt lat="43.51139" lon="6.59284">
        <ele>62</ele>
        <time>2021-09-13T09:08:53.916Z</time>
      </trkpt>
      <trkpt lat="43.51136" lon="6.59277">
        <ele>62</ele>
        <time>2021-09-13T09:08:58.898Z</time>
      </trkpt>
      <trkpt lat="43.51135" lon="6.59272">
        <ele>62</ele>
        <time>2021-09-13T09:09:02.924Z</time>
      </trkpt>
      <trkpt lat="43.51134" lon="6.59268">
        <ele>62</ele>
        <time>2021-09-13T09:09:07.906Z</time>
      </trkpt>
      <trkpt lat="43.51134" lon="6.59264">
        <ele>62</ele>
        <time>2021-09-13T09:09:11.913Z</time>
      </trkpt>
      <trkpt lat="43.51136" lon="6.59254">
        <ele>62</ele>
        <time>2021-09-13T09:09:16.901Z</time>
      </trkpt>
      <trkpt lat="43.51139" lon="6.59249">
        <ele>62</ele>
        <time>2021-09-13T09:09:21.919Z</time>
      </trkpt>
      <trkpt lat="43.51143" lon="6.59243">
        <ele>62</ele>
        <time>2021-09-13T09:09:26.923Z</time>
      </trkpt>
      <trkpt lat="43.51147" lon="6.59239">
        <ele>62</ele>
        <time>2021-09-13T09:09:31.936Z</time>
      </trkpt>
      <trkpt lat="43.51153" lon="6.59229">
        <ele>64</ele>
        <time>2021-09-13T09:09:36.912Z</time>
      </trkpt>
      <trkpt lat="43.51158" lon="6.59222">
        <ele>64</ele>
        <time>2021-09-13T09:09:41.914Z</time>
      </trkpt>
      <trkpt lat="43.51162" lon="6.59216">
        <ele>64</ele>
        <time>2021-09-13T09:09:46.904Z</time>
      </trkpt>
      <trkpt lat="43.51166" lon="6.59209">
        <ele>64</ele>
        <time>2021-09-13T09:09:51.902Z</time>
      </trkpt>
      <trkpt lat="43.51168" lon="6.59204">
        <ele>64</ele>
        <time>2021-09-13T09:09:55.915Z</time>
      </trkpt>
      <trkpt lat="43.51172" lon="6.59198">
        <ele>64</ele>
        <time>2021-09-13T09:10:00.910Z</time>
      </trkpt>
      <trkpt lat="43.51174" lon="6.59193">
        <ele>64</ele>
        <time>2021-09-13T09:10:04.921Z</time>
      </trkpt>
      <trkpt lat="43.51177" lon="6.59191">
        <ele>64</ele>
        <time>2021-09-13T09:10:09.901Z</time>
      </trkpt>
      <trkpt lat="43.51178" lon="6.59187">
        <ele>64</ele>
        <time>2021-09-13T09:10:13.926Z</time>
      </trkpt>
      <trkpt lat="43.51179" lon="6.59181">
        <ele>64</ele>
        <time>2021-09-13T09:10:18.922Z</time>
      </trkpt>
      <trkpt lat="43.51182" lon="6.59174">
        <ele>65</ele>
        <time>2021-09-13T09:10:23.917Z</time>
      </trkpt>
      <trkpt lat="43.51184" lon="6.59168">
        <ele>65</ele>
        <time>2021-09-13T09:10:27.917Z</time>
      </trkpt>
      <trkpt lat="43.51186" lon="6.59162">
        <ele>65</ele>
        <time>2021-09-13T09:10:31.930Z</time>
      </trkpt>
      <trkpt lat="43.51188" lon="6.59154">
        <ele>65</ele>
        <time>2021-09-13T09:10:36.898Z</time>
      </trkpt>
      <trkpt lat="43.51189" lon="6.59149">
        <ele>65</ele>
        <time>2021-09-13T09:10:40.921Z</time>
      </trkpt>
      <trkpt lat="43.51191" lon="6.59139">
        <ele>65</ele>
        <time>2021-09-13T09:10:45.891Z</time>
      </trkpt>
      <trkpt lat="43.51193" lon="6.5913">
        <ele>65</ele>
        <time>2021-09-13T09:10:49.918Z</time>
      </trkpt>
      <trkpt lat="43.51193" lon="6.59123">
        <ele>64</ele>
        <time>2021-09-13T09:10:54.888Z</time>
      </trkpt>
      <trkpt lat="43.51193" lon="6.59116">
        <ele>64</ele>
        <time>2021-09-13T09:10:59.885Z</time>
      </trkpt>
      <trkpt lat="43.51192" lon="6.5911">
        <ele>64</ele>
        <time>2021-09-13T09:11:03.941Z</time>
      </trkpt>
      <trkpt lat="43.5119" lon="6.59104">
        <ele>64</ele>
        <time>2021-09-13T09:11:07.918Z</time>
      </trkpt>
      <trkpt lat="43.51188" lon="6.59096">
        <ele>63</ele>
        <time>2021-09-13T09:11:12.911Z</time>
      </trkpt>
      <trkpt lat="43.51186" lon="6.59088">
        <ele>63</ele>
        <time>2021-09-13T09:11:17.910Z</time>
      </trkpt>
      <trkpt lat="43.51183" lon="6.59085">
        <ele>63</ele>
        <time>2021-09-13T09:11:21.915Z</time>
      </trkpt>
      <trkpt lat="43.51182" lon="6.59082">
        <ele>63</ele>
        <time>2021-09-13T09:11:26.906Z</time>
      </trkpt>
      <trkpt lat="43.51183" lon="6.59076">
        <ele>63</ele>
        <time>2021-09-13T09:11:30.914Z</time>
      </trkpt>
      <trkpt lat="43.51185" lon="6.59071">
        <ele>63</ele>
        <time>2021-09-13T09:11:35.894Z</time>
      </trkpt>
      <trkpt lat="43.51188" lon="6.5906">
        <ele>63</ele>
        <time>2021-09-13T09:11:39.910Z</time>
      </trkpt>
      <trkpt lat="43.51191" lon="6.59054">
        <ele>63</ele>
        <time>2021-09-13T09:11:43.928Z</time>
      </trkpt>
      <trkpt lat="43.51195" lon="6.59047">
        <ele>63</ele>
        <time>2021-09-13T09:11:48.899Z</time>
      </trkpt>
      <trkpt lat="43.512" lon="6.59038">
        <ele>61</ele>
        <time>2021-09-13T09:11:52.919Z</time>
      </trkpt>
      <trkpt lat="43.51204" lon="6.59035">
        <ele>61</ele>
        <time>2021-09-13T09:11:57.906Z</time>
      </trkpt>
      <trkpt lat="43.51209" lon="6.59033">
        <ele>61</ele>
        <time>2021-09-13T09:12:02.911Z</time>
      </trkpt>
      <trkpt lat="43.51213" lon="6.59031">
        <ele>61</ele>
        <time>2021-09-13T09:12:07.897Z</time>
      </trkpt>
      <trkpt lat="43.51219" lon="6.59032">
        <ele>61</ele>
        <time>2021-09-13T09:12:12.918Z</time>
      </trkpt>
      <trkpt lat="43.51224" lon="6.59036">
        <ele>61</ele>
        <time>2021-09-13T09:12:17.946Z</time>
      </trkpt>
      <trkpt lat="43.51227" lon="6.59041">
        <ele>61</ele>
        <time>2021-09-13T09:12:22.920Z</time>
      </trkpt>
      <trkpt lat="43.51229" lon="6.59049">
        <ele>62</ele>
        <time>2021-09-13T09:12:27.917Z</time>
      </trkpt>
      <trkpt lat="43.51231" lon="6.59056">
        <ele>62</ele>
        <time>2021-09-13T09:12:32.902Z</time>
      </trkpt>
      <trkpt lat="43.51232" lon="6.59058">
        <ele>62</ele>
        <time>2021-09-13T09:12:36.909Z</time>
      </trkpt>
      <trkpt lat="43.51233" lon="6.59062">
        <ele>62</ele>
        <time>2021-09-13T09:12:40.924Z</time>
      </trkpt>
      <trkpt lat="43.51236" lon="6.59067">
        <ele>62</ele>
        <time>2021-09-13T09:12:45.889Z</time>
      </trkpt>
      <trkpt lat="43.51238" lon="6.59069">
        <ele>63</ele>
        <time>2021-09-13T09:12:49.919Z</time>
      </trkpt>
      <trkpt lat="43.51244" lon="6.5907">
        <ele>63</ele>
        <time>2021-09-13T09:12:54.908Z</time>
      </trkpt>
      <trkpt lat="43.51249" lon="6.5907">
        <ele>63</ele>
        <time>2021-09-13T09:12:58.923Z</time>
      </trkpt>
      <trkpt lat="43.51255" lon="6.59069">
        <ele>62</ele>
        <time>2021-09-13T09:13:03.893Z</time>
      </trkpt>
      <trkpt lat="43.51261" lon="6.59066">
        <ele>62</ele>
        <time>2021-09-13T09:13:07.904Z</time>
      </trkpt>
      <trkpt lat="43.51262" lon="6.59063">
        <ele>62</ele>
        <time>2021-09-13T09:13:11.921Z</time>
      </trkpt>
      <trkpt lat="43.51265" lon="6.59056">
        <ele>64</ele>
        <time>2021-09-13T09:13:16.889Z</time>
      </trkpt>
      <trkpt lat="43.51268" lon="6.59052">
        <ele>64</ele>
        <time>2021-09-13T09:13:20.902Z</time>
      </trkpt>
      <trkpt lat="43.51272" lon="6.59045">
        <ele>64</ele>
        <time>2021-09-13T09:13:25.925Z</time>
      </trkpt>
      <trkpt lat="43.51276" lon="6.59035">
        <ele>62</ele>
        <time>2021-09-13T09:13:30.941Z</time>
      </trkpt>
      <trkpt lat="43.5128" lon="6.59026">
        <ele>62</ele>
        <time>2021-09-13T09:13:35.919Z</time>
      </trkpt>
      <trkpt lat="43.51281" lon="6.59022">
        <ele>62</ele>
        <time>2021-09-13T09:13:40.909Z</time>
      </trkpt>
      <trkpt lat="43.51284" lon="6.59015">
        <ele>62</ele>
        <time>2021-09-13T09:13:45.897Z</time>
      </trkpt>
      <trkpt lat="43.51286" lon="6.59008">
        <ele>61</ele>
        <time>2021-09-13T09:13:49.919Z</time>
      </trkpt>
      <trkpt lat="43.51289" lon="6.58997">
        <ele>61</ele>
        <time>2021-09-13T09:13:54.910Z</time>
      </trkpt>
      <trkpt lat="43.5129" lon="6.5899">
        <ele>61</ele>
        <time>2021-09-13T09:13:59.901Z</time>
      </trkpt>
      <trkpt lat="43.5129" lon="6.58986">
        <ele>61</ele>
        <time>2021-09-13T09:14:04.913Z</time>
      </trkpt>
      <trkpt lat="43.5129" lon="6.58982">
        <ele>60</ele>
        <time>2021-09-13T09:14:09.924Z</time>
      </trkpt>
      <trkpt lat="43.5129" lon="6.58974">
        <ele>60</ele>
        <time>2021-09-13T09:14:14.912Z</time>
      </trkpt>
      <trkpt lat="43.51289" lon="6.58968">
        <ele>60</ele>
        <time>2021-09-13T09:14:19.911Z</time>
      </trkpt>
      <trkpt lat="43.51286" lon="6.58959">
        <ele>60</ele>
        <time>2021-09-13T09:14:24.900Z</time>
      </trkpt>
      <trkpt lat="43.51283" lon="6.58952">
        <ele>59</ele>
        <time>2021-09-13T09:14:28.909Z</time>
      </trkpt>
      <trkpt lat="43.51281" lon="6.58946">
        <ele>59</ele>
        <time>2021-09-13T09:14:32.915Z</time>
      </trkpt>
      <trkpt lat="43.51277" lon="6.58935">
        <ele>59</ele>
        <time>2021-09-13T09:14:37.887Z</time>
      </trkpt>
      <trkpt lat="43.51274" lon="6.58929">
        <ele>57</ele>
        <time>2021-09-13T09:14:41.925Z</time>
      </trkpt>
      <trkpt lat="43.51274" lon="6.58922">
        <ele>57</ele>
        <time>2021-09-13T09:14:46.942Z</time>
      </trkpt>
      <trkpt lat="43.51273" lon="6.58914">
        <ele>57</ele>
        <time>2021-09-13T09:14:51.891Z</time>
      </trkpt>
      <trkpt lat="43.51274" lon="6.58905">
        <ele>57</ele>
        <time>2021-09-13T09:14:56.921Z</time>
      </trkpt>
      <trkpt lat="43.51273" lon="6.58898">
        <ele>56</ele>
        <time>2021-09-13T09:15:01.901Z</time>
      </trkpt>
      <trkpt lat="43.51272" lon="6.5889">
        <ele>56</ele>
        <time>2021-09-13T09:15:05.911Z</time>
      </trkpt>
      <trkpt lat="43.51271" lon="6.58883">
        <ele>56</ele>
        <time>2021-09-13T09:15:10.904Z</time>
      </trkpt>
      <trkpt lat="43.5127" lon="6.58877">
        <ele>56</ele>
        <time>2021-09-13T09:15:15.893Z</time>
      </trkpt>
      <trkpt lat="43.51269" lon="6.58871">
        <ele>54</ele>
        <time>2021-09-13T09:15:19.890Z</time>
      </trkpt>
      <trkpt lat="43.51267" lon="6.58865">
        <ele>54</ele>
        <time>2021-09-13T09:15:23.911Z</time>
      </trkpt>
      <trkpt lat="43.51263" lon="6.58856">
        <ele>54</ele>
        <time>2021-09-13T09:15:28.893Z</time>
      </trkpt>
      <trkpt lat="43.51261" lon="6.58851">
        <ele>54</ele>
        <time>2021-09-13T09:15:32.927Z</time>
      </trkpt>
      <trkpt lat="43.51257" lon="6.58845">
        <ele>53</ele>
        <time>2021-09-13T09:15:37.905Z</time>
      </trkpt>
      <trkpt lat="43.51254" lon="6.58842">
        <ele>53</ele>
        <time>2021-09-13T09:15:41.940Z</time>
      </trkpt>
      <trkpt lat="43.5125" lon="6.58837">
        <ele>53</ele>
        <time>2021-09-13T09:15:46.918Z</time>
      </trkpt>
      <trkpt lat="43.51245" lon="6.58833">
        <ele>53</ele>
        <time>2021-09-13T09:15:51.925Z</time>
      </trkpt>
      <trkpt lat="43.51241" lon="6.5883">
        <ele>53</ele>
        <time>2021-09-13T09:15:56.940Z</time>
      </trkpt>
      <trkpt lat="43.51237" lon="6.58827">
        <ele>53</ele>
        <time>2021-09-13T09:16:01.923Z</time>
      </trkpt>
      <trkpt lat="43.51232" lon="6.58822">
        <ele>51</ele>
        <time>2021-09-13T09:16:06.892Z</time>
      </trkpt>
      <trkpt lat="43.51227" lon="6.58816">
        <ele>50</ele>
        <time>2021-09-13T09:16:10.899Z</time>
      </trkpt>
      <trkpt lat="43.51223" lon="6.5881">
        <ele>50</ele>
        <time>2021-09-13T09:16:15.899Z</time>
      </trkpt>
      <trkpt lat="43.51219" lon="6.58806">
        <ele>50</ele>
        <time>2021-09-13T09:16:19.911Z</time>
      </trkpt>
      <trkpt lat="43.51216" lon="6.58802">
        <ele>50</ele>
        <time>2021-09-13T09:16:23.924Z</time>
      </trkpt>
      <trkpt lat="43.51215" lon="6.588">
        <ele>50</ele>
        <time>2021-09-13T09:16:27.918Z</time>
      </trkpt>
      <trkpt lat="43.51215" lon="6.58794">
        <ele>50</ele>
        <time>2021-09-13T09:16:32.914Z</time>
      </trkpt>
      <trkpt lat="43.51217" lon="6.5879">
        <ele>46</ele>
        <time>2021-09-13T09:16:37.916Z</time>
      </trkpt>
      <trkpt lat="43.51221" lon="6.58786">
        <ele>46</ele>
        <time>2021-09-13T09:16:42.905Z</time>
      </trkpt>
      <trkpt lat="43.51228" lon="6.58783">
        <ele>46</ele>
        <time>2021-09-13T09:16:47.893Z</time>
      </trkpt>
      <trkpt lat="43.51236" lon="6.58785">
        <ele>46</ele>
        <time>2021-09-13T09:16:52.892Z</time>
      </trkpt>
      <trkpt lat="43.5124" lon="6.58787">
        <ele>47</ele>
        <time>2021-09-13T09:16:56.919Z</time>
      </trkpt>
      <trkpt lat="43.51243" lon="6.5879">
        <ele>47</ele>
        <time>2021-09-13T09:17:01.914Z</time>
      </trkpt>
      <trkpt lat="43.51246" lon="6.5879">
        <ele>47</ele>
        <time>2021-09-13T09:17:06.891Z</time>
      </trkpt>
      <trkpt lat="43.5125" lon="6.58791">
        <ele>47</ele>
        <time>2021-09-13T09:17:10.913Z</time>
      </trkpt>
      <trkpt lat="43.51256" lon="6.58793">
        <ele>51</ele>
        <time>2021-09-13T09:17:15.934Z</time>
      </trkpt>
      <trkpt lat="43.5126" lon="6.58795">
        <ele>51</ele>
        <time>2021-09-13T09:17:20.899Z</time>
      </trkpt>
      <trkpt lat="43.51266" lon="6.58795">
        <ele>51</ele>
        <time>2021-09-13T09:17:24.932Z</time>
      </trkpt>
      <trkpt lat="43.5127" lon="6.58795">
        <ele>51</ele>
        <time>2021-09-13T09:17:29.911Z</time>
      </trkpt>
      <trkpt lat="43.51275" lon="6.58795">
        <ele>51</ele>
        <time>2021-09-13T09:17:34.902Z</time>
      </trkpt>
      <trkpt lat="43.51282" lon="6.58792">
        <ele>51</ele>
        <time>2021-09-13T09:17:38.920Z</time>
      </trkpt>
      <trkpt lat="43.5129" lon="6.58789">
        <ele>48</ele>
        <time>2021-09-13T09:17:43.902Z</time>
      </trkpt>
      <trkpt lat="43.51297" lon="6.58785">
        <ele>49</ele>
        <time>2021-09-13T09:17:48.908Z</time>
      </trkpt>
      <trkpt lat="43.51303" lon="6.58781">
        <ele>49</ele>
        <time>2021-09-13T09:17:53.908Z</time>
      </trkpt>
      <trkpt lat="43.51307" lon="6.58778">
        <ele>49</ele>
        <time>2021-09-13T09:17:57.922Z</time>
      </trkpt>
      <trkpt lat="43.51313" lon="6.58774">
        <ele>49</ele>
        <time>2021-09-13T09:18:02.900Z</time>
      </trkpt>
      <trkpt lat="43.51317" lon="6.58771">
        <ele>49</ele>
        <time>2021-09-13T09:18:07.902Z</time>
      </trkpt>
      <trkpt lat="43.51319" lon="6.58768">
        <ele>49</ele>
        <time>2021-09-13T09:18:11.919Z</time>
      </trkpt>
      <trkpt lat="43.51322" lon="6.58766">
        <ele>49</ele>
        <time>2021-09-13T09:18:16.926Z</time>
      </trkpt>
      <trkpt lat="43.51326" lon="6.58762">
        <ele>48</ele>
        <time>2021-09-13T09:18:21.919Z</time>
      </trkpt>
      <trkpt lat="43.5133" lon="6.58758">
        <ele>48</ele>
        <time>2021-09-13T09:18:26.928Z</time>
      </trkpt>
      <trkpt lat="43.51338" lon="6.58751">
        <ele>48</ele>
        <time>2021-09-13T09:18:31.916Z</time>
      </trkpt>
      <trkpt lat="43.51345" lon="6.58746">
        <ele>48</ele>
        <time>2021-09-13T09:18:36.906Z</time>
      </trkpt>
      <trkpt lat="43.51348" lon="6.58741">
        <ele>47</ele>
        <time>2021-09-13T09:18:40.915Z</time>
      </trkpt>
      <trkpt lat="43.51347" lon="6.58725">
        <ele>46</ele>
        <time>2021-09-13T09:19:10.921Z</time>
      </trkpt>
      <trkpt lat="43.51347" lon="6.58725">
        <ele>46</ele>
        <time>2021-09-13T09:19:15.933Z</time>
      </trkpt>
      <trkpt lat="43.51347" lon="6.58724">
        <ele>46</ele>
        <time>2021-09-13T09:19:20.904Z</time>
      </trkpt>
      <trkpt lat="43.51347" lon="6.58724">
        <ele>46</ele>
        <time>2021-09-13T09:19:24.910Z</time>
      </trkpt>
      <trkpt lat="43.51347" lon="6.58722">
        <ele>44</ele>
        <time>2021-09-13T09:19:29.887Z</time>
      </trkpt>
      <trkpt lat="43.51345" lon="6.58723">
        <ele>46</ele>
        <time>2021-09-13T09:22:40.912Z</time>
      </trkpt>
      <trkpt lat="43.51342" lon="6.58716">
        <ele>46</ele>
        <time>2021-09-13T09:22:45.902Z</time>
      </trkpt>
      <trkpt lat="43.5134" lon="6.58711">
        <ele>46</ele>
        <time>2021-09-13T09:22:50.892Z</time>
      </trkpt>
      <trkpt lat="43.51336" lon="6.58707">
        <ele>44</ele>
        <time>2021-09-13T09:22:55.891Z</time>
      </trkpt>
      <trkpt lat="43.5133" lon="6.58701">
        <ele>44</ele>
        <time>2021-09-13T09:23:00.909Z</time>
      </trkpt>
      <trkpt lat="43.51327" lon="6.58699">
        <ele>44</ele>
        <time>2021-09-13T09:23:05.884Z</time>
      </trkpt>
      <trkpt lat="43.51323" lon="6.58696">
        <ele>44</ele>
        <time>2021-09-13T09:23:10.895Z</time>
      </trkpt>
      <trkpt lat="43.5132" lon="6.58694">
        <ele>44</ele>
        <time>2021-09-13T09:23:14.916Z</time>
      </trkpt>
      <trkpt lat="43.51315" lon="6.5869">
        <ele>43</ele>
        <time>2021-09-13T09:23:19.893Z</time>
      </trkpt>
      <trkpt lat="43.51306" lon="6.58686">
        <ele>43</ele>
        <time>2021-09-13T09:23:23.904Z</time>
      </trkpt>
      <trkpt lat="43.51299" lon="6.58684">
        <ele>43</ele>
        <time>2021-09-13T09:23:28.936Z</time>
      </trkpt>
      <trkpt lat="43.51291" lon="6.58683">
        <ele>42</ele>
        <time>2021-09-13T09:23:33.921Z</time>
      </trkpt>
      <trkpt lat="43.51283" lon="6.58682">
        <ele>42</ele>
        <time>2021-09-13T09:23:38.900Z</time>
      </trkpt>
      <trkpt lat="43.51278" lon="6.58682">
        <ele>42</ele>
        <time>2021-09-13T09:23:42.909Z</time>
      </trkpt>
      <trkpt lat="43.51274" lon="6.58681">
        <ele>42</ele>
        <time>2021-09-13T09:23:46.917Z</time>
      </trkpt>
      <trkpt lat="43.51268" lon="6.5868">
        <ele>40</ele>
        <time>2021-09-13T09:23:51.888Z</time>
      </trkpt>
      <trkpt lat="43.51262" lon="6.58679">
        <ele>37</ele>
        <time>2021-09-13T09:23:55.929Z</time>
      </trkpt>
      <trkpt lat="43.51255" lon="6.58681">
        <ele>38</ele>
        <time>2021-09-13T09:24:00.899Z</time>
      </trkpt>
      <trkpt lat="43.51251" lon="6.58683">
        <ele>38</ele>
        <time>2021-09-13T09:24:04.907Z</time>
      </trkpt>
      <trkpt lat="43.51245" lon="6.58684">
        <ele>38</ele>
        <time>2021-09-13T09:24:09.909Z</time>
      </trkpt>
      <trkpt lat="43.5124" lon="6.58686">
        <ele>38</ele>
        <time>2021-09-13T09:24:14.942Z</time>
      </trkpt>
      <trkpt lat="43.51233" lon="6.58687">
        <ele>36</ele>
        <time>2021-09-13T09:24:19.910Z</time>
      </trkpt>
      <trkpt lat="43.51228" lon="6.58689">
        <ele>36</ele>
        <time>2021-09-13T09:24:23.914Z</time>
      </trkpt>
      <trkpt lat="43.51224" lon="6.58687">
        <ele>36</ele>
        <time>2021-09-13T09:24:28.908Z</time>
      </trkpt>
      <trkpt lat="43.5122" lon="6.58688">
        <ele>36</ele>
        <time>2021-09-13T09:24:33.893Z</time>
      </trkpt>
      <trkpt lat="43.51216" lon="6.5869">
        <ele>36</ele>
        <time>2021-09-13T09:24:38.904Z</time>
      </trkpt>
      <trkpt lat="43.51207" lon="6.58694">
        <ele>36</ele>
        <time>2021-09-13T09:24:43.901Z</time>
      </trkpt>
      <trkpt lat="43.512" lon="6.58696">
        <ele>36</ele>
        <time>2021-09-13T09:24:47.915Z</time>
      </trkpt>
      <trkpt lat="43.51196" lon="6.587">
        <ele>36</ele>
        <time>2021-09-13T09:24:51.911Z</time>
      </trkpt>
      <trkpt lat="43.51191" lon="6.58705">
        <ele>36</ele>
        <time>2021-09-13T09:24:56.911Z</time>
      </trkpt>
      <trkpt lat="43.51185" lon="6.5871">
        <ele>38</ele>
        <time>2021-09-13T09:25:01.900Z</time>
      </trkpt>
      <trkpt lat="43.5118" lon="6.58713">
        <ele>38</ele>
        <time>2021-09-13T09:25:05.905Z</time>
      </trkpt>
      <trkpt lat="43.51175" lon="6.58715">
        <ele>38</ele>
        <time>2021-09-13T09:25:09.914Z</time>
      </trkpt>
      <trkpt lat="43.5117" lon="6.58718">
        <ele>38</ele>
        <time>2021-09-13T09:25:14.900Z</time>
      </trkpt>
      <trkpt lat="43.51165" lon="6.58721">
        <ele>38</ele>
        <time>2021-09-13T09:25:19.911Z</time>
      </trkpt>
      <trkpt lat="43.5116" lon="6.58725">
        <ele>38</ele>
        <time>2021-09-13T09:25:24.913Z</time>
      </trkpt>
      <trkpt lat="43.51156" lon="6.5873">
        <ele>38</ele>
        <time>2021-09-13T09:25:29.902Z</time>
      </trkpt>
      <trkpt lat="43.51152" lon="6.58735">
        <ele>38</ele>
        <time>2021-09-13T09:25:34.903Z</time>
      </trkpt>
      <trkpt lat="43.51148" lon="6.58739">
        <ele>38</ele>
        <time>2021-09-13T09:25:39.886Z</time>
      </trkpt>
      <trkpt lat="43.51145" lon="6.58742">
        <ele>38</ele>
        <time>2021-09-13T09:25:43.933Z</time>
      </trkpt>
      <trkpt lat="43.51141" lon="6.58748">
        <ele>38</ele>
        <time>2021-09-13T09:25:48.917Z</time>
      </trkpt>
      <trkpt lat="43.51137" lon="6.58752">
        <ele>38</ele>
        <time>2021-09-13T09:25:53.888Z</time>
      </trkpt>
      <trkpt lat="43.51134" lon="6.58756">
        <ele>38</ele>
        <time>2021-09-13T09:25:57.914Z</time>
      </trkpt>
      <trkpt lat="43.5113" lon="6.58759">
        <ele>38</ele>
        <time>2021-09-13T09:26:01.915Z</time>
      </trkpt>
      <trkpt lat="43.51126" lon="6.58762">
        <ele>38</ele>
        <time>2021-09-13T09:26:06.893Z</time>
      </trkpt>
      <trkpt lat="43.51123" lon="6.58765">
        <ele>37</ele>
        <time>2021-09-13T09:26:11.934Z</time>
      </trkpt>
      <trkpt lat="43.51117" lon="6.58769">
        <ele>37</ele>
        <time>2021-09-13T09:26:16.901Z</time>
      </trkpt>
      <trkpt lat="43.51114" lon="6.58772">
        <ele>37</ele>
        <time>2021-09-13T09:26:20.904Z</time>
      </trkpt>
      <trkpt lat="43.51106" lon="6.58778">
        <ele>37</ele>
        <time>2021-09-13T09:26:25.893Z</time>
      </trkpt>
      <trkpt lat="43.51103" lon="6.58782">
        <ele>37</ele>
        <time>2021-09-13T09:26:29.906Z</time>
      </trkpt>
      <trkpt lat="43.51099" lon="6.58784">
        <ele>37</ele>
        <time>2021-09-13T09:26:34.910Z</time>
      </trkpt>
      <trkpt lat="43.51095" lon="6.58788">
        <ele>35</ele>
        <time>2021-09-13T09:26:38.918Z</time>
      </trkpt>
      <trkpt lat="43.51093" lon="6.58792">
        <ele>36</ele>
        <time>2021-09-13T09:26:43.905Z</time>
      </trkpt>
      <trkpt lat="43.51087" lon="6.58799">
        <ele>36</ele>
        <time>2021-09-13T09:26:48.902Z</time>
      </trkpt>
      <trkpt lat="43.5108" lon="6.58805">
        <ele>36</ele>
        <time>2021-09-13T09:26:53.895Z</time>
      </trkpt>
      <trkpt lat="43.51075" lon="6.58808">
        <ele>36</ele>
        <time>2021-09-13T09:26:57.905Z</time>
      </trkpt>
      <trkpt lat="43.5107" lon="6.58811">
        <ele>36</ele>
        <time>2021-09-13T09:27:02.906Z</time>
      </trkpt>
      <trkpt lat="43.51066" lon="6.58813">
        <ele>36</ele>
        <time>2021-09-13T09:27:06.916Z</time>
      </trkpt>
      <trkpt lat="43.51063" lon="6.58815">
        <ele>36</ele>
        <time>2021-09-13T09:27:11.915Z</time>
      </trkpt>
      <trkpt lat="43.51059" lon="6.58818">
        <ele>36</ele>
        <time>2021-09-13T09:27:16.909Z</time>
      </trkpt>
      <trkpt lat="43.51055" lon="6.58823">
        <ele>37</ele>
        <time>2021-09-13T09:27:21.903Z</time>
      </trkpt>
      <trkpt lat="43.5105" lon="6.58826">
        <ele>37</ele>
        <time>2021-09-13T09:27:25.910Z</time>
      </trkpt>
      <trkpt lat="43.51046" lon="6.58831">
        <ele>37</ele>
        <time>2021-09-13T09:27:30.899Z</time>
      </trkpt>
      <trkpt lat="43.51042" lon="6.58836">
        <ele>34</ele>
        <time>2021-09-13T09:27:34.914Z</time>
      </trkpt>
      <trkpt lat="43.51035" lon="6.58842">
        <ele>34</ele>
        <time>2021-09-13T09:27:39.918Z</time>
      </trkpt>
      <trkpt lat="43.5103" lon="6.58846">
        <ele>34</ele>
        <time>2021-09-13T09:27:44.900Z</time>
      </trkpt>
      <trkpt lat="43.51025" lon="6.5885">
        <ele>35</ele>
        <time>2021-09-13T09:27:49.888Z</time>
      </trkpt>
      <trkpt lat="43.51023" lon="6.58853">
        <ele>35</ele>
        <time>2021-09-13T09:27:53.899Z</time>
      </trkpt>
      <trkpt lat="43.51019" lon="6.58856">
        <ele>35</ele>
        <time>2021-09-13T09:27:57.912Z</time>
      </trkpt>
      <trkpt lat="43.51014" lon="6.58861">
        <ele>35</ele>
        <time>2021-09-13T09:28:02.923Z</time>
      </trkpt>
      <trkpt lat="43.51007" lon="6.58865">
        <ele>33</ele>
        <time>2021-09-13T09:28:07.914Z</time>
      </trkpt>
      <trkpt lat="43.51004" lon="6.58866">
        <ele>33</ele>
        <time>2021-09-13T09:28:11.930Z</time>
      </trkpt>
      <trkpt lat="43.50999" lon="6.58868">
        <ele>33</ele>
        <time>2021-09-13T09:28:16.901Z</time>
      </trkpt>
      <trkpt lat="43.50995" lon="6.58869">
        <ele>33</ele>
        <time>2021-09-13T09:28:20.912Z</time>
      </trkpt>
      <trkpt lat="43.5099" lon="6.58871">
        <ele>33</ele>
        <time>2021-09-13T09:28:24.931Z</time>
      </trkpt>
      <trkpt lat="43.50988" lon="6.58871">
        <ele>33</ele>
        <time>2021-09-13T09:28:29.918Z</time>
      </trkpt>
      <trkpt lat="43.50986" lon="6.58872">
        <ele>34</ele>
        <time>2021-09-13T09:28:33.922Z</time>
      </trkpt>
      <trkpt lat="43.5098" lon="6.58874">
        <ele>34</ele>
        <time>2021-09-13T09:28:38.895Z</time>
      </trkpt>
      <trkpt lat="43.50976" lon="6.58876">
        <ele>35</ele>
        <time>2021-09-13T09:28:42.914Z</time>
      </trkpt>
      <trkpt lat="43.50967" lon="6.58877">
        <ele>35</ele>
        <time>2021-09-13T09:28:47.907Z</time>
      </trkpt>
      <trkpt lat="43.5096" lon="6.58879">
        <ele>35</ele>
        <time>2021-09-13T09:28:52.904Z</time>
      </trkpt>
      <trkpt lat="43.50952" lon="6.58879">
        <ele>36</ele>
        <time>2021-09-13T09:28:57.916Z</time>
      </trkpt>
      <trkpt lat="43.50948" lon="6.58878">
        <ele>36</ele>
        <time>2021-09-13T09:29:01.920Z</time>
      </trkpt>
      <trkpt lat="43.50944" lon="6.58878">
        <ele>36</ele>
        <time>2021-09-13T09:29:05.917Z</time>
      </trkpt>
      <trkpt lat="43.50938" lon="6.58877">
        <ele>36</ele>
        <time>2021-09-13T09:29:10.920Z</time>
      </trkpt>
      <trkpt lat="43.50933" lon="6.58877">
        <ele>36</ele>
        <time>2021-09-13T09:29:15.903Z</time>
      </trkpt>
      <trkpt lat="43.50928" lon="6.58879">
        <ele>37</ele>
        <time>2021-09-13T09:29:19.990Z</time>
      </trkpt>
      <trkpt lat="43.50924" lon="6.58881">
        <ele>37</ele>
        <time>2021-09-13T09:29:24.910Z</time>
      </trkpt>
      <trkpt lat="43.50919" lon="6.58882">
        <ele>37</ele>
        <time>2021-09-13T09:29:29.918Z</time>
      </trkpt>
      <trkpt lat="43.5092" lon="6.58883">
        <ele>37</ele>
        <time>2021-09-13T09:29:34.923Z</time>
      </trkpt>
      <trkpt lat="43.50919" lon="6.58883">
        <ele>37</ele>
        <time>2021-09-13T09:29:38.926Z</time>
      </trkpt>
      <trkpt lat="43.50916" lon="6.58881">
        <ele>37</ele>
        <time>2021-09-13T09:29:43.909Z</time>
      </trkpt>
      <trkpt lat="43.50912" lon="6.58881">
        <ele>37</ele>
        <time>2021-09-13T09:29:47.939Z</time>
      </trkpt>
      <trkpt lat="43.50909" lon="6.58882">
        <ele>37</ele>
        <time>2021-09-13T09:29:52.922Z</time>
      </trkpt>
      <trkpt lat="43.50904" lon="6.58882">
        <ele>37</ele>
        <time>2021-09-13T09:29:57.899Z</time>
      </trkpt>
      <trkpt lat="43.50895" lon="6.58884">
        <ele>37</ele>
        <time>2021-09-13T09:30:01.909Z</time>
      </trkpt>
      <trkpt lat="43.50889" lon="6.58885">
        <ele>37</ele>
        <time>2021-09-13T09:30:05.913Z</time>
      </trkpt>
      <trkpt lat="43.50884" lon="6.58888">
        <ele>37</ele>
        <time>2021-09-13T09:30:09.922Z</time>
      </trkpt>
      <trkpt lat="43.50878" lon="6.58891">
        <ele>37</ele>
        <time>2021-09-13T09:30:14.943Z</time>
      </trkpt>
      <trkpt lat="43.50874" lon="6.58892">
        <ele>36</ele>
        <time>2021-09-13T09:30:18.933Z</time>
      </trkpt>
      <trkpt lat="43.50868" lon="6.58896">
        <ele>36</ele>
        <time>2021-09-13T09:30:23.912Z</time>
      </trkpt>
      <trkpt lat="43.50862" lon="6.58897">
        <ele>36</ele>
        <time>2021-09-13T09:30:28.935Z</time>
      </trkpt>
      <trkpt lat="43.50858" lon="6.58897">
        <ele>36</ele>
        <time>2021-09-13T09:30:33.934Z</time>
      </trkpt>
      <trkpt lat="43.50852" lon="6.58898">
        <ele>36</ele>
        <time>2021-09-13T09:30:38.919Z</time>
      </trkpt>
      <trkpt lat="43.50847" lon="6.58899">
        <ele>35</ele>
        <time>2021-09-13T09:30:43.924Z</time>
      </trkpt>
      <trkpt lat="43.50841" lon="6.58901">
        <ele>35</ele>
        <time>2021-09-13T09:30:48.910Z</time>
      </trkpt>
      <trkpt lat="43.50836" lon="6.58904">
        <ele>36</ele>
        <time>2021-09-13T09:30:53.898Z</time>
      </trkpt>
      <trkpt lat="43.50831" lon="6.58905">
        <ele>36</ele>
        <time>2021-09-13T09:30:58.912Z</time>
      </trkpt>
      <trkpt lat="43.50825" lon="6.58906">
        <ele>36</ele>
        <time>2021-09-13T09:31:03.911Z</time>
      </trkpt>
      <trkpt lat="43.50821" lon="6.5891">
        <ele>36</ele>
        <time>2021-09-13T09:31:07.914Z</time>
      </trkpt>
      <trkpt lat="43.50819" lon="6.58913">
        <ele>34</ele>
        <time>2021-09-13T09:31:11.961Z</time>
      </trkpt>
      <trkpt lat="43.50816" lon="6.58916">
        <ele>34</ele>
        <time>2021-09-13T09:31:16.910Z</time>
      </trkpt>
      <trkpt lat="43.5081" lon="6.58919">
        <ele>34</ele>
        <time>2021-09-13T09:31:21.922Z</time>
      </trkpt>
      <trkpt lat="43.50805" lon="6.58922">
        <ele>34</ele>
        <time>2021-09-13T09:31:26.929Z</time>
      </trkpt>
      <trkpt lat="43.50797" lon="6.58925">
        <ele>34</ele>
        <time>2021-09-13T09:31:31.933Z</time>
      </trkpt>
      <trkpt lat="43.50792" lon="6.58928">
        <ele>34</ele>
        <time>2021-09-13T09:31:36.914Z</time>
      </trkpt>
      <trkpt lat="43.50789" lon="6.58929">
        <ele>34</ele>
        <time>2021-09-13T09:31:40.939Z</time>
      </trkpt>
      <trkpt lat="43.5078" lon="6.58933">
        <ele>37</ele>
        <time>2021-09-13T09:31:45.912Z</time>
      </trkpt>
      <trkpt lat="43.50773" lon="6.5894">
        <ele>37</ele>
        <time>2021-09-13T09:31:50.907Z</time>
      </trkpt>
      <trkpt lat="43.50768" lon="6.58946">
        <ele>37</ele>
        <time>2021-09-13T09:31:55.901Z</time>
      </trkpt>
      <trkpt lat="43.50763" lon="6.58951">
        <ele>34</ele>
        <time>2021-09-13T09:31:59.910Z</time>
      </trkpt>
      <trkpt lat="43.50759" lon="6.58957">
        <ele>34</ele>
        <time>2021-09-13T09:32:04.896Z</time>
      </trkpt>
      <trkpt lat="43.50755" lon="6.58961">
        <ele>38</ele>
        <time>2021-09-13T09:32:08.902Z</time>
      </trkpt>
      <trkpt lat="43.50751" lon="6.58965">
        <ele>38</ele>
        <time>2021-09-13T09:32:12.929Z</time>
      </trkpt>
      <trkpt lat="43.50745" lon="6.58969">
        <ele>38</ele>
        <time>2021-09-13T09:32:17.898Z</time>
      </trkpt>
      <trkpt lat="43.50741" lon="6.5897">
        <ele>38</ele>
        <time>2021-09-13T09:32:22.902Z</time>
      </trkpt>
      <trkpt lat="43.50739" lon="6.58972">
        <ele>38</ele>
        <time>2021-09-13T09:32:26.914Z</time>
      </trkpt>
      <trkpt lat="43.50737" lon="6.58974">
        <ele>38</ele>
        <time>2021-09-13T09:32:30.932Z</time>
      </trkpt>
      <trkpt lat="43.50734" lon="6.58975">
        <ele>34</ele>
        <time>2021-09-13T09:32:35.884Z</time>
      </trkpt>
      <trkpt lat="43.50729" lon="6.58978">
        <ele>34</ele>
        <time>2021-09-13T09:32:39.933Z</time>
      </trkpt>
      <trkpt lat="43.50725" lon="6.58979">
        <ele>34</ele>
        <time>2021-09-13T09:32:43.923Z</time>
      </trkpt>
      <trkpt lat="43.50719" lon="6.58982">
        <ele>34</ele>
        <time>2021-09-13T09:32:48.896Z</time>
      </trkpt>
      <trkpt lat="43.50716" lon="6.58985">
        <ele>34</ele>
        <time>2021-09-13T09:32:52.916Z</time>
      </trkpt>
      <trkpt lat="43.50709" lon="6.58987">
        <ele>36</ele>
        <time>2021-09-13T09:32:57.903Z</time>
      </trkpt>
      <trkpt lat="43.50701" lon="6.5899">
        <ele>34</ele>
        <time>2021-09-13T09:33:01.900Z</time>
      </trkpt>
      <trkpt lat="43.50693" lon="6.58993">
        <ele>34</ele>
        <time>2021-09-13T09:33:06.894Z</time>
      </trkpt>
      <trkpt lat="43.50688" lon="6.58995">
        <ele>34</ele>
        <time>2021-09-13T09:33:10.898Z</time>
      </trkpt>
      <trkpt lat="43.50684" lon="6.58996">
        <ele>34</ele>
        <time>2021-09-13T09:33:14.904Z</time>
      </trkpt>
      <trkpt lat="43.50679" lon="6.58997">
        <ele>33</ele>
        <time>2021-09-13T09:33:18.899Z</time>
      </trkpt>
      <trkpt lat="43.50674" lon="6.58997">
        <ele>33</ele>
        <time>2021-09-13T09:33:23.896Z</time>
      </trkpt>
      <trkpt lat="43.5067" lon="6.58997">
        <ele>33</ele>
        <time>2021-09-13T09:33:27.919Z</time>
      </trkpt>
      <trkpt lat="43.50664" lon="6.58999">
        <ele>33</ele>
        <time>2021-09-13T09:33:32.903Z</time>
      </trkpt>
      <trkpt lat="43.50659" lon="6.59002">
        <ele>33</ele>
        <time>2021-09-13T09:33:37.904Z</time>
      </trkpt>
      <trkpt lat="43.50652" lon="6.59001">
        <ele>34</ele>
        <time>2021-09-13T09:33:42.901Z</time>
      </trkpt>
      <trkpt lat="43.50645" lon="6.59">
        <ele>34</ele>
        <time>2021-09-13T09:33:47.903Z</time>
      </trkpt>
      <trkpt lat="43.50641" lon="6.59">
        <ele>34</ele>
        <time>2021-09-13T09:33:51.918Z</time>
      </trkpt>
      <trkpt lat="43.50635" lon="6.59001">
        <ele>34</ele>
        <time>2021-09-13T09:33:56.905Z</time>
      </trkpt>
      <trkpt lat="43.50629" lon="6.59001">
        <ele>34</ele>
        <time>2021-09-13T09:34:01.909Z</time>
      </trkpt>
      <trkpt lat="43.50624" lon="6.59003">
        <ele>36</ele>
        <time>2021-09-13T09:34:06.911Z</time>
      </trkpt>
      <trkpt lat="43.50622" lon="6.59004">
        <ele>36</ele>
        <time>2021-09-13T09:34:11.885Z</time>
      </trkpt>
      <trkpt lat="43.50619" lon="6.59006">
        <ele>36</ele>
        <time>2021-09-13T09:34:15.906Z</time>
      </trkpt>
      <trkpt lat="43.50613" lon="6.59011">
        <ele>36</ele>
        <time>2021-09-13T09:34:20.905Z</time>
      </trkpt>
      <trkpt lat="43.50607" lon="6.59015">
        <ele>37</ele>
        <time>2021-09-13T09:34:24.911Z</time>
      </trkpt>
      <trkpt lat="43.506" lon="6.59016">
        <ele>37</ele>
        <time>2021-09-13T09:34:29.904Z</time>
      </trkpt>
      <trkpt lat="43.50594" lon="6.59015">
        <ele>38</ele>
        <time>2021-09-13T09:34:33.901Z</time>
      </trkpt>
      <trkpt lat="43.50586" lon="6.59014">
        <ele>36</ele>
        <time>2021-09-13T09:34:38.886Z</time>
      </trkpt>
      <trkpt lat="43.50581" lon="6.59014">
        <ele>36</ele>
        <time>2021-09-13T09:34:42.913Z</time>
      </trkpt>
      <trkpt lat="43.50578" lon="6.59015">
        <ele>38</ele>
        <time>2021-09-13T09:34:47.899Z</time>
      </trkpt>
      <trkpt lat="43.50574" lon="6.59015">
        <ele>38</ele>
        <time>2021-09-13T09:34:52.896Z</time>
      </trkpt>
      <trkpt lat="43.5057" lon="6.59016">
        <ele>38</ele>
        <time>2021-09-13T09:34:57.892Z</time>
      </trkpt>
      <trkpt lat="43.50565" lon="6.59016">
        <ele>40</ele>
        <time>2021-09-13T09:35:01.893Z</time>
      </trkpt>
      <trkpt lat="43.50561" lon="6.59016">
        <ele>40</ele>
        <time>2021-09-13T09:35:06.891Z</time>
      </trkpt>
      <trkpt lat="43.50554" lon="6.59017">
        <ele>40</ele>
        <time>2021-09-13T09:35:10.905Z</time>
      </trkpt>
      <trkpt lat="43.50546" lon="6.59018">
        <ele>40</ele>
        <time>2021-09-13T09:35:15.889Z</time>
      </trkpt>
      <trkpt lat="43.50541" lon="6.5902">
        <ele>41</ele>
        <time>2021-09-13T09:35:20.881Z</time>
      </trkpt>
      <trkpt lat="43.50536" lon="6.5902">
        <ele>41</ele>
        <time>2021-09-13T09:35:25.903Z</time>
      </trkpt>
      <trkpt lat="43.50531" lon="6.59022">
        <ele>41</ele>
        <time>2021-09-13T09:35:30.889Z</time>
      </trkpt>
      <trkpt lat="43.50524" lon="6.59025">
        <ele>41</ele>
        <time>2021-09-13T09:35:35.898Z</time>
      </trkpt>
      <trkpt lat="43.50519" lon="6.5903">
        <ele>41</ele>
        <time>2021-09-13T09:35:40.889Z</time>
      </trkpt>
      <trkpt lat="43.50515" lon="6.59034">
        <ele>41</ele>
        <time>2021-09-13T09:35:45.929Z</time>
      </trkpt>
      <trkpt lat="43.5051" lon="6.59036">
        <ele>41</ele>
        <time>2021-09-13T09:35:50.898Z</time>
      </trkpt>
      <trkpt lat="43.50506" lon="6.5904">
        <ele>41</ele>
        <time>2021-09-13T09:35:54.936Z</time>
      </trkpt>
      <trkpt lat="43.50502" lon="6.59046">
        <ele>42</ele>
        <time>2021-09-13T09:35:59.908Z</time>
      </trkpt>
      <trkpt lat="43.50497" lon="6.5905">
        <ele>42</ele>
        <time>2021-09-13T09:36:04.894Z</time>
      </trkpt>
      <trkpt lat="43.50491" lon="6.59054">
        <ele>42</ele>
        <time>2021-09-13T09:36:09.909Z</time>
      </trkpt>
      <trkpt lat="43.50486" lon="6.59056">
        <ele>40</ele>
        <time>2021-09-13T09:36:14.879Z</time>
      </trkpt>
      <trkpt lat="43.50481" lon="6.59058">
        <ele>40</ele>
        <time>2021-09-13T09:36:18.887Z</time>
      </trkpt>
      <trkpt lat="43.50476" lon="6.5906">
        <ele>40</ele>
        <time>2021-09-13T09:36:22.929Z</time>
      </trkpt>
      <trkpt lat="43.50472" lon="6.59062">
        <ele>40</ele>
        <time>2021-09-13T09:36:27.902Z</time>
      </trkpt>
      <trkpt lat="43.50469" lon="6.59062">
        <ele>40</ele>
        <time>2021-09-13T09:36:31.903Z</time>
      </trkpt>
      <trkpt lat="43.50468" lon="6.59063">
        <ele>40</ele>
        <time>2021-09-13T09:36:36.900Z</time>
      </trkpt>
      <trkpt lat="43.50465" lon="6.59063">
        <ele>40</ele>
        <time>2021-09-13T09:36:41.928Z</time>
      </trkpt>
      <trkpt lat="43.50462" lon="6.59066">
        <ele>40</ele>
        <time>2021-09-13T09:36:46.901Z</time>
      </trkpt>
      <trkpt lat="43.50455" lon="6.59067">
        <ele>36</ele>
        <time>2021-09-13T09:36:51.899Z</time>
      </trkpt>
      <trkpt lat="43.50452" lon="6.59068">
        <ele>36</ele>
        <time>2021-09-13T09:36:55.908Z</time>
      </trkpt>
      <trkpt lat="43.50445" lon="6.59071">
        <ele>37</ele>
        <time>2021-09-13T09:37:00.901Z</time>
      </trkpt>
      <trkpt lat="43.50443" lon="6.59073">
        <ele>37</ele>
        <time>2021-09-13T09:37:04.912Z</time>
      </trkpt>
    </trkseg>
  </trk>
</gpx>